| time (UTC) | temp C | wind direction | speed KPH | gust KPH | rain 1hr cm | rain 24hr cm | rain mn cm | humidity % | barometer mb |
| 20260509112902 | 18 | 119 | 8.0 | 12.9 | 0.00 | 0.00 | 0.00 | 58 | 1013.1 |
| 20260509112853 | 22 | 329 | 9.7 | 22.5 | 0.00 | 0.00 | 0.00 | 53 | 1013.2 |
| 20260509112840 | 18 | 46 | 14.5 | 19.3 | 0.00 | 0.00 | 0.00 | 65 | 1016.5 |
| 20260509112838 | 25 | 231 | 1.6 | 12.9 | 0.00 | 0.00 | 0.00 | 42 | 1014.7 |
| 20260509112834 | 23 | 57 | 3.2 | 8.0 | 0.00 | 0.00 | 0.00 | 46 | 1014.0 |
| 20260509112832 | 24 | 295 | 0.0 | 4.8 | 0.00 | 0.00 | 0.00 | 62 | 1016.4 |
| 20260509112828 | 25 | 216 | 1.6 | 4.8 | 0.00 | 0.00 | 0.00 | 44 | 1037.4 |
| 20260509112820 | 19 | 249 | 8.0 | 12.9 | 0.00 | 0.00 | 0.00 | 60 | 1016.8 |
| 20260509112811 | 24 | 194 | 0.0 | 6.4 | 0.00 | 0.00 | 0.00 | 44 | 1051.1 |
| 20260509112402 | 18 | 214 | 6.4 | 11.3 | 0.00 | 0.00 | 0.00 | 61 | 1013.2 |
| 20260509112351 | 22 | 359 | 14.5 | 20.9 | 0.00 | 0.00 | 0.00 | 52 | 1013.2 |
| 20260509112346 | 18 | 82 | 16.1 | 20.9 | 0.00 | 0.00 | 0.00 | 65 | 1016.5 |
| 20260509112341 | 24 | 266 | 1.6 | 6.4 | 0.00 | 0.00 | 0.00 | 62 | 1016.5 |
| 20260509112338 | 25 | 185 | 1.6 | 11.3 | 0.00 | 0.00 | 0.00 | 40 | 1014.8 |
| 20260509112333 | 25 | 219 | 1.6 | 9.7 | 0.00 | 0.00 | 0.00 | 38 | 1037.4 |
| 20260509112330 | 23 | 116 | 1.6 | 11.3 | 0.00 | 0.00 | 0.00 | 46 | 1014.0 |
| 20260509112326 | 19 | 271 | 11.3 | 12.9 | 0.00 | 0.00 | 0.00 | 60 | 1016.9 |
| 20260509112314 | 22 | 117 | 4.8 | 9.7 | 0.00 | 0.00 | 0.00 | 45 | 1051.1 |
| 20260509111859 | 18 | 202 | 1.6 | 14.5 | 0.00 | 0.00 | 0.00 | 60 | 1013.2 |
| 20260509111851 | 25 | 199 | 0.0 | 0.0 | 0.00 | 0.00 | 0.00 | 49 | 1014.3 |
| 20260509111844 | 24 | 70 | 0.0 | 14.5 | 0.00 | 0.00 | 0.00 | 39 | 1014.9 |
| 20260509111837 | 18 | 71 | 17.7 | 19.3 | 0.00 | 0.00 | 0.00 | 66 | 1016.4 |
| 20260509111834 | 23 | 143 | 4.8 | 11.3 | 0.00 | 0.00 | 0.00 | 46 | 1013.9 |
| 20260509111832 | 23 | 78 | 4.8 | 11.3 | 0.00 | 0.00 | 0.00 | 62 | 1016.7 |
| 20260509111828 | 25 | 226 | 1.6 | 8.0 | 0.00 | 0.00 | 0.00 | 38 | 1037.6 |
| 20260509111820 | 20 | 228 | 3.2 | 4.8 | 0.00 | 0.00 | 0.00 | 60 | 1016.9 |
| 20260509111817 | 22 | 32 | 0.0 | 12.9 | 0.00 | 0.00 | 0.00 | 45 | 1051.2 |
| 20260509111408 | 18 | 240 | 6.4 | 16.1 | 0.00 | 0.00 | 0.00 | 59 | 1013.3 |
| 20260509111349 | 22 | 359 | 6.4 | 16.1 | 0.00 | 0.00 | 0.00 | 54 | 1013.2 |
| 20260509111338 | 24 | 200 | 9.7 | 16.1 | 0.00 | 0.00 | 0.00 | 40 | 1014.9 |
| 20260509111334 | 23 | 104 | 4.8 | 9.7 | 0.00 | 0.00 | 0.00 | 46 | 1013.7 |
| 20260509111332 | 23 | 138 | 1.6 | 6.4 | 0.00 | 0.00 | 0.00 | 62 | 1016.6 |
| 20260509111328 | 25 | 235 | 0.0 | 12.9 | 0.00 | 0.00 | 0.00 | 42 | 1037.6 |
| 20260509111320 | 20 | 255 | 3.2 | 11.3 | 0.00 | 0.00 | 0.00 | 60 | 1016.9 |
| 20260509111314 | 23 | 297 | 0.0 | 12.9 | 0.00 | 0.00 | 0.00 | 49 | 1051.1 |
| 20260509110859 | 18 | 176 | 4.8 | 17.7 | 0.00 | 0.00 | 0.00 | 61 | 1013.3 |
| 20260509110851 | 22 | 334 | 11.3 | 25.7 | 0.00 | 0.03 | 0.00 | 54 | 1013.1 |
| 20260509110841 | 24 | 172 | 0.0 | 11.3 | 0.00 | 0.00 | 0.00 | 39 | 1015.1 |
| 20260509110838 | 18 | 79 | 16.1 | 20.9 | 0.00 | 0.00 | 0.00 | 63 | 1016.4 |
| 20260509110834 | 23 | 130 | 6.4 | 12.9 | 0.00 | 0.00 | 0.00 | 46 | 1013.7 |
| 20260509110832 | 24 | 119 | 3.2 | 8.0 | 0.00 | 0.00 | 0.00 | 62 | 1016.7 |
| 20260509110828 | 24 | 218 | 3.2 | 9.7 | 0.00 | 0.00 | 0.00 | 42 | 1037.7 |
| 20260509110820 | 20 | 228 | 6.4 | 9.7 | 0.00 | 0.00 | 0.00 | 62 | 1016.8 |
| 20260509110811 | 22 | 47 | 4.8 | 12.9 | 0.00 | 0.00 | 0.00 | 49 | 1051.2 |
| 20260509110359 | 18 | 172 | 8.0 | 17.7 | 0.00 | 0.00 | 0.00 | 60 | 1013.4 |
| 20260509110356 | 22 | 342 | 4.8 | 22.5 | 0.00 | 0.03 | 0.00 | 55 | 1013.1 |
| 20260509110347 | 24 | 185 | 0.0 | 0.0 | 0.00 | 0.00 | 0.00 | 48 | 1014.3 |
| 20260509110338 | 24 | 90 | 4.8 | 12.9 | 0.00 | 0.00 | 0.00 | 40 | 1015.0 |
| 20260509110332 | 23 | 105 | 3.2 | 8.0 | 0.00 | 0.00 | 0.00 | 63 | 1016.7 |
| 20260509110320 | 20 | 277 | 1.6 | 9.7 | 0.00 | 0.00 | 0.00 | 58 | 1016.8 |
| 20260509110311 | 22 | 252 | 0.0 | 6.4 | 0.00 | 0.00 | 0.00 | 51 | 1051.2 |
| 20260509105906 | 18 | 203 | 6.4 | 14.5 | 0.00 | 0.00 | 0.00 | 62 | 1013.3 |
| 20260509105849 | 22 | 359 | 17.7 | 22.5 | 0.00 | 0.03 | 0.00 | 55 | 1013.0 |
| 20260509105841 | 24 | 230 | 0.0 | 16.1 | 0.00 | 0.00 | 0.00 | 41 | 1015.2 |
| 20260509105837 | 24 | 211 | 1.6 | 4.8 | 0.00 | 0.00 | 0.00 | 47 | 1037.8 |
| 20260509105832 | 23 | 165 | 3.2 | 6.4 | 0.00 | 0.00 | 0.00 | 63 | 1016.8 |
| 20260509105820 | 20 | 203 | 3.2 | 8.0 | 0.00 | 0.00 | 0.00 | 59 | 1016.8 |
| 20260509105814 | 22 | 108 | 3.2 | 8.0 | 0.00 | 0.00 | 0.00 | 53 | 1051.4 |
| 20260509105402 | 18 | 157 | 4.8 | 12.9 | 0.00 | 0.00 | 0.00 | 61 | 1013.3 |
| 20260509105346 | 22 | 0 | 6.4 | 17.7 | 0.00 | 0.03 | 0.00 | 55 | 1013.0 |
| 20260509105344 | 23 | 138 | 0.0 | 9.7 | 0.00 | 0.00 | 0.00 | 42 | 1015.2 |
| 20260509105340 | 18 | 68 | 16.1 | 24.1 | 0.00 | 0.00 | 0.00 | 67 | 1016.4 |
| 20260509105335 | 23 | 129 | 1.6 | 4.8 | 0.00 | 0.00 | 0.00 | 63 | 1016.9 |
| 20260509105331 | 23 | 225 | 4.8 | 8.0 | 0.00 | 0.00 | 0.00 | 47 | 1013.5 |
| 20260509105328 | 23 | 78 | 1.6 | 6.4 | 0.00 | 0.00 | 0.00 | 46 | 1037.9 |
| 20260509105323 | 20 | 193 | 3.2 | 9.7 | 0.00 | 0.00 | 0.00 | 59 | 1016.7 |
| 20260509105314 | 22 | 64 | 4.8 | 8.0 | 0.00 | 0.00 | 0.00 | 54 | 1051.5 |
| 20260509104859 | 18 | 116 | 11.3 | 12.9 | 0.00 | 0.00 | 0.00 | 62 | 1013.4 |
| 20260509104846 | 22 | 352 | 16.1 | 19.3 | 0.00 | 0.03 | 0.00 | 54 | 1013.0 |
| 20260509104841 | 23 | 70 | 0.0 | 6.4 | 0.00 | 0.00 | 0.00 | 43 | 1015.3 |
| 20260509104837 | 18 | 63 | 12.9 | 20.9 | 0.00 | 0.00 | 0.00 | 66 | 1016.5 |
| 20260509104834 | 23 | 44 | 0.0 | 8.0 | 0.00 | 0.00 | 0.00 | 47 | 1013.5 |
| 20260509104832 | 23 | 124 | 3.2 | 8.0 | 0.00 | 0.00 | 0.00 | 63 | 1017.0 |
| 20260509104820 | 20 | 224 | 6.4 | 12.9 | 0.00 | 0.00 | 0.00 | 58 | 1016.7 |
| 20260509104811 | 22 | 35 | 3.2 | 4.8 | 0.00 | 0.00 | 0.00 | 53 | 1051.5 |
| 20260509104400 | 18 | 252 | 0.0 | 11.3 | 0.00 | 0.00 | 0.00 | 62 | 1013.4 |
| 20260509104354 | 22 | 357 | 6.4 | 20.9 | 0.00 | 0.03 | 0.00 | 53 | 1013.0 |
| 20260509104338 | 24 | 157 | 0.0 | 12.9 | 0.00 | 0.00 | 0.00 | 47 | 1015.3 |
| 20260509104332 | 23 | 88 | 3.2 | 9.7 | 0.00 | 0.00 | 0.00 | 64 | 1017.0 |
| 20260509104328 | 23 | 125 | 0.0 | 4.8 | 0.00 | 0.00 | 0.00 | 47 | 1038.1 |
| 20260509104326 | 19 | 242 | 0.0 | 8.0 | 0.00 | 0.00 | 0.00 | 50 | 1016.7 |
| 20260509104317 | 22 | 34 | 0.0 | 9.7 | 0.00 | 0.00 | 0.00 | 52 | 1051.6 |
| 20260509103859 | 18 | 105 | 4.8 | 9.7 | 0.00 | 0.00 | 0.00 | 63 | 1013.4 |
| 20260509103846 | 22 | 344 | 17.7 | 22.5 | 0.00 | 0.05 | 0.00 | 54 | 1012.9 |
| 20260509103844 | 23 | 236 | 4.8 | 8.0 | 0.00 | 0.00 | 0.00 | 43 | 1015.4 |
| 20260509103840 | 19 | 63 | 12.9 | 20.9 | 0.00 | 0.00 | 0.00 | 67 | 1016.6 |
| 20260509103835 | 23 | 53 | 4.8 | 11.3 | 0.00 | 0.00 | 0.00 | 64 | 1017.0 |
| 20260509103831 | 23 | 143 | 6.4 | 9.7 | 0.00 | 0.00 | 0.00 | 47 | 1013.4 |
| 20260509103823 | 20 | 312 | 4.8 | 6.4 | 0.00 | 0.00 | 0.00 | 51 | 1016.8 |
| 20260509103811 | 22 | 298 | 0.0 | 1.6 | 0.00 | 0.00 | 0.00 | 52 | 1051.8 |
| 20260509103405 | 18 | 167 | 6.4 | 14.5 | 0.00 | 0.00 | 0.00 | 61 | 1013.5 |
| 20260509103355 | 22 | 304 | 3.2 | 17.7 | 0.00 | 0.05 | 0.00 | 55 | 1012.9 |
| 20260509103346 | 23 | 158 | 0.0 | 0.0 | 0.00 | 0.00 | 0.00 | 48 | 1014.3 |
| 20260509103344 | 23 | 235 | 0.0 | 0.0 | 0.00 | 0.00 | 0.00 | 45 | 1015.5 |
| 20260509103340 | 18 | 71 | 20.9 | 22.5 | 0.00 | 0.00 | 0.00 | 67 | 1016.6 |
| 20260509103337 | 23 | 212 | 1.6 | 6.4 | 0.00 | 0.00 | 0.00 | 50 | 1038.3 |
| 20260509103335 | 23 | 309 | 1.6 | 3.2 | 0.00 | 0.00 | 0.00 | 63 | 1017.1 |
| 20260509103331 | 23 | 151 | 4.8 | 8.0 | 0.00 | 0.00 | 0.00 | 47 | 1013.4 |
| 20260509103320 | 20 | 221 | 0.0 | 3.2 | 0.00 | 0.00 | 0.00 | 50 | 1016.7 |
| 20260509103311 | 22 | 288 | 0.0 | 8.0 | 0.00 | 0.00 | 0.00 | 56 | 1051.7 |
| 20260509102905 | 18 | 107 | 4.8 | 11.3 | 0.00 | 0.00 | 0.00 | 62 | 1013.5 |
| 20260509102849 | 22 | 358 | 14.5 | 17.7 | 0.00 | 0.05 | 0.00 | 55 | 1012.9 |
| 20260509102841 | 23 | 38 | 0.0 | 0.0 | 0.00 | 0.00 | 0.00 | 45 | 1015.5 |
| 20260509102837 | 18 | 63 | 16.1 | 20.9 | 0.00 | 0.00 | 0.00 | 66 | 1016.5 |
| 20260509102835 | 22 | 306 | 3.2 | 9.7 | 0.00 | 0.00 | 0.00 | 64 | 1017.2 |
| 20260509102833 | 23 | 295 | 4.8 | 4.8 | 0.00 | 0.00 | 0.00 | 51 | 1038.3 |
| 20260509102820 | 19 | 278 | 0.0 | 6.4 | 0.00 | 0.00 | 0.00 | 48 | 1016.8 |
| 20260509102811 | 21 | 325 | 3.2 | 8.0 | 0.00 | 0.00 | 0.00 | 58 | 1051.8 |
| 20260509102359 | 18 | 180 | 3.2 | 8.0 | 0.00 | 0.00 | 0.00 | 63 | 1013.6 |
| 20260509102346 | 22 | 321 | 6.4 | 22.5 | 0.00 | 0.08 | 0.00 | 55 | 1012.9 |
| 20260509102338 | 22 | 321 | 0.0 | 4.8 | 0.00 | 0.00 | 0.00 | 45 | 1015.6 |
| 20260509102334 | 22 | 181 | 4.8 | 9.7 | 0.00 | 0.00 | 0.00 | 48 | 1013.4 |
| 20260509102332 | 22 | 263 | 4.8 | 8.0 | 0.00 | 0.00 | 0.00 | 65 | 1017.1 |
| 20260509102327 | 22 | 300 | 1.6 | 6.4 | 0.00 | 0.00 | 0.00 | 51 | 1038.4 |
| 20260509102323 | 19 | 277 | 1.6 | 4.8 | 0.00 | 0.00 | 0.00 | 51 | 1016.8 |
| 20260509102315 | 21 | 58 | 8.0 | 9.7 | 0.00 | 0.00 | 0.00 | 57 | 1051.8 |
| 20260509101909 | 18 | 168 | 8.0 | 9.7 | 0.00 | 0.00 | 0.00 | 64 | 1013.5 |
| 20260509101849 | 21 | 23 | 12.9 | 22.5 | 0.00 | 0.08 | 0.00 | 55 | 1013.0 |
| 20260509101845 | 23 | 253 | 0.0 | 0.0 | 0.00 | 0.00 | 0.00 | 51 | 1014.3 |
| 20260509101838 | 18 | 90 | 11.3 | 20.9 | 0.00 | 0.00 | 0.00 | 67 | 1016.7 |
| 20260509101834 | 22 | 306 | 3.2 | 4.8 | 0.00 | 0.00 | 0.00 | 54 | 1038.5 |
| 20260509101832 | 22 | 259 | 3.2 | 8.0 | 0.00 | 0.00 | 0.00 | 65 | 1017.2 |
| 20260509101820 | 19 | 269 | 0.0 | 11.3 | 0.00 | 0.00 | 0.00 | 51 | 1016.9 |
| 20260509101814 | 21 | 5 | 1.6 | 8.0 | 0.00 | 0.00 | 0.00 | 57 | 1051.8 |
| 20260509101406 | 18 | 145 | 6.4 | 12.9 | 0.00 | 0.00 | 0.00 | 64 | 1013.5 |
| 20260509101349 | 21 | 352 | 8.0 | 19.3 | 0.00 | 0.08 | 0.00 | 56 | 1013.0 |
| 20260509101343 | 18 | 57 | 17.7 | 17.7 | 0.00 | 0.00 | 0.00 | 68 | 1016.6 |
| 20260509101341 | 22 | 333 | 3.2 | 6.4 | 0.00 | 0.00 | 0.00 | 45 | 1015.9 |
| 20260509101332 | 22 | 94 | 3.2 | 9.7 | 0.00 | 0.00 | 0.00 | 48 | 1013.1 |
| 20260509101327 | 22 | 306 | 3.2 | 6.4 | 0.00 | 0.00 | 0.00 | 53 | 1038.5 |
| 20260509101320 | 20 | 232 | 9.7 | 9.7 | 0.00 | 0.00 | 0.00 | 51 | 1016.8 |
| 20260509101315 | 21 | 11 | 3.2 | 3.2 | 0.00 | 0.00 | 0.00 | 54 | 1052.0 |
| 20260509100905 | 17 | 169 | 6.4 | 19.3 | 0.00 | 0.00 | 0.00 | 63 | 1013.6 |
| 20260509100849 | 22 | 248 | 8.0 | 16.1 | 0.00 | 0.08 | 0.00 | 56 | 1013.0 |
| 20260509100844 | 22 | 5 | 0.0 | 6.4 | 0.00 | 0.00 | 0.00 | 46 | 1015.9 |
| 20260509100841 | 18 | 53 | 11.3 | 20.9 | 0.00 | 0.00 | 0.00 | 68 | 1016.7 |
| 20260509100835 | 22 | 307 | 3.2 | 9.7 | 0.00 | 0.00 | 0.00 | 65 | 1017.2 |
| 20260509100831 | 22 | 272 | 1.6 | 9.7 | 0.00 | 0.00 | 0.00 | 54 | 1038.6 |
| 20260509100826 | 20 | 209 | 0.0 | 8.0 | 0.00 | 0.00 | 0.00 | 50 | 1016.9 |
| 20260509100814 | 20 | 163 | 1.6 | 4.8 | 0.00 | 0.00 | 0.00 | 58 | 1051.9 |
| 20260509100402 | 17 | 178 | 6.4 | 12.9 | 0.00 | 0.00 | 0.00 | 65 | 1013.6 |
| 20260509100351 | 22 | 161 | 0.0 | 0.0 | 0.00 | 0.00 | 0.00 | 58 | 1014.3 |
| 20260509100349 | 22 | 269 | 8.0 | 9.7 | 0.00 | 0.10 | 0.00 | 57 | 1013.0 |
| 20260509100338 | 22 | 341 | 4.8 | 4.8 | 0.00 | 0.00 | 0.00 | 45 | 1015.9 |
| 20260509100335 | 22 | 270 | 4.8 | 11.3 | 0.00 | 0.00 | 0.00 | 64 | 1017.2 |
| 20260509100327 | 22 | 304 | 3.2 | 4.8 | 0.00 | 0.00 | 0.00 | 57 | 1038.6 |
| 20260509100320 | 20 | 238 | 0.0 | 6.4 | 0.00 | 0.00 | 0.00 | 49 | 1016.8 |
| 20260509095859 | 17 | 215 | 1.6 | 17.7 | 0.00 | 0.00 | 0.00 | 64 | 1013.6 |
| 20260509095848 | 22 | 347 | 4.8 | 14.5 | 0.00 | 0.13 | 0.00 | 57 | 1013.1 |
| 20260509095844 | 22 | 217 | 0.0 | 0.0 | 0.00 | 0.00 | 0.00 | 48 | 1015.9 |
| 20260509095837 | 18 | 51 | 11.3 | 19.3 | 0.00 | 0.00 | 0.00 | 68 | 1016.7 |
| 20260509095833 | 22 | 12 | 3.2 | 6.4 | 0.00 | 0.00 | 0.00 | 57 | 1038.7 |
| 20260509095831 | 22 | 142 | 3.2 | 9.7 | 0.00 | 0.00 | 0.00 | 49 | 1013.1 |
| 20260509095820 | 20 | 155 | 1.6 | 8.0 | 0.00 | 0.00 | 0.00 | 47 | 1016.8 |
| 20260509095403 | 17 | 192 | 14.5 | 14.5 | 0.00 | 0.00 | 0.00 | 64 | 1013.6 |
| 20260509095350 | 22 | 299 | 6.4 | 16.1 | 0.00 | 0.15 | 0.00 | 56 | 1013.0 |
| 20260509095338 | 22 | 20 | 0.0 | 0.0 | 0.00 | 0.00 | 0.00 | 48 | 1015.9 |
| 20260509095334 | 22 | 124 | 1.6 | 4.8 | 0.00 | 0.00 | 0.00 | 50 | 1013.1 |
| 20260509095332 | 22 | 246 | 1.6 | 8.0 | 0.00 | 0.00 | 0.00 | 67 | 1017.3 |
| 20260509095327 | 22 | 342 | 3.2 | 6.4 | 0.00 | 0.00 | 0.00 | 62 | 1038.8 |
| 20260509094905 | 17 | 161 | 8.0 | 17.7 | 0.00 | 0.00 | 0.00 | 63 | 1013.7 |
| 20260509094851 | 21 | 301 | 6.4 | 19.3 | 0.00 | 0.18 | 0.00 | 58 | 1013.0 |
| 20260509094848 | 22 | 170 | 0.0 | 0.0 | 0.00 | 0.00 | 0.00 | 62 | 1014.4 |
| 20260509094843 | 18 | 40 | 8.0 | 19.3 | 0.00 | 0.00 | 0.00 | 69 | 1016.6 |
| 20260509094841 | 21 | 336 | 0.0 | 12.9 | 0.00 | 0.00 | 0.00 | 50 | 1016.0 |
| 20260509094835 | 22 | 254 | 1.6 | 6.4 | 0.00 | 0.00 | 0.00 | 68 | 1017.3 |
| 20260509094831 | 22 | 91 | 4.8 | 9.7 | 0.00 | 0.00 | 0.00 | 50 | 1013.1 |
| 20260509094828 | 21 | 332 | 0.0 | 6.4 | 0.00 | 0.00 | 0.00 | 58 | 1038.8 |
| 20260509094826 | 19 | 200 | 0.0 | 11.3 | 0.00 | 0.00 | 0.00 | 49 | 1016.8 |
| 20260509094359 | 18 | 188 | 4.8 | 16.1 | 0.00 | 0.00 | 0.00 | 66 | 1013.6 |
| 20260509094346 | 21 | 348 | 17.7 | 19.3 | 0.00 | 0.18 | 0.00 | 56 | 1013.0 |
| 20260509094344 | 21 | 317 | 0.0 | 6.4 | 0.00 | 0.00 | 0.00 | 51 | 1016.0 |
| 20260509094338 | 18 | 65 | 14.5 | 17.7 | 0.00 | 0.00 | 0.00 | 67 | 1016.6 |
| 20260509094335 | 22 | 304 | 3.2 | 6.4 | 0.00 | 0.00 | 0.00 | 68 | 1017.3 |
| 20260509094331 | 22 | 129 | 6.4 | 11.3 | 0.00 | 0.00 | 0.00 | 49 | 1013.1 |
| 20260509094327 | 21 | 339 | 4.8 | 4.8 | 0.00 | 0.00 | 0.00 | 60 | 1038.8 |
| 20260509094323 | 19 | 190 | 0.0 | 8.0 | 0.00 | 0.00 | 0.00 | 50 | 1016.9 |
| 20260509093908 | 17 | 219 | 1.6 | 17.7 | 0.00 | 0.00 | 0.00 | 69 | 1013.7 |
| 20260509093852 | 22 | 6 | 8.0 | 16.1 | 0.00 | 0.20 | 0.00 | 57 | 1013.0 |
| 20260509093843 | 19 | 49 | 8.0 | 19.3 | 0.00 | 0.00 | 0.00 | 68 | 1016.5 |
| 20260509093838 | 21 | 294 | 0.0 | 0.0 | 0.00 | 0.00 | 0.00 | 51 | 1016.1 |
| 20260509093835 | 22 | 277 | 6.4 | 6.4 | 0.00 | 0.00 | 0.00 | 67 | 1017.3 |
| 20260509093828 | 21 | 294 | 1.6 | 3.2 | 0.00 | 0.00 | 0.00 | 60 | 1038.9 |
| 20260509093823 | 19 | 245 | 0.0 | 6.4 | 0.00 | 0.00 | 0.00 | 49 | 1016.9 |
| 20260509093359 | 17 | 163 | 6.4 | 12.9 | 0.00 | 0.00 | 0.00 | 68 | 1013.7 |
| 20260509093353 | 21 | 316 | 6.4 | 12.9 | 0.00 | 0.20 | 0.00 | 56 | 1012.9 |
| 20260509093351 | 21 | 106 | 0.0 | 0.0 | 0.00 | 0.00 | 0.00 | 64 | 1014.6 |
| 20260509093340 | 18 | 57 | 8.0 | 16.1 | 0.00 | 0.00 | 0.00 | 70 | 1016.5 |
| 20260509093338 | 21 | 311 | 0.0 | 8.0 | 0.00 | 0.00 | 0.00 | 53 | 1016.1 |
| 20260509093332 | 22 | 91 | 11.3 | 11.3 | 0.00 | 0.00 | 0.00 | 51 | 1013.0 |
| 20260509093330 | 21 | 294 | 4.8 | 4.8 | 0.00 | 0.00 | 0.00 | 59 | 1038.9 |
| 20260509093320 | 19 | 200 | 0.0 | 9.7 | 0.00 | 0.00 | 0.00 | 50 | 1017.0 |
| 20260509092905 | 17 | 188 | 1.6 | 11.3 | 0.00 | 0.00 | 0.00 | 67 | 1013.6 |
| 20260509092852 | 21 | 0 | 3.2 | 14.5 | 0.00 | 0.20 | 0.00 | 55 | 1013.0 |
| 20260509092844 | 21 | 355 | 4.8 | 12.9 | 0.00 | 0.00 | 0.00 | 51 | 1016.2 |
| 20260509092837 | 18 | 51 | 9.7 | 16.1 | 0.00 | 0.00 | 0.00 | 71 | 1016.5 |
| 20260509092832 | 22 | 269 | 0.0 | 9.7 | 0.00 | 0.00 | 0.00 | 68 | 1017.4 |
| 20260509092830 | 21 | 297 | 3.2 | 4.8 | 0.00 | 0.00 | 0.00 | 60 | 1039.0 |
| 20260509092820 | 18 | 186 | 1.6 | 9.7 | 0.00 | 0.00 | 0.00 | 52 | 1016.9 |
| 20260509092359 | 17 | 226 | 4.8 | 9.7 | 0.00 | 0.00 | 0.00 | 68 | 1013.6 |
| 20260509092349 | 21 | 20 | 8.0 | 14.5 | 0.00 | 0.20 | 0.00 | 55 | 1012.9 |
| 20260509092344 | 21 | 298 | 0.0 | 11.3 | 0.00 | 0.00 | 0.00 | 52 | 1016.2 |
| 20260509092340 | 17 | 101 | 9.7 | 17.7 | 0.00 | 0.00 | 0.00 | 71 | 1016.6 |
| 20260509092337 | 22 | 140 | 6.4 | 8.0 | 0.00 | 0.00 | 0.00 | 52 | 1013.0 |
| 20260509092332 | 22 | 269 | 3.2 | 6.4 | 0.00 | 0.00 | 0.00 | 69 | 1017.5 |
| 20260509092328 | 21 | 297 | 0.0 | 6.4 | 0.00 | 0.00 | 0.00 | 62 | 1039.0 |
| 20260509092321 | 18 | 218 | 4.8 | 9.7 | 0.00 | 0.00 | 0.00 | 50 | 1016.9 |
| 20260509091906 | 17 | 301 | 1.6 | 16.1 | 0.00 | 0.00 | 0.00 | 68 | 1013.6 |
| 20260509091848 | 21 | 106 | 0.0 | 0.0 | 0.00 | 0.00 | 0.00 | 67 | 1014.6 |
| 20260509091846 | 21 | 334 | 14.5 | 16.1 | 0.00 | 0.20 | 0.00 | 56 | 1012.9 |
| 20260509091840 | 17 | 76 | 14.5 | 17.7 | 0.00 | 0.00 | 0.00 | 70 | 1016.6 |
| 20260509091838 | 21 | 9 | 0.0 | 11.3 | 0.00 | 0.00 | 0.00 | 52 | 1016.3 |
| 20260509091835 | 21 | 316 | 4.8 | 6.4 | 0.00 | 0.00 | 0.00 | 70 | 1017.6 |
| 20260509091831 | 21 | 116 | 4.8 | 9.7 | 0.00 | 0.00 | 0.00 | 53 | 1013.0 |
| 20260509091820 | 18 | 236 | 0.0 | 4.8 | 0.00 | 0.00 | 0.00 | 48 | 1016.8 |
| 20260509091402 | 17 | 161 | 11.3 | 12.9 | 0.00 | 0.00 | 0.00 | 67 | 1013.5 |
| 20260509091347 | 21 | 273 | 0.0 | 4.8 | 0.00 | 0.00 | 0.00 | 52 | 1016.4 |
| 20260509091337 | 18 | 82 | 11.3 | 20.9 | 0.00 | 0.00 | 0.00 | 71 | 1016.5 |
| 20260509091332 | 21 | 265 | 1.6 | 4.8 | 0.00 | 0.00 | 0.00 | 71 | 1017.5 |
| 20260509091327 | 21 | 89 | 0.0 | 4.8 | 0.00 | 0.00 | 0.00 | 63 | 1039.1 |
| 20260509091321 | 18 | 258 | 0.0 | 9.7 | 0.00 | 0.00 | 0.00 | 48 | 1016.7 |
| 20260509090859 | 17 | 184 | 9.7 | 12.9 | 0.00 | 0.00 | 0.00 | 67 | 1013.5 |
| 20260509090848 | 21 | 1 | 9.7 | 11.3 | 0.00 | 0.23 | 0.00 | 58 | 1012.9 |
| 20260509090843 | 18 | 92 | 16.1 | 20.9 | 0.00 | 0.00 | 0.00 | 70 | 1016.5 |
| 20260509090841 | 20 | 278 | 0.0 | 8.0 | 0.00 | 0.00 | 0.00 | 54 | 1016.4 |
| 20260509090832 | 21 | 264 | 3.2 | 9.7 | 0.00 | 0.00 | 0.00 | 71 | 1017.5 |
| 20260509090820 | 18 | 160 | 6.4 | 9.7 | 0.00 | 0.00 | 0.00 | 58 | 1016.7 |
| 20260509090359 | 17 | 161 | 1.6 | 14.5 | 0.00 | 0.00 | 0.00 | 68 | 1013.6 |
| 20260509090349 | 21 | 354 | 9.7 | 14.5 | 0.00 | 0.23 | 0.00 | 56 | 1013.0 |
| 20260509090345 | 20 | 106 | 0.0 | 0.0 | 0.00 | 0.00 | 0.00 | 69 | 1014.9 |
| 20260509090341 | 20 | 17 | 11.3 | 11.3 | 0.00 | 0.00 | 0.00 | 53 | 1016.5 |
| 20260509090337 | 18 | 81 | 17.7 | 17.7 | 0.00 | 0.00 | 0.00 | 71 | 1016.4 |
| 20260509090335 | 21 | 298 | 0.0 | 4.8 | 0.00 | 0.00 | 0.00 | 71 | 1017.5 |
| 20260509090331 | 21 | 175 | 3.2 | 6.4 | 0.00 | 0.00 | 0.00 | 55 | 1012.8 |
| 20260509085859 | 17 | 168 | 3.2 | 12.9 | 0.00 | 0.00 | 0.00 | 69 | 1013.5 |
| 20260509085847 | 21 | 313 | 3.2 | 16.1 | 0.00 | 0.23 | 0.00 | 56 | 1012.9 |
| 20260509085841 | 20 | 293 | 1.6 | 11.3 | 0.00 | 0.00 | 0.00 | 55 | 1016.6 |
| 20260509085838 | 21 | 311 | 3.2 | 4.8 | 0.00 | 0.00 | 0.00 | 73 | 1017.6 |
| 20260509085832 | 21 | 201 | 4.8 | 6.4 | 0.00 | 0.00 | 0.00 | 55 | 1012.8 |
| 20260509085827 | 20 | 50 | 3.2 | 4.8 | 0.00 | 0.00 | 0.00 | 61 | 1039.3 |
| 20260509085823 | 18 | 148 | 3.2 | 9.7 | 0.00 | 0.00 | 0.00 | 57 | 1016.6 |
| 20260509085402 | 17 | 169 | 11.3 | 14.5 | 0.00 | 0.00 | 0.00 | 66 | 1013.6 |
| 20260509085346 | 21 | 40 | 4.8 | 12.9 | 0.00 | 0.23 | 0.00 | 57 | 1012.9 |
| 20260509085338 | 20 | 318 | 0.0 | 3.2 | 0.00 | 0.00 | 0.00 | 55 | 1016.6 |
| 20260509085335 | 21 | 311 | 0.0 | 4.8 | 0.00 | 0.00 | 0.00 | 74 | 1017.6 |
| 20260509085330 | 20 | 50 | 0.0 | 6.4 | 0.00 | 0.00 | 0.00 | 63 | 1039.3 |
| 20260509085323 | 18 | 153 | 8.0 | 16.1 | 0.00 | 0.00 | 0.00 | 56 | 1016.7 |
| 20260509084902 | 17 | 186 | 3.2 | 12.9 | 0.00 | 0.00 | 0.00 | 67 | 1013.7 |
| 20260509084846 | 21 | 342 | 8.0 | 12.9 | 0.00 | 0.23 | 0.00 | 61 | 1013.0 |
| 20260509084838 | 20 | 285 | 0.0 | 11.3 | 0.00 | 0.00 | 0.00 | 54 | 1016.7 |
| 20260509084834 | 20 | 146 | 3.2 | 8.0 | 0.00 | 0.00 | 0.00 | 56 | 1012.8 |
| 20260509084820 | 18 | 215 | 0.0 | 4.8 | 0.00 | 0.00 | 0.00 | 57 | 1016.6 |
| 20260509084402 | 17 | 165 | 8.0 | 16.1 | 0.00 | 0.00 | 0.00 | 67 | 1013.6 |
| 20260509084347 | 20 | 319 | 0.0 | 6.4 | 0.00 | 0.00 | 0.00 | 54 | 1016.8 |
| 20260509084340 | 18 | 88 | 12.9 | 16.1 | 0.00 | 0.00 | 0.00 | 70 | 1016.7 |
| 20260509084337 | 20 | 197 | 1.6 | 4.8 | 0.00 | 0.00 | 0.00 | 59 | 1013.0 |
| 20260509084332 | 20 | 312 | 0.0 | 3.2 | 0.00 | 0.00 | 0.00 | 76 | 1017.7 |
| 20260509084330 | 20 | 19 | 3.2 | 8.0 | 0.00 | 0.00 | 0.00 | 64 | 1039.5 |
| 20260509084321 | 19 | 268 | 1.6 | 4.8 | 0.00 | 0.00 | 0.00 | 55 | 1016.5 |
| 20260509083859 | 17 | 221 | 1.6 | 16.1 | 0.00 | 0.00 | 0.00 | 67 | 1013.6 |
| 20260509083846 | 18 | 67 | 12.9 | 16.1 | 0.00 | 0.00 | 0.00 | 70 | 1016.6 |
| 20260509083838 | 20 | 327 | 4.8 | 12.9 | 0.00 | 0.00 | 0.00 | 55 | 1016.8 |
| 20260509083834 | 20 | 132 | 3.2 | 8.0 | 0.00 | 0.00 | 0.00 | 59 | 1013.0 |
| 20260509083830 | 19 | 10 | 4.8 | 8.0 | 0.00 | 0.00 | 0.00 | 65 | 1039.6 |
| 20260509083824 | 19 | 305 | 0.0 | 0.0 | 0.00 | 0.00 | 0.00 | 51 | 1016.6 |
| 20260509083359 | 17 | 167 | 4.8 | 9.7 | 0.00 | 0.00 | 0.00 | 67 | 1013.6 |
| 20260509083357 | 20 | 359 | 8.0 | 12.9 | 0.00 | 0.25 | 0.00 | 61 | 1013.1 |
| 20260509083346 | 20 | 106 | 0.0 | 0.0 | 0.00 | 0.00 | 0.00 | 73 | 1014.9 |
| 20260509083344 | 19 | 43 | 0.0 | 3.2 | 0.00 | 0.00 | 0.00 | 59 | 1016.8 |
| 20260509083333 | 19 | 59 | 3.2 | 6.4 | 0.00 | 0.00 | 0.00 | 64 | 1039.6 |
| 20260509083331 | 20 | 125 | 3.2 | 6.4 | 0.00 | 0.00 | 0.00 | 61 | 1013.0 |
| 20260509083329 | 18 | 155 | 0.0 | 6.4 | 0.00 | 0.00 | 0.00 | 52 | 1016.6 |
| 20260509082859 | 17 | 136 | 4.8 | 12.9 | 0.00 | 0.00 | 0.00 | 66 | 1013.6 |
| 20260509082849 | 20 | 303 | 6.4 | 11.3 | 0.00 | 0.25 | 0.00 | 64 | 1013.2 |
| 20260509082838 | 19 | 297 | 0.0 | 1.6 | 0.00 | 0.00 | 0.00 | 55 | 1016.9 |
| 20260509082832 | 20 | 277 | 1.6 | 4.8 | 0.00 | 0.00 | 0.00 | 79 | 1017.8 |
| 20260509082830 | 19 | 3 | 3.2 | 6.4 | 0.00 | 0.00 | 0.00 | 63 | 1039.7 |
| 20260509082827 | 18 | 295 | 0.0 | 1.6 | 0.00 | 0.00 | 0.00 | 52 | 1016.6 |
| 20260509082359 | 17 | 192 | 3.2 | 8.0 | 0.00 | 0.00 | 0.00 | 68 | 1013.6 |
| 20260509082346 | 20 | 326 | 9.7 | 16.1 | 0.00 | 0.28 | 0.00 | 64 | 1013.1 |
| 20260509082340 | 18 | 51 | 6.4 | 17.7 | 0.00 | 0.00 | 0.00 | 71 | 1016.7 |
| 20260509082338 | 19 | 294 | 0.0 | 8.0 | 0.00 | 0.00 | 0.00 | 55 | 1017.0 |
| 20260509082332 | 19 | 275 | 1.6 | 4.8 | 0.00 | 0.00 | 0.00 | 78 | 1017.8 |
| 20260509082327 | 19 | 6 | 1.6 | 4.8 | 0.00 | 0.00 | 0.00 | 66 | 1039.7 |
| 20260509082320 | 18 | 218 | 0.0 | 4.8 | 0.00 | 0.00 | 0.00 | 57 | 1016.6 |
| 20260509081900 | 17 | 159 | 6.4 | 12.9 | 0.00 | 0.00 | 0.00 | 66 | 1013.6 |
| 20260509081849 | 20 | 349 | 9.7 | 11.3 | 0.00 | 0.28 | 0.00 | 64 | 1013.2 |
| 20260509081838 | 19 | 324 | 0.0 | 8.0 | 0.00 | 0.00 | 0.00 | 60 | 1016.9 |
| 20260509081831 | 19 | 64 | 4.8 | 6.4 | 0.00 | 0.00 | 0.00 | 65 | 1013.2 |
| 20260509081827 | 19 | 9 | 4.8 | 4.8 | 0.00 | 0.00 | 0.00 | 66 | 1039.8 |
| 20260509081821 | 18 | 232 | 0.0 | 1.6 | 0.00 | 0.00 | 0.00 | 62 | 1016.6 |
| 20260509081405 | 17 | 168 | 11.3 | 16.1 | 0.00 | 0.00 | 0.00 | 69 | 1013.6 |
| 20260509081349 | 20 | 0 | 6.4 | 14.5 | 0.00 | 0.28 | 0.00 | 63 | 1013.4 |
| 20260509081341 | 18 | 19 | 8.0 | 11.3 | 0.00 | 0.00 | 0.00 | 57 | 1016.9 |
| 20260509081337 | 19 | 75 | 11.3 | 12.9 | 0.00 | 0.00 | 0.00 | 69 | 1016.6 |
| 20260509081332 | 19 | 263 | 4.8 | 4.8 | 0.00 | 0.00 | 0.00 | 80 | 1017.8 |
| 20260509081330 | 18 | 28 | 3.2 | 4.8 | 0.00 | 0.00 | 0.00 | 67 | 1039.8 |
| 20260509081321 | 18 | 188 | 0.0 | 3.2 | 0.00 | 0.00 | 0.00 | 60 | 1016.7 |
| 20260509080859 | 16 | 157 | 3.2 | 12.9 | 0.00 | 0.00 | 0.00 | 68 | 1013.6 |
| 20260509080851 | 20 | 331 | 1.6 | 12.9 | 0.00 | 0.28 | 0.00 | 67 | 1013.4 |
| 20260509080838 | 18 | 56 | 0.0 | 9.7 | 0.00 | 0.00 | 0.00 | 58 | 1016.9 |
| 20260509080832 | 18 | 259 | 1.6 | 6.4 | 0.00 | 0.00 | 0.00 | 80 | 1017.9 |
| 20260509080830 | 18 | 28 | 3.2 | 8.0 | 0.00 | 0.00 | 0.00 | 67 | 1040.0 |
| 20260509080827 | 18 | 207 | 0.0 | 3.2 | 0.00 | 0.00 | 0.00 | 60 | 1016.7 |
| 20260509080359 | 17 | 220 | 3.2 | 16.1 | 0.00 | 0.00 | 0.00 | 66 | 1013.6 |
| 20260509080350 | 19 | 330 | 6.4 | 9.7 | 0.00 | 0.28 | 0.00 | 70 | 1013.3 |
| 20260509080344 | 19 | 234 | 1.6 | 6.4 | 0.00 | 0.00 | 0.00 | 64 | 1016.6 |
| 20260509080338 | 18 | 31 | 1.6 | 14.5 | 0.00 | 0.00 | 0.00 | 61 | 1017.1 |
| 20260509080332 | 18 | 260 | 4.8 | 9.7 | 0.00 | 0.00 | 0.00 | 80 | 1017.9 |
| 20260509080330 | 18 | 28 | 0.0 | 4.8 | 0.00 | 0.00 | 0.00 | 66 | 1040.0 |
| 20260509080327 | 18 | 148 | 0.0 | 9.7 | 0.00 | 0.00 | 0.00 | 60 | 1016.7 |
| 20260509075859 | 17 | 169 | 6.4 | 9.7 | 0.00 | 0.00 | 0.00 | 68 | 1013.7 |
| 20260509075850 | 19 | 257 | 4.8 | 11.3 | 0.00 | 0.28 | 0.00 | 70 | 1013.2 |
| 20260509075841 | 18 | 296 | 0.0 | 14.5 | 0.00 | 0.00 | 0.00 | 59 | 1017.1 |
| 20260509075838 | 18 | 271 | 3.2 | 4.8 | 0.00 | 0.00 | 0.00 | 81 | 1018.0 |
| 20260509075832 | 18 | 21 | 1.6 | 3.2 | 0.00 | 0.00 | 0.00 | 70 | 1013.4 |
| 20260509075830 | 18 | 9 | 0.0 | 3.2 | 0.00 | 0.00 | 0.00 | 68 | 1040.1 |
| 20260509075827 | 17 | 153 | 0.0 | 6.4 | 0.00 | 0.00 | 0.00 | 63 | 1016.6 |
| 20260509075402 | 17 | 204 | 1.6 | 8.0 | 0.00 | 0.00 | 0.00 | 70 | 1013.6 |
| 20260509075351 | 19 | 339 | 4.8 | 11.3 | 0.00 | 0.28 | 0.00 | 70 | 1013.2 |
| 20260509075343 | 19 | 43 | 4.8 | 8.0 | 0.00 | 0.00 | 0.00 | 66 | 1016.6 |
| 20260509075341 | 18 | 299 | 3.2 | 9.7 | 0.00 | 0.00 | 0.00 | 81 | 1018.1 |
| 20260509075338 | 18 | 63 | 12.9 | 14.5 | 0.00 | 0.00 | 0.00 | 58 | 1017.1 |
| 20260509075331 | 17 | 47 | 1.6 | 3.2 | 0.00 | 0.00 | 0.00 | 72 | 1013.4 |
| 20260509075327 | 18 | 9 | 0.0 | 4.8 | 0.00 | 0.00 | 0.00 | 67 | 1040.1 |
| 20260509075321 | 17 | 276 | 0.0 | 4.8 | 0.00 | 0.00 | 0.00 | 61 | 1016.7 |
| 20260509074859 | 16 | 165 | 3.2 | 9.7 | 0.00 | 0.00 | 0.00 | 69 | 1013.7 |
| 20260509074852 | 18 | 302 | 8.0 | 12.9 | 0.00 | 0.28 | 0.00 | 70 | 1013.2 |
| 20260509074847 | 18 | 58 | 6.4 | 14.5 | 0.00 | 0.00 | 0.00 | 61 | 1017.2 |
| 20260509074837 | 17 | 47 | 1.6 | 3.2 | 0.00 | 0.00 | 0.00 | 74 | 1013.4 |
| 20260509074832 | 18 | 246 | 3.2 | 6.4 | 0.00 | 0.00 | 0.00 | 82 | 1018.1 |
| 20260509074827 | 18 | 6 | 1.6 | 6.4 | 0.00 | 0.00 | 0.00 | 69 | 1040.0 |
| 20260509074824 | 17 | 214 | 0.0 | 8.0 | 0.00 | 0.00 | 0.00 | 61 | 1016.7 |
| 20260509074359 | 16 | 170 | 8.0 | 11.3 | 0.00 | 0.00 | 0.00 | 69 | 1013.7 |
| 20260509074346 | 18 | 358 | 6.4 | 9.7 | 0.00 | 0.28 | 0.00 | 71 | 1013.3 |
| 20260509074341 | 18 | 24 | 1.6 | 16.1 | 0.00 | 0.00 | 0.00 | 62 | 1017.3 |
| 20260509074337 | 19 | 355 | 3.2 | 9.7 | 0.00 | 0.00 | 0.00 | 67 | 1016.6 |
| 20260509074332 | 18 | 246 | 1.6 | 6.4 | 0.00 | 0.00 | 0.00 | 82 | 1018.0 |
| 20260509074328 | 17 | 52 | 1.6 | 6.4 | 0.00 | 0.00 | 0.00 | 69 | 1040.1 |
| 20260509074324 | 17 | 252 | 0.0 | 4.8 | 0.00 | 0.00 | 0.00 | 61 | 1016.7 |
| 20260509073906 | 16 | 162 | 6.4 | 11.3 | 0.00 | 0.00 | 0.00 | 70 | 1013.6 |
| 20260509073846 | 18 | 343 | 9.7 | 9.7 | 0.00 | 0.28 | 0.00 | 72 | 1013.2 |
| 20260509073838 | 17 | 332 | 8.0 | 14.5 | 0.00 | 0.00 | 0.00 | 61 | 1017.4 |
| 20260509073834 | 16 | 47 | 0.0 | 3.2 | 0.00 | 0.00 | 0.00 | 76 | 1013.5 |
| 20260509073832 | 17 | 269 | 6.4 | 9.7 | 0.00 | 0.00 | 0.00 | 84 | 1018.0 |
| 20260509073824 | 17 | 165 | 0.0 | 6.4 | 0.00 | 0.00 | 0.00 | 61 | 1016.7 |
| 20260509073359 | 16 | 181 | 3.2 | 8.0 | 0.00 | 0.00 | 0.00 | 70 | 1013.6 |
| 20260509073349 | 18 | 340 | 4.8 | 11.3 | 0.00 | 0.30 | 0.00 | 72 | 1013.2 |
| 20260509073347 | 17 | 28 | 9.7 | 16.1 | 0.00 | 0.00 | 0.00 | 63 | 1017.4 |
| 20260509073337 | 18 | 262 | 4.8 | 6.4 | 0.00 | 0.00 | 0.00 | 69 | 1016.7 |
| 20260509073335 | 16 | 47 | 0.0 | 3.2 | 0.00 | 0.00 | 0.00 | 77 | 1013.5 |
| 20260509073332 | 17 | 298 | 1.6 | 6.4 | 0.00 | 0.00 | 0.00 | 84 | 1018.0 |
| 20260509073327 | 17 | 316 | 4.8 | 6.4 | 0.00 | 0.00 | 0.00 | 73 | 1040.2 |
| 20260509073321 | 17 | 219 | 1.6 | 8.0 | 0.00 | 0.00 | 0.00 | 61 | 1016.7 |
| 20260509072905 | 16 | 123 | 1.6 | 11.3 | 0.00 | 0.00 | 0.00 | 71 | 1013.6 |
| 20260509072849 | 18 | 6 | 4.8 | 11.3 | 0.00 | 0.30 | 0.00 | 74 | 1013.2 |
| 20260509072841 | 17 | 304 | 6.4 | 12.9 | 0.00 | 0.00 | 0.00 | 62 | 1017.4 |
| 20260509072832 | 17 | 284 | 4.8 | 6.4 | 0.00 | 0.00 | 0.00 | 84 | 1018.0 |
| 20260509072830 | 17 | 160 | 0.0 | 8.0 | 0.00 | 0.00 | 0.00 | 60 | 1016.6 |
| 20260509072827 | 17 | 302 | 0.0 | 6.4 | 0.00 | 0.00 | 0.00 | 72 | 1040.3 |
| 20260509072359 | 16 | 142 | 1.6 | 11.3 | 0.00 | 0.00 | 0.00 | 71 | 1013.7 |
| 20260509072346 | 18 | 274 | 4.8 | 9.7 | 0.00 | 0.30 | 0.00 | 75 | 1013.1 |
| 20260509072338 | 17 | 42 | 9.7 | 12.9 | 0.00 | 0.00 | 0.00 | 63 | 1017.4 |
| 20260509072335 | 17 | 274 | 3.2 | 6.4 | 0.00 | 0.00 | 0.00 | 85 | 1018.0 |
| 20260509072331 | 15 | 18 | 0.0 | 3.2 | 0.00 | 0.00 | 0.00 | 82 | 1013.7 |
| 20260509072327 | 17 | 358 | 3.2 | 6.4 | 0.00 | 0.00 | 0.00 | 72 | 1040.3 |
| 20260509072321 | 18 | 287 | 0.0 | 6.4 | 0.00 | 0.00 | 0.00 | 58 | 1016.6 |
| 20260509071859 | 16 | 200 | 3.2 | 14.5 | 0.00 | 0.00 | 0.00 | 71 | 1013.5 |
| 20260509071856 | 18 | 330 | 3.2 | 11.3 | 0.00 | 0.30 | 0.00 | 75 | 1013.1 |
| 20260509071846 | 17 | 106 | 0.0 | 0.0 | 0.00 | 0.00 | 0.00 | 83 | 1015.4 |
| 20260509071838 | 17 | 338 | 4.8 | 11.3 | 0.00 | 0.00 | 0.00 | 65 | 1017.6 |
| 20260509071832 | 17 | 232 | 4.8 | 8.0 | 0.00 | 0.00 | 0.00 | 85 | 1018.1 |
| 20260509071827 | 16 | 31 | 6.4 | 6.4 | 0.00 | 0.00 | 0.00 | 76 | 1040.3 |
| 20260509071359 | 16 | 117 | 6.4 | 11.3 | 0.00 | 0.00 | 0.00 | 70 | 1013.6 |
| 20260509071346 | 17 | 323 | 3.2 | 12.9 | 0.00 | 0.33 | 0.00 | 75 | 1013.0 |
| 20260509071344 | 17 | 265 | 1.6 | 9.7 | 0.00 | 0.00 | 0.00 | 71 | 1016.7 |
| 20260509071338 | 16 | 308 | 3.2 | 8.0 | 0.00 | 0.00 | 0.00 | 64 | 1017.4 |
| 20260509071334 | 14 | 18 | 3.2 | 3.2 | 0.00 | 0.00 | 0.00 | 84 | 1013.9 |
| 20260509071332 | 17 | 296 | 0.0 | 6.4 | 0.00 | 0.00 | 0.00 | 85 | 1018.0 |
| 20260509071327 | 16 | 14 | 3.2 | 3.2 | 0.00 | 0.00 | 0.00 | 75 | 1040.4 |
| 20260509071321 | 18 | 285 | 0.0 | 4.8 | 0.00 | 0.00 | 0.00 | 55 | 1016.6 |
| 20260509070859 | 16 | 171 | 6.4 | 8.0 | 0.00 | 0.00 | 0.00 | 71 | 1013.6 |
| 20260509070846 | 17 | 338 | 4.8 | 9.7 | 0.00 | 0.38 | 0.00 | 76 | 1013.0 |
| 20260509070844 | 16 | 10 | 4.8 | 12.9 | 0.00 | 0.00 | 0.00 | 65 | 1017.5 |
| 20260509070840 | 17 | 266 | 6.4 | 9.7 | 0.00 | 0.00 | 0.00 | 71 | 1016.7 |
| 20260509070834 | 14 | 18 | 1.6 | 3.2 | 0.00 | 0.00 | 0.00 | 85 | 1013.9 |
| 20260509070832 | 16 | 325 | 4.8 | 9.7 | 0.00 | 0.00 | 0.00 | 85 | 1018.0 |
| 20260509070827 | 16 | 14 | 0.0 | 6.4 | 0.00 | 0.00 | 0.00 | 74 | 1040.3 |
| 20260509070821 | 18 | 356 | 0.0 | 0.0 | 0.00 | 0.00 | 0.00 | 57 | 1016.7 |
| 20260509070406 | 16 | 173 | 4.8 | 8.0 | 0.00 | 0.00 | 0.00 | 72 | 1013.6 |
| 20260509070350 | 17 | 321 | 3.2 | 11.3 | 0.00 | 0.43 | 0.00 | 77 | 1013.0 |
| 20260509070344 | 17 | 293 | 3.2 | 11.3 | 0.00 | 0.00 | 0.00 | 72 | 1016.7 |
| 20260509070341 | 16 | 319 | 1.6 | 9.7 | 0.00 | 0.00 | 0.00 | 66 | 1017.5 |
| 20260509070335 | 16 | 322 | 4.8 | 8.0 | 0.00 | 0.00 | 0.00 | 85 | 1018.0 |
| 20260509070332 | 13 | 18 | 0.0 | 3.2 | 0.00 | 0.00 | 0.00 | 86 | 1013.9 |
| 20260509070327 | 16 | 342 | 4.8 | 6.4 | 0.00 | 0.00 | 0.00 | 75 | 1040.3 |
| 20260509070321 | 17 | 356 | 0.0 | 1.6 | 0.00 | 0.00 | 0.00 | 57 | 1016.6 |
| 20260509065859 | 16 | 178 | 3.2 | 9.7 | 0.00 | 0.00 | 0.00 | 70 | 1013.5 |
| 20260509065846 | 17 | 302 | 3.2 | 9.7 | 0.00 | 0.46 | 0.00 | 78 | 1012.9 |
| 20260509065841 | 16 | 340 | 0.0 | 0.0 | 0.00 | 0.00 | 0.00 | 67 | 1017.6 |
| 20260509065835 | 16 | 252 | 3.2 | 9.7 | 0.00 | 0.00 | 0.00 | 85 | 1018.0 |
| 20260509065831 | 13 | 18 | 3.2 | 4.8 | 0.00 | 0.00 | 0.00 | 87 | 1014.0 |
| 20260509065827 | 15 | 343 | 0.0 | 4.8 | 0.00 | 0.00 | 0.00 | 80 | 1040.3 |
| 20260509065824 | 17 | 301 | 1.6 | 3.2 | 0.00 | 0.00 | 0.00 | 58 | 1016.6 |
| 20260509065405 | 16 | 115 | 3.2 | 9.7 | 0.00 | 0.00 | 0.00 | 71 | 1013.4 |
| 20260509065346 | 17 | 327 | 6.4 | 16.1 | 0.00 | 0.46 | 0.00 | 78 | 1013.0 |
| 20260509065344 | 15 | 317 | 0.0 | 4.8 | 0.00 | 0.00 | 0.00 | 68 | 1017.5 |
| 20260509065337 | 17 | 263 | 9.7 | 11.3 | 0.00 | 0.00 | 0.00 | 72 | 1016.7 |
| 20260509065333 | 15 | 343 | 4.8 | 6.4 | 0.00 | 0.00 | 0.00 | 79 | 1040.3 |
| 20260509065331 | 13 | 18 | 1.6 | 3.2 | 0.00 | 0.00 | 0.00 | 87 | 1014.0 |
| 20260509065324 | 17 | 340 | 0.0 | 0.0 | 0.00 | 0.00 | 0.00 | 60 | 1016.6 |
| 20260509064859 | 16 | 128 | 3.2 | 6.4 | 0.00 | 0.00 | 0.00 | 70 | 1013.4 |
| 20260509064855 | 16 | 106 | 0.0 | 0.0 | 0.00 | 0.00 | 0.00 | 86 | 1015.4 |
| 20260509064849 | 17 | 314 | 3.2 | 9.7 | 0.00 | 0.46 | 0.00 | 78 | 1012.9 |
| 20260509064841 | 17 | 273 | 6.4 | 12.9 | 0.00 | 0.00 | 0.00 | 73 | 1016.7 |
| 20260509064838 | 15 | 26 | 4.8 | 6.4 | 0.00 | 0.00 | 0.00 | 69 | 1017.5 |
| 20260509064835 | 16 | 268 | 1.6 | 3.2 | 0.00 | 0.00 | 0.00 | 87 | 1017.9 |
| 20260509064831 | 12 | 331 | 0.0 | 3.2 | 0.00 | 0.00 | 0.00 | 88 | 1014.0 |
| 20260509064821 | 17 | 337 | 0.0 | 4.8 | 0.00 | 0.00 | 0.00 | 60 | 1016.6 |
| 20260509064359 | 16 | 120 | 4.8 | 6.4 | 0.00 | 0.00 | 0.00 | 71 | 1013.4 |
| 20260509064349 | 17 | 334 | 6.4 | 11.3 | 0.00 | 0.46 | 0.00 | 78 | 1012.9 |
| 20260509064338 | 15 | 294 | 0.0 | 4.8 | 0.00 | 0.00 | 0.00 | 69 | 1017.6 |
| 20260509064334 | 12 | 298 | 0.0 | 3.2 | 0.00 | 0.00 | 0.00 | 88 | 1014.1 |
| 20260509064332 | 15 | 267 | 1.6 | 6.4 | 0.00 | 0.00 | 0.00 | 87 | 1017.9 |
| 20260509064327 | 15 | 2 | 1.6 | 4.8 | 0.00 | 0.00 | 0.00 | 81 | 1040.4 |
| 20260509064321 | 17 | 315 | 4.8 | 6.4 | 0.00 | 0.00 | 0.00 | 59 | 1016.6 |
| 20260509063906 | 16 | 166 | 1.6 | 9.7 | 0.00 | 0.00 | 0.00 | 70 | 1013.5 |
| 20260509063849 | 17 | 359 | 8.0 | 12.9 | 0.00 | 0.46 | 0.00 | 79 | 1012.9 |
| 20260509063841 | 15 | 311 | 0.0 | 8.0 | 0.00 | 0.00 | 0.00 | 69 | 1017.5 |
| 20260509063837 | 16 | 263 | 1.6 | 9.7 | 0.00 | 0.00 | 0.00 | 73 | 1016.7 |
| 20260509063832 | 15 | 282 | 4.8 | 6.4 | 0.00 | 0.00 | 0.00 | 87 | 1017.9 |
| 20260509063830 | 15 | 2 | 4.8 | 4.8 | 0.00 | 0.00 | 0.00 | 81 | 1040.4 |
| 20260509063821 | 17 | 307 | 0.0 | 1.6 | 0.00 | 0.00 | 0.00 | 59 | 1016.5 |
| 20260509063359 | 15 | 189 | 4.8 | 8.0 | 0.00 | 0.00 | 0.00 | 69 | 1013.5 |
| 20260509063346 | 17 | 51 | 11.3 | 14.5 | 0.00 | 0.46 | 0.00 | 80 | 1013.0 |
| 20260509063341 | 16 | 244 | 4.8 | 6.4 | 0.00 | 0.00 | 0.00 | 73 | 1016.7 |
| 20260509063338 | 15 | 67 | 4.8 | 9.7 | 0.00 | 0.00 | 0.00 | 71 | 1017.6 |
| 20260509063336 | 15 | 341 | 4.8 | 6.4 | 0.00 | 0.00 | 0.00 | 81 | 1040.3 |
| 20260509063332 | 11 | 334 | 1.6 | 3.2 | 0.00 | 0.00 | 0.00 | 89 | 1014.1 |
| 20260509063324 | 17 | 236 | 0.0 | 0.0 | 0.00 | 0.00 | 0.00 | 58 | 1016.4 |
| 20260509062908 | 15 | 167 | 8.0 | 9.7 | 0.00 | 0.00 | 0.00 | 68 | 1013.5 |
| 20260509062849 | 16 | 356 | 4.8 | 12.9 | 0.00 | 0.48 | 0.00 | 80 | 1012.9 |
| 20260509062838 | 15 | 32 | 4.8 | 12.9 | 0.00 | 0.00 | 0.00 | 72 | 1017.7 |
| 20260509062832 | 15 | 284 | 0.0 | 0.0 | 0.00 | 0.00 | 0.00 | 86 | 1017.9 |
| 20260509062830 | 15 | 341 | 3.2 | 11.3 | 0.00 | 0.00 | 0.00 | 81 | 1040.4 |
| 20260509062821 | 17 | 278 | 0.0 | 0.0 | 0.00 | 0.00 | 0.00 | 56 | 1016.5 |
| 20260509062403 | 15 | 171 | 3.2 | 8.0 | 0.00 | 0.00 | 0.00 | 67 | 1013.5 |
| 20260509062346 | 16 | 337 | 1.6 | 14.5 | 0.00 | 0.48 | 0.00 | 81 | 1013.0 |
| 20260509062338 | 14 | 70 | 8.0 | 12.9 | 0.00 | 0.00 | 0.00 | 74 | 1017.6 |
| 20260509062334 | 11 | 340 | 1.6 | 3.2 | 0.00 | 0.00 | 0.00 | 92 | 1014.2 |
| 20260509062330 | 15 | 16 | 9.7 | 11.3 | 0.00 | 0.00 | 0.00 | 81 | 1040.4 |
| 20260509062321 | 17 | 284 | 0.0 | 0.0 | 0.00 | 0.00 | 0.00 | 57 | 1016.5 |
| 20260509061900 | 15 | 175 | 3.2 | 11.3 | 0.00 | 0.00 | 0.00 | 68 | 1013.5 |
| 20260509061847 | 16 | 337 | 6.4 | 14.5 | 0.00 | 0.48 | 0.00 | 81 | 1013.0 |
| 20260509061840 | 16 | 281 | 4.8 | 9.7 | 0.00 | 0.00 | 0.00 | 73 | 1016.7 |
| 20260509061838 | 14 | 5 | 6.4 | 9.7 | 0.00 | 0.00 | 0.00 | 74 | 1017.5 |
| 20260509061833 | 15 | 32 | 6.4 | 9.7 | 0.00 | 0.00 | 0.00 | 82 | 1040.5 |
| 20260509061831 | 10 | 337 | 1.6 | 3.2 | 0.00 | 0.00 | 0.00 | 93 | 1014.2 |
| 20260509061825 | 17 | 291 | 0.0 | 0.0 | 0.00 | 0.00 | 0.00 | 58 | 1016.4 |
| 20260509061401 | 15 | 169 | 6.4 | 8.0 | 0.00 | 0.00 | 0.00 | 66 | 1013.4 |
| 20260509061349 | 16 | 309 | 9.7 | 11.3 | 0.00 | 0.48 | 0.00 | 82 | 1012.9 |
| 20260509061343 | 16 | 267 | 3.2 | 4.8 | 0.00 | 0.00 | 0.00 | 73 | 1016.5 |
| 20260509061338 | 13 | 11 | 6.4 | 11.3 | 0.00 | 0.00 | 0.00 | 74 | 1017.5 |
| 20260509061334 | 10 | 322 | 0.0 | 4.8 | 0.00 | 0.00 | 0.00 | 93 | 1014.1 |
| 20260509061332 | 15 | 273 | 0.0 | 0.0 | 0.00 | 0.00 | 0.00 | 87 | 1017.9 |
| 20260509061330 | 15 | 24 | 1.6 | 6.4 | 0.00 | 0.00 | 0.00 | 82 | 1040.5 |
| 20260509061322 | 16 | 292 | 0.0 | 0.0 | 0.00 | 0.00 | 0.00 | 61 | 1016.5 |
| 20260509060900 | 15 | 146 | 4.8 | 6.4 | 0.00 | 0.00 | 0.00 | 67 | 1013.3 |
| 20260509060852 | 16 | 321 | 8.0 | 11.3 | 0.00 | 0.48 | 0.00 | 83 | 1013.0 |
| 20260509060847 | 13 | 0 | 9.7 | 14.5 | 0.00 | 0.00 | 0.00 | 75 | 1017.5 |
| 20260509060838 | 16 | 267 | 3.2 | 6.4 | 0.00 | 0.00 | 0.00 | 73 | 1016.5 |
| 20260509060834 | 10 | 340 | 0.0 | 4.8 | 0.00 | 0.00 | 0.00 | 93 | 1014.1 |
| 20260509060832 | 15 | 280 | 0.0 | 0.0 | 0.00 | 0.00 | 0.00 | 87 | 1017.9 |
| 20260509060830 | 16 | 274 | 0.0 | 4.8 | 0.00 | 0.00 | 0.00 | 63 | 1016.4 |
| 20260509060406 | 15 | 127 | 3.2 | 6.4 | 0.00 | 0.00 | 0.00 | 66 | 1013.3 |
| 20260509060346 | 13 | 106 | 0.0 | 0.0 | 0.00 | 0.00 | 0.00 | 91 | 1015.4 |
| 20260509060341 | 15 | 278 | 3.2 | 6.4 | 0.00 | 0.00 | 0.00 | 71 | 1016.5 |
| 20260509060338 | 13 | 5 | 9.7 | 16.1 | 0.00 | 0.00 | 0.00 | 76 | 1017.5 |
| 20260509060335 | 10 | 331 | 3.2 | 3.2 | 0.00 | 0.00 | 0.00 | 93 | 1014.1 |
| 20260509060332 | 15 | 292 | 0.0 | 0.0 | 0.00 | 0.00 | 0.00 | 87 | 1017.9 |
| 20260509060327 | 13 | 83 | 0.0 | 0.0 | 0.00 | 0.00 | 0.00 | 85 | 1040.4 |
| 20260509060321 | 16 | 203 | 0.0 | 8.0 | 0.00 | 0.00 | 0.00 | 62 | 1016.4 |
| 20260509055859 | 16 | 126 | 3.2 | 6.4 | 0.00 | 0.00 | 0.00 | 66 | 1013.3 |
| 20260509055849 | 16 | 307 | 3.2 | 12.9 | 0.00 | 0.48 | 0.00 | 84 | 1012.9 |
| 20260509055838 | 13 | 13 | 12.9 | 14.5 | 0.00 | 0.00 | 0.00 | 77 | 1017.5 |
| 20260509055835 | 14 | 277 | 0.0 | 0.0 | 0.00 | 0.00 | 0.00 | 88 | 1017.9 |
| 20260509055833 | 13 | 83 | 0.0 | 0.0 | 0.00 | 0.00 | 0.00 | 86 | 1040.5 |
| 20260509055831 | 9 | 344 | 1.6 | 1.6 | 0.00 | 0.00 | 0.00 | 94 | 1014.2 |
| 20260509055821 | 16 | 235 | 0.0 | 8.0 | 0.00 | 0.00 | 0.00 | 61 | 1016.3 |
| 20260509055359 | 16 | 184 | 1.6 | 6.4 | 0.00 | 0.00 | 0.00 | 65 | 1013.3 |
| 20260509055346 | 16 | 323 | 6.4 | 11.3 | 0.00 | 0.48 | 0.00 | 84 | 1012.9 |
| 20260509055338 | 13 | 355 | 6.4 | 16.1 | 0.00 | 0.00 | 0.00 | 76 | 1017.5 |
| 20260509055332 | 14 | 277 | 0.0 | 0.0 | 0.00 | 0.00 | 0.00 | 88 | 1017.9 |
| 20260509055327 | 13 | 83 | 0.0 | 0.0 | 0.00 | 0.00 | 0.00 | 88 | 1040.5 |
| 20260509055321 | 16 | 215 | 9.7 | 14.5 | 0.00 | 0.00 | 0.00 | 59 | 1016.3 |
| 20260509054900 | 16 | 210 | 3.2 | 3.2 | 0.00 | 0.00 | 0.00 | 65 | 1013.2 |
| 20260509054849 | 15 | 309 | 8.0 | 11.3 | 0.00 | 0.48 | 0.00 | 85 | 1012.9 |
| 20260509054846 | 13 | 106 | 0.0 | 0.0 | 0.00 | 0.00 | 0.00 | 92 | 1015.5 |
| 20260509054841 | 13 | 339 | 4.8 | 12.9 | 0.00 | 0.00 | 0.00 | 76 | 1017.6 |
| 20260509054837 | 15 | 243 | 0.0 | 6.4 | 0.00 | 0.00 | 0.00 | 69 | 1016.4 |
| 20260509054835 | 14 | 277 | 0.0 | 0.0 | 0.00 | 0.00 | 0.00 | 88 | 1017.8 |
| 20260509054830 | 16 | 215 | 6.4 | 12.9 | 0.00 | 0.00 | 0.00 | 55 | 1016.3 |
| 20260509054406 | 15 | 257 | 0.0 | 1.6 | 0.00 | 0.00 | 0.00 | 69 | 1013.2 |
| 20260509054352 | 15 | 332 | 8.0 | 9.7 | 0.00 | 0.51 | 0.00 | 86 | 1012.9 |
| 20260509054338 | 13 | 10 | 6.4 | 12.9 | 0.00 | 0.00 | 0.00 | 77 | 1017.7 |
| 20260509054334 | 8 | 261 | 0.0 | 1.6 | 0.00 | 0.00 | 0.00 | 94 | 1014.2 |
| 20260509054332 | 13 | 277 | 0.0 | 0.0 | 0.00 | 0.00 | 0.00 | 88 | 1017.8 |
| 20260509054330 | 12 | 83 | 0.0 | 4.8 | 0.00 | 0.00 | 0.00 | 90 | 1040.4 |
| 20260509053903 | 15 | 257 | 0.0 | 3.2 | 0.00 | 0.00 | 0.00 | 70 | 1013.2 |
| 20260509053849 | 15 | 313 | 6.4 | 9.7 | 0.00 | 0.51 | 0.00 | 86 | 1012.9 |
| 20260509053844 | 13 | 39 | 8.0 | 8.0 | 0.00 | 0.00 | 0.00 | 78 | 1017.7 |
| 20260509053841 | 13 | 277 | 0.0 | 0.0 | 0.00 | 0.00 | 0.00 | 89 | 1017.8 |
| 20260509053837 | 8 | 261 | 1.6 | 1.6 | 0.00 | 0.00 | 0.00 | 94 | 1014.2 |
| 20260509053827 | 12 | 83 | 0.0 | 3.2 | 0.00 | 0.00 | 0.00 | 91 | 1040.3 |
| 20260509053824 | 17 | 190 | 1.6 | 4.8 | 0.00 | 0.00 | 0.00 | 49 | 1016.0 |
| 20260509053400 | 15 | 258 | 0.0 | 3.2 | 0.00 | 0.00 | 0.00 | 67 | 1013.2 |
| 20260509053346 | 15 | 314 | 3.2 | 6.4 | 0.00 | 0.51 | 0.00 | 87 | 1012.9 |
| 20260509053342 | 8 | 261 | 0.0 | 3.2 | 0.00 | 0.00 | 0.00 | 94 | 1014.2 |
| 20260509053340 | 15 | 236 | 3.2 | 4.8 | 0.00 | 0.00 | 0.00 | 66 | 1016.2 |
| 20260509053338 | 13 | 311 | 3.2 | 6.4 | 0.00 | 0.00 | 0.00 | 78 | 1017.8 |
| 20260509053332 | 13 | 277 | 0.0 | 0.0 | 0.00 | 0.00 | 0.00 | 89 | 1017.8 |
| 20260509053327 | 12 | 83 | 0.0 | 1.6 | 0.00 | 0.00 | 0.00 | 91 | 1040.3 |
| 20260509053324 | 17 | 183 | 0.0 | 4.8 | 0.00 | 0.00 | 0.00 | 47 | 1015.9 |
| 20260509052906 | 14 | 261 | 0.0 | 4.8 | 0.00 | 0.00 | 0.00 | 70 | 1013.1 |
| 20260509052847 | 15 | 316 | 4.8 | 6.4 | 0.00 | 0.51 | 0.00 | 87 | 1013.0 |
| 20260509052838 | 13 | 30 | 3.2 | 8.0 | 0.00 | 0.00 | 0.00 | 79 | 1017.8 |
| 20260509052830 | 17 | 70 | 0.0 | 0.0 | 0.00 | 0.00 | 0.00 | 45 | 1015.8 |
| 20260509052827 | 12 | 83 | 1.6 | 4.8 | 0.00 | 0.00 | 0.00 | 92 | 1040.3 |
| 20260509052400 | 14 | 274 | 3.2 | 4.8 | 0.00 | 0.00 | 0.00 | 70 | 1013.0 |
| 20260509052349 | 15 | 324 | 3.2 | 8.0 | 0.00 | 0.51 | 0.00 | 88 | 1013.0 |
| 20260509052344 | 13 | 0 | 3.2 | 4.8 | 0.00 | 0.00 | 0.00 | 80 | 1017.9 |
| 20260509052341 | 15 | 252 | 1.6 | 6.4 | 0.00 | 0.00 | 0.00 | 67 | 1016.1 |
| 20260509052332 | 13 | 277 | 0.0 | 0.0 | 0.00 | 0.00 | 0.00 | 89 | 1017.8 |
| 20260509052330 | 11 | 83 | 1.6 | 3.2 | 0.00 | 0.00 | 0.00 | 92 | 1040.4 |
| 20260509052324 | 17 | 69 | 0.0 | 0.0 | 0.00 | 0.00 | 0.00 | 45 | 1015.9 |
| 20260509051909 | 13 | 276 | 3.2 | 3.2 | 0.00 | 0.00 | 0.00 | 71 | 1013.0 |
| 20260509051846 | 13 | 106 | 0.0 | 0.0 | 0.00 | 0.00 | 0.00 | 92 | 1015.3 |
| 20260509051841 | 12 | 57 | 1.6 | 3.2 | 0.00 | 0.00 | 0.00 | 80 | 1017.8 |
| 20260509051837 | 15 | 267 | 4.8 | 6.4 | 0.00 | 0.00 | 0.00 | 68 | 1016.0 |
| 20260509051834 | 7 | 261 | 0.0 | 3.2 | 0.00 | 0.00 | 0.00 | 94 | 1014.2 |
| 20260509051832 | 13 | 277 | 0.0 | 0.0 | 0.00 | 0.00 | 0.00 | 90 | 1017.6 |
| 20260509051827 | 11 | 83 | 1.6 | 4.8 | 0.00 | 0.00 | 0.00 | 93 | 1040.4 |
| 20260509051400 | 13 | 268 | 3.2 | 4.8 | 0.00 | 0.00 | 0.00 | 72 | 1013.0 |
| 20260509051346 | 15 | 285 | 6.4 | 6.4 | 0.00 | 0.51 | 0.00 | 88 | 1013.0 |
| 20260509051338 | 12 | 57 | 1.6 | 3.2 | 0.00 | 0.00 | 0.00 | 81 | 1017.7 |
| 20260509051335 | 7 | 261 | 1.6 | 3.2 | 0.00 | 0.00 | 0.00 | 94 | 1014.0 |
| 20260509051327 | 11 | 83 | 0.0 | 3.2 | 0.00 | 0.00 | 0.00 | 93 | 1040.5 |
| 20260509051324 | 16 | 70 | 0.0 | 0.0 | 0.00 | 0.00 | 0.00 | 47 | 1015.6 |
| 20260509050900 | 13 | 281 | 3.2 | 4.8 | 0.00 | 0.00 | 0.00 | 71 | 1013.0 |
| 20260509050846 | 15 | 312 | 0.0 | 0.0 | 0.00 | 0.51 | 0.00 | 88 | 1012.9 |
| 20260509050838 | 12 | 57 | 1.6 | 4.8 | 0.00 | 0.00 | 0.00 | 81 | 1017.7 |
| 20260509050835 | 13 | 277 | 0.0 | 0.0 | 0.00 | 0.00 | 0.00 | 90 | 1017.5 |
| 20260509050831 | 7 | 260 | 1.6 | 1.6 | 0.00 | 0.00 | 0.00 | 94 | 1014.0 |
| 20260509050821 | 16 | 70 | 0.0 | 0.0 | 0.00 | 0.00 | 0.00 | 47 | 1015.6 |
| 20260509050400 | 13 | 260 | 3.2 | 6.4 | 0.00 | 0.00 | 0.00 | 72 | 1013.1 |
| 20260509050352 | 13 | 106 | 0.0 | 0.0 | 0.00 | 0.00 | 0.00 | 92 | 1015.2 |
| 20260509050346 | 15 | 312 | 0.0 | 0.0 | 0.00 | 0.51 | 0.00 | 88 | 1012.8 |
| 20260509050338 | 12 | 57 | 3.2 | 3.2 | 0.00 | 0.00 | 0.00 | 81 | 1017.6 |
| 20260509050332 | 12 | 277 | 0.0 | 0.0 | 0.00 | 0.00 | 0.00 | 90 | 1017.5 |
| 20260509050330 | 11 | 83 | 3.2 | 4.8 | 0.00 | 0.00 | 0.00 | 93 | 1040.5 |
| 20260509050324 | 16 | 69 | 0.0 | 0.0 | 0.00 | 0.00 | 0.00 | 47 | 1015.5 |
| 20260509045903 | 13 | 263 | 1.6 | 3.2 | 0.00 | 0.00 | 0.00 | 72 | 1012.9 |
| 20260509045846 | 15 | 312 | 0.0 | 0.0 | 0.00 | 0.51 | 0.00 | 89 | 1012.7 |
| 20260509045838 | 12 | 57 | 0.0 | 3.2 | 0.00 | 0.00 | 0.00 | 81 | 1017.5 |
| 20260509045831 | 7 | 260 | 1.6 | 3.2 | 0.00 | 0.00 | 0.00 | 93 | 1013.8 |
| 20260509045827 | 10 | 83 | 1.6 | 3.2 | 0.00 | 0.00 | 0.00 | 93 | 1040.4 |
| 20260509045824 | 16 | 70 | 0.0 | 0.0 | 0.00 | 0.00 | 0.00 | 48 | 1015.6 |
| 20260509045409 | 13 | 269 | 4.8 | 4.8 | 0.00 | 0.00 | 0.00 | 73 | 1012.9 |
| 20260509045347 | 12 | 57 | 3.2 | 3.2 | 0.00 | 0.00 | 0.00 | 81 | 1017.6 |
| 20260509045343 | 16 | 343 | 3.2 | 6.4 | 0.00 | 0.00 | 0.00 | 70 | 1015.7 |
| 20260509045341 | 7 | 260 | 0.0 | 4.8 | 0.00 | 0.00 | 0.00 | 93 | 1013.8 |
| 20260509045332 | 12 | 277 | 0.0 | 0.0 | 0.00 | 0.00 | 0.00 | 90 | 1017.2 |
| 20260509045330 | 10 | 83 | 1.6 | 3.2 | 0.00 | 0.00 | 0.00 | 92 | 1040.4 |
| 20260509045321 | 16 | 70 | 0.0 | 0.0 | 0.00 | 0.00 | 0.00 | 48 | 1015.3 |
| 20260509044903 | 13 | 279 | 3.2 | 6.4 | 0.00 | 0.00 | 0.00 | 73 | 1012.9 |
| 20260509044849 | 13 | 106 | 0.0 | 0.0 | 0.00 | 0.00 | 0.00 | 92 | 1015.1 |
| 20260509044847 | 12 | 57 | 3.2 | 4.8 | 0.00 | 0.00 | 0.00 | 82 | 1017.5 |
| 20260509044838 | 12 | 278 | 0.0 | 0.0 | 0.00 | 0.00 | 0.00 | 90 | 1017.3 |
| 20260509044831 | 7 | 261 | 3.2 | 4.8 | 0.00 | 0.00 | 0.00 | 93 | 1013.8 |
| 20260509044827 | 10 | 83 | 0.0 | 0.0 | 0.00 | 0.00 | 0.00 | 92 | 1040.4 |
| 20260509044821 | 15 | 70 | 0.0 | 0.0 | 0.00 | 0.00 | 0.00 | 49 | 1015.3 |
| 20260509044403 | 13 | 252 | 1.6 | 6.4 | 0.00 | 0.00 | 0.00 | 74 | 1012.9 |
| 20260509044346 | 15 | 312 | 0.0 | 0.0 | 0.00 | 0.51 | 0.00 | 88 | 1012.7 |
| 20260509044340 | 16 | 342 | 3.2 | 8.0 | 0.00 | 0.00 | 0.00 | 68 | 1015.5 |
| 20260509044338 | 12 | 56 | 4.8 | 4.8 | 0.00 | 0.00 | 0.00 | 82 | 1017.5 |
| 20260509044332 | 12 | 278 | 0.0 | 0.0 | 0.00 | 0.00 | 0.00 | 91 | 1017.1 |
| 20260509044327 | 10 | 83 | 0.0 | 1.6 | 0.00 | 0.00 | 0.00 | 93 | 1040.3 |
| 20260509044321 | 15 | 69 | 0.0 | 0.0 | 0.00 | 0.00 | 0.00 | 50 | 1015.4 |
| 20260509043906 | 12 | 273 | 3.2 | 6.4 | 0.00 | 0.00 | 0.00 | 75 | 1012.9 |
| 20260509043852 | 15 | 312 | 0.0 | 0.0 | 0.00 | 0.51 | 0.00 | 88 | 1012.7 |
| 20260509043844 | 15 | 328 | 4.8 | 8.0 | 0.00 | 0.00 | 0.00 | 67 | 1015.6 |
| 20260509043838 | 12 | 56 | 0.0 | 1.6 | 0.00 | 0.00 | 0.00 | 82 | 1017.5 |
| 20260509043836 | 10 | 83 | 0.0 | 1.6 | 0.00 | 0.00 | 0.00 | 93 | 1040.3 |
| 20260509043832 | 12 | 278 | 0.0 | 0.0 | 0.00 | 0.00 | 0.00 | 91 | 1017.1 |
| 20260509043821 | 15 | 71 | 0.0 | 1.6 | 0.00 | 0.00 | 0.00 | 51 | 1015.3 |
| 20260509043406 | 12 | 279 | 3.2 | 6.4 | 0.00 | 0.00 | 0.00 | 75 | 1012.9 |
| 20260509043349 | 13 | 106 | 0.0 | 0.0 | 0.00 | 0.00 | 0.00 | 91 | 1015.0 |
| 20260509043346 | 14 | 312 | 0.0 | 0.0 | 0.00 | 0.51 | 0.00 | 88 | 1012.6 |
| 20260509043338 | 12 | 56 | 0.0 | 3.2 | 0.00 | 0.00 | 0.00 | 82 | 1017.5 |
| 20260509043335 | 12 | 278 | 0.0 | 0.0 | 0.00 | 0.00 | 0.00 | 91 | 1017.1 |
| 20260509043332 | 7 | 286 | 1.6 | 3.2 | 0.00 | 0.00 | 0.00 | 93 | 1013.8 |
| 20260509043327 | 10 | 83 | 1.6 | 1.6 | 0.00 | 0.00 | 0.00 | 92 | 1040.3 |
| 20260509043321 | 15 | 72 | 0.0 | 0.0 | 0.00 | 0.00 | 0.00 | 52 | 1015.3 |
| 20260509042907 | 12 | 279 | 3.2 | 6.4 | 0.00 | 0.00 | 0.00 | 76 | 1012.8 |
| 20260509042846 | 14 | 312 | 0.0 | 0.0 | 0.00 | 0.51 | 0.00 | 88 | 1012.5 |
| 20260509042841 | 12 | 55 | 1.6 | 1.6 | 0.00 | 0.00 | 0.00 | 83 | 1017.6 |
| 20260509042835 | 7 | 257 | 1.6 | 1.6 | 0.00 | 0.00 | 0.00 | 93 | 1013.7 |
| 20260509042830 | 15 | 86 | 0.0 | 1.6 | 0.00 | 0.00 | 0.00 | 52 | 1015.3 |
| 20260509042827 | 10 | 83 | 0.0 | 0.0 | 0.00 | 0.00 | 0.00 | 92 | 1040.2 |
| 20260509042400 | 12 | 277 | 3.2 | 4.8 | 0.00 | 0.00 | 0.00 | 76 | 1012.8 |
| 20260509042357 | 16 | 321 | 3.2 | 9.7 | 0.00 | 0.00 | 0.00 | 66 | 1015.5 |
| 20260509042349 | 14 | 312 | 1.6 | 8.0 | 0.00 | 0.51 | 0.00 | 88 | 1012.5 |
| 20260509042344 | 12 | 55 | 0.0 | 0.0 | 0.00 | 0.00 | 0.00 | 83 | 1017.5 |
| 20260509042338 | 7 | 257 | 0.0 | 3.2 | 0.00 | 0.00 | 0.00 | 93 | 1013.7 |
| 20260509042335 | 12 | 278 | 0.0 | 0.0 | 0.00 | 0.00 | 0.00 | 91 | 1017.1 |
| 20260509042330 | 10 | 83 | 0.0 | 1.6 | 0.00 | 0.00 | 0.00 | 92 | 1040.2 |
| 20260509042327 | 14 | 88 | 0.0 | 0.0 | 0.00 | 0.00 | 0.00 | 56 | 1015.4 |
| 20260509041903 | 12 | 291 | 1.6 | 4.8 | 0.00 | 0.00 | 0.00 | 76 | 1012.9 |
| 20260509041850 | 16 | 317 | 8.0 | 9.7 | 0.00 | 0.00 | 0.00 | 66 | 1015.4 |
| 20260509041847 | 14 | 311 | 4.8 | 6.4 | 0.00 | 0.51 | 0.00 | 88 | 1012.6 |
| 20260509041841 | 12 | 55 | 0.0 | 0.0 | 0.00 | 0.00 | 0.00 | 83 | 1017.6 |
| 20260509041832 | 12 | 278 | 0.0 | 0.0 | 0.00 | 0.00 | 0.00 | 91 | 1017.1 |
| 20260509041830 | 10 | 83 | 0.0 | 1.6 | 0.00 | 0.00 | 0.00 | 93 | 1040.1 |
| 20260509041821 | 15 | 88 | 0.0 | 0.0 | 0.00 | 0.00 | 0.00 | 57 | 1015.4 |
| 20260509041400 | 12 | 280 | 1.6 | 6.4 | 0.00 | 0.00 | 0.00 | 77 | 1013.0 |
| 20260509041356 | 16 | 317 | 4.8 | 8.0 | 0.00 | 0.00 | 0.00 | 66 | 1015.4 |
| 20260509041352 | 14 | 311 | 3.2 | 4.8 | 0.00 | 0.51 | 0.00 | 88 | 1012.5 |
| 20260509041344 | 12 | 56 | 0.0 | 3.2 | 0.00 | 0.00 | 0.00 | 83 | 1017.5 |
| 20260509041338 | 7 | 258 | 0.0 | 3.2 | 0.00 | 0.00 | 0.00 | 93 | 1013.8 |
| 20260509041335 | 12 | 278 | 0.0 | 0.0 | 0.00 | 0.00 | 0.00 | 91 | 1017.2 |
| 20260509041327 | 10 | 83 | 0.0 | 0.0 | 0.00 | 0.00 | 0.00 | 92 | 1040.1 |
| 20260509041324 | 15 | 87 | 0.0 | 0.0 | 0.00 | 0.00 | 0.00 | 55 | 1015.4 |
| 20260509040903 | 12 | 258 | 0.0 | 6.4 | 0.00 | 0.00 | 0.00 | 77 | 1013.0 |
| 20260509040852 | 14 | 311 | 3.2 | 6.4 | 0.00 | 0.51 | 0.00 | 88 | 1012.5 |
| 20260509040850 | 16 | 310 | 4.8 | 9.7 | 0.00 | 0.00 | 0.00 | 67 | 1015.4 |
| 20260509040844 | 12 | 56 | 1.6 | 4.8 | 0.00 | 0.00 | 0.00 | 82 | 1017.6 |
| 20260509040841 | 7 | 258 | 1.6 | 3.2 | 0.00 | 0.00 | 0.00 | 93 | 1013.8 |
| 20260509040832 | 12 | 278 | 0.0 | 0.0 | 0.00 | 0.00 | 0.00 | 91 | 1017.2 |
| 20260509040830 | 10 | 83 | 0.0 | 0.0 | 0.00 | 0.00 | 0.00 | 92 | 1040.2 |
| 20260509040827 | 15 | 87 | 0.0 | 0.0 | 0.00 | 0.00 | 0.00 | 55 | 1015.2 |
| 20260509040403 | 12 | 293 | 1.6 | 3.2 | 0.00 | 0.00 | 0.00 | 77 | 1013.0 |
| 20260509040350 | 16 | 290 | 4.8 | 11.3 | 0.00 | 0.00 | 0.00 | 68 | 1015.4 |
| 20260509040341 | 12 | 55 | 3.2 | 4.8 | 0.00 | 0.00 | 0.00 | 82 | 1017.7 |
| 20260509040335 | 7 | 258 | 1.6 | 3.2 | 0.00 | 0.00 | 0.00 | 93 | 1013.8 |
| 20260509040332 | 12 | 279 | 0.0 | 0.0 | 0.00 | 0.00 | 0.00 | 91 | 1017.3 |
| 20260509040330 | 10 | 83 | 0.0 | 1.6 | 0.00 | 0.00 | 0.00 | 92 | 1040.2 |
| 20260509040321 | 15 | 88 | 0.0 | 0.0 | 0.00 | 0.00 | 0.00 | 55 | 1015.3 |
| 20260509035901 | 12 | 287 | 3.2 | 4.8 | 0.00 | 0.00 | 0.00 | 77 | 1013.0 |
| 20260509035850 | 15 | 267 | 6.4 | 9.7 | 0.00 | 0.00 | 0.00 | 72 | 1015.4 |
| 20260509035846 | 14 | 323 | 0.0 | 0.0 | 0.00 | 0.51 | 0.00 | 88 | 1012.5 |
| 20260509035838 | 12 | 56 | 1.6 | 4.8 | 0.00 | 0.00 | 0.00 | 81 | 1017.6 |
| 20260509035835 | 12 | 280 | 0.0 | 0.0 | 0.00 | 0.00 | 0.00 | 90 | 1017.2 |
| 20260509035827 | 10 | 83 | 0.0 | 0.0 | 0.00 | 0.00 | 0.00 | 92 | 1040.2 |
| 20260509035824 | 15 | 88 | 0.0 | 0.0 | 0.00 | 0.00 | 0.00 | 56 | 1015.4 |
| 20260509035400 | 12 | 296 | 1.6 | 6.4 | 0.00 | 0.00 | 0.00 | 77 | 1013.0 |
| 20260509035350 | 15 | 261 | 6.4 | 11.3 | 0.00 | 0.00 | 0.00 | 73 | 1015.4 |
| 20260509035346 | 14 | 323 | 0.0 | 4.8 | 0.00 | 0.51 | 0.00 | 88 | 1012.4 |
| 20260509035341 | 12 | 59 | 0.0 | 4.8 | 0.00 | 0.00 | 0.00 | 81 | 1017.6 |
| 20260509035332 | 7 | 258 | 1.6 | 3.2 | 0.00 | 0.00 | 0.00 | 93 | 1013.6 |
| 20260509035327 | 10 | 83 | 0.0 | 0.0 | 0.00 | 0.00 | 0.00 | 92 | 1040.2 |
| 20260509035321 | 14 | 129 | 0.0 | 0.0 | 0.00 | 0.00 | 0.00 | 57 | 1015.4 |
| 20260509034906 | 12 | 316 | 4.8 | 4.8 | 0.00 | 0.00 | 0.00 | 78 | 1013.0 |
| 20260509034850 | 15 | 244 | 8.0 | 12.9 | 0.00 | 0.00 | 0.00 | 73 | 1015.4 |
| 20260509034841 | 12 | 103 | 4.8 | 6.4 | 0.00 | 0.00 | 0.00 | 81 | 1017.6 |
| 20260509034832 | 12 | 280 | 0.0 | 0.0 | 0.00 | 0.00 | 0.00 | 90 | 1017.2 |
| 20260509034830 | 10 | 83 | 0.0 | 0.0 | 0.00 | 0.00 | 0.00 | 91 | 1040.1 |
| 20260509034821 | 14 | 129 | 0.0 | 0.0 | 0.00 | 0.00 | 0.00 | 61 | 1015.3 |
| 20260509034406 | 12 | 294 | 3.2 | 4.8 | 0.00 | 0.00 | 0.00 | 78 | 1013.0 |
| 20260509034353 | 14 | 255 | 8.0 | 8.0 | 0.00 | 0.00 | 0.00 | 74 | 1015.5 |
| 20260509034346 | 14 | 335 | 0.0 | 0.0 | 0.00 | 0.51 | 0.00 | 88 | 1012.4 |
| 20260509034338 | 12 | 104 | 3.2 | 4.8 | 0.00 | 0.00 | 0.00 | 82 | 1017.6 |
| 20260509034335 | 7 | 259 | 1.6 | 3.2 | 0.00 | 0.00 | 0.00 | 93 | 1013.7 |
| 20260509034333 | 10 | 83 | 0.0 | 0.0 | 0.00 | 0.00 | 0.00 | 91 | 1040.1 |
| 20260509034324 | 14 | 128 | 0.0 | 0.0 | 0.00 | 0.00 | 0.00 | 62 | 1015.4 |
| 20260509033906 | 12 | 275 | 0.0 | 6.4 | 0.00 | 0.00 | 0.00 | 77 | 1013.0 |
| 20260509033856 | 14 | 256 | 3.2 | 8.0 | 0.00 | 0.00 | 0.00 | 75 | 1015.4 |
| 20260509033846 | 14 | 335 | 0.0 | 3.2 | 0.00 | 0.51 | 0.00 | 88 | 1012.2 |
| 20260509033841 | 7 | 255 | 3.2 | 3.2 | 0.00 | 0.00 | 0.00 | 93 | 1013.7 |
| 20260509033838 | 12 | 104 | 0.0 | 0.0 | 0.00 | 0.00 | 0.00 | 82 | 1017.5 |
| 20260509033833 | 10 | 83 | 0.0 | 1.6 | 0.00 | 0.00 | 0.00 | 91 | 1040.1 |
| 20260509033821 | 14 | 129 | 0.0 | 0.0 | 0.00 | 0.00 | 0.00 | 62 | 1015.4 |
| 20260509033404 | 12 | 282 | 1.6 | 9.7 | 0.00 | 0.00 | 0.00 | 77 | 1013.1 |
| 20260509033350 | 14 | 259 | 3.2 | 9.7 | 0.00 | 0.00 | 0.00 | 75 | 1015.3 |
| 20260509033346 | 14 | 335 | 0.0 | 4.8 | 0.00 | 0.51 | 0.00 | 88 | 1012.2 |
| 20260509033344 | 12 | 104 | 0.0 | 1.6 | 0.00 | 0.00 | 0.00 | 81 | 1017.4 |
| 20260509033332 | 7 | 246 | 0.0 | 3.2 | 0.00 | 0.00 | 0.00 | 93 | 1013.7 |
| 20260509033327 | 10 | 83 | 1.6 | 1.6 | 0.00 | 0.00 | 0.00 | 92 | 1040.1 |
| 20260509032903 | 12 | 286 | 1.6 | 6.4 | 0.00 | 0.00 | 0.00 | 77 | 1013.1 |
| 20260509032856 | 13 | 232 | 8.0 | 12.9 | 0.00 | 0.00 | 0.00 | 76 | 1015.3 |
| 20260509032847 | 14 | 335 | 0.0 | 3.2 | 0.00 | 0.51 | 0.00 | 88 | 1012.0 |
| 20260509032844 | 12 | 104 | 1.6 | 3.2 | 0.00 | 0.00 | 0.00 | 81 | 1017.4 |
| 20260509032838 | 7 | 246 | 1.6 | 3.2 | 0.00 | 0.00 | 0.00 | 93 | 1013.7 |
| 20260509032830 | 10 | 83 | 0.0 | 0.0 | 0.00 | 0.00 | 0.00 | 92 | 1040.0 |
| 20260509032821 | 14 | 127 | 0.0 | 0.0 | 0.00 | 0.00 | 0.00 | 63 | 1015.5 |
| 20260509032403 | 12 | 286 | 0.0 | 11.3 | 0.00 | 0.00 | 0.00 | 77 | 1013.1 |
| 20260509032351 | 13 | 244 | 4.8 | 9.7 | 0.00 | 0.00 | 0.00 | 76 | 1015.2 |
| 20260509032349 | 14 | 335 | 1.6 | 4.8 | 0.00 | 0.51 | 0.00 | 88 | 1012.0 |
| 20260509032344 | 12 | 109 | 0.0 | 1.6 | 0.00 | 0.00 | 0.00 | 81 | 1017.4 |
| 20260509032335 | 7 | 246 | 0.0 | 4.8 | 0.00 | 0.00 | 0.00 | 93 | 1013.7 |
| 20260509032333 | 10 | 83 | 0.0 | 0.0 | 0.00 | 0.00 | 0.00 | 92 | 1040.0 |
| 20260509032322 | 15 | 127 | 0.0 | 0.0 | 0.00 | 0.00 | 0.00 | 64 | 1015.5 |
| 20260509031909 | 12 | 296 | 3.2 | 4.8 | 0.00 | 0.00 | 0.00 | 77 | 1013.1 |
| 20260509031855 | 13 | 106 | 0.0 | 0.0 | 0.00 | 0.00 | 0.00 | 91 | 1014.7 |
| 20260509031850 | 14 | 246 | 4.8 | 11.3 | 0.00 | 0.00 | 0.00 | 74 | 1015.3 |
| 20260509031846 | 14 | 340 | 0.0 | 4.8 | 0.00 | 0.51 | 0.00 | 88 | 1012.0 |
| 20260509031839 | 7 | 252 | 3.2 | 3.2 | 0.00 | 0.00 | 0.00 | 93 | 1013.7 |
| 20260509031830 | 10 | 83 | 0.0 | 0.0 | 0.00 | 0.00 | 0.00 | 92 | 1040.0 |
| 20260509031824 | 15 | 127 | 0.0 | 0.0 | 0.00 | 0.00 | 0.00 | 62 | 1015.4 |
| 20260509031400 | 12 | 301 | 0.0 | 3.2 | 0.00 | 0.00 | 0.00 | 77 | 1013.2 |
| 20260509031359 | 15 | 259 | 9.7 | 12.9 | 0.00 | 0.00 | 0.00 | 73 | 1015.2 |
| 20260509031349 | 14 | 340 | 0.0 | 1.6 | 0.00 | 0.51 | 0.00 | 88 | 1011.8 |
| 20260509031338 | 12 | 109 | 1.6 | 4.8 | 0.00 | 0.00 | 0.00 | 80 | 1017.4 |
| 20260509031335 | 7 | 252 | 1.6 | 1.6 | 0.00 | 0.00 | 0.00 | 93 | 1013.6 |
| 20260509031333 | 10 | 83 | 0.0 | 0.0 | 0.00 | 0.00 | 0.00 | 91 | 1040.0 |
| 20260509031330 | 15 | 126 | 0.0 | 1.6 | 0.00 | 0.00 | 0.00 | 62 | 1015.4 |
| 20260509030901 | 12 | 285 | 3.2 | 4.8 | 0.00 | 0.00 | 0.00 | 77 | 1013.2 |
| 20260509030851 | 15 | 250 | 6.4 | 12.9 | 0.00 | 0.00 | 0.00 | 73 | 1015.2 |
| 20260509030846 | 14 | 340 | 0.0 | 0.0 | 0.00 | 0.51 | 0.00 | 88 | 1011.8 |
| 20260509030844 | 12 | 48 | 0.0 | 0.0 | 0.00 | 0.00 | 0.00 | 80 | 1017.5 |
| 20260509030835 | 7 | 252 | 0.0 | 1.6 | 0.00 | 0.00 | 0.00 | 93 | 1013.6 |
| 20260509030830 | 10 | 83 | 0.0 | 0.0 | 0.00 | 0.00 | 0.00 | 92 | 1040.1 |
| 20260509030827 | 14 | 124 | 0.0 | 0.0 | 0.00 | 0.00 | 0.00 | 64 | 1015.4 |
| 20260509030406 | 12 | 294 | 3.2 | 3.2 | 0.00 | 0.00 | 0.00 | 77 | 1013.3 |
| 20260509030346 | 14 | 340 | 0.0 | 0.0 | 0.00 | 0.51 | 0.00 | 88 | 1011.6 |
| 20260509030338 | 13 | 48 | 0.0 | 0.0 | 0.00 | 0.00 | 0.00 | 79 | 1017.4 |
| 20260509030335 | 7 | 252 | 0.0 | 4.8 | 0.00 | 0.00 | 0.00 | 93 | 1013.6 |
| 20260509030330 | 10 | 83 | 0.0 | 0.0 | 0.00 | 0.00 | 0.00 | 92 | 1040.0 |
| 20260509030325 | 14 | 146 | 0.0 | 0.0 | 0.00 | 0.00 | 0.00 | 65 | 1015.4 |
| 20260509025903 | 12 | 292 | 3.2 | 4.8 | 0.00 | 0.00 | 0.00 | 77 | 1013.2 |
| 20260509025852 | 14 | 340 | 0.0 | 0.0 | 0.00 | 0.51 | 0.00 | 88 | 1011.6 |
| 20260509025838 | 13 | 48 | 0.0 | 0.0 | 0.00 | 0.00 | 0.00 | 79 | 1017.4 |
| 20260509025835 | 12 | 280 | 0.0 | 0.0 | 0.00 | 0.00 | 0.00 | 89 | 1016.9 |
| 20260509025827 | 10 | 83 | 0.0 | 0.0 | 0.00 | 0.00 | 0.00 | 92 | 1040.0 |
| 20260509025821 | 14 | 137 | 0.0 | 1.6 | 0.00 | 0.00 | 0.00 | 66 | 1015.3 |
| 20260509025403 | 12 | 289 | 3.2 | 4.8 | 0.00 | 0.00 | 0.00 | 78 | 1013.2 |
| 20260509025346 | 14 | 340 | 0.0 | 0.0 | 0.00 | 0.51 | 0.00 | 88 | 1011.6 |
| 20260509025338 | 13 | 48 | 0.0 | 3.2 | 0.00 | 0.00 | 0.00 | 79 | 1017.4 |
| 20260509025336 | 7 | 340 | 3.2 | 3.2 | 0.00 | 0.00 | 0.00 | 93 | 1013.5 |
| 20260509025333 | 10 | 83 | 0.0 | 0.0 | 0.00 | 0.00 | 0.00 | 92 | 1039.9 |
| 20260509025324 | 13 | 121 | 0.0 | 1.6 | 0.00 | 0.00 | 0.00 | 70 | 1015.4 |
| 20260509024900 | 12 | 267 | 3.2 | 4.8 | 0.00 | 0.00 | 0.00 | 78 | 1013.3 |
| 20260509024849 | 13 | 106 | 0.0 | 0.0 | 0.00 | 0.00 | 0.00 | 90 | 1014.4 |
| 20260509024846 | 14 | 340 | 0.0 | 1.6 | 0.00 | 0.51 | 0.00 | 88 | 1011.7 |
| 20260509024841 | 13 | 48 | 3.2 | 6.4 | 0.00 | 0.00 | 0.00 | 78 | 1017.4 |
| 20260509024835 | 7 | 248 | 1.6 | 4.8 | 0.00 | 0.00 | 0.00 | 93 | 1013.5 |
| 20260509024827 | 10 | 83 | 0.0 | 0.0 | 0.00 | 0.00 | 0.00 | 91 | 1039.9 |
| 20260509024822 | 13 | 152 | 1.6 | 4.8 | 0.00 | 0.00 | 0.00 | 70 | 1015.4 |
| 20260509024400 | 12 | 257 | 3.2 | 8.0 | 0.00 | 0.00 | 0.00 | 78 | 1013.3 |
| 20260509024346 | 14 | 340 | 0.0 | 3.2 | 0.00 | 0.51 | 0.00 | 88 | 1011.7 |
| 20260509024338 | 13 | 49 | 1.6 | 6.4 | 0.00 | 0.00 | 0.00 | 78 | 1017.3 |
| 20260509024332 | 7 | 251 | 0.0 | 3.2 | 0.00 | 0.00 | 0.00 | 93 | 1013.5 |
| 20260509024330 | 10 | 83 | 0.0 | 1.6 | 0.00 | 0.00 | 0.00 | 91 | 1039.9 |
| 20260509024322 | 13 | 160 | 4.8 | 4.8 | 0.00 | 0.00 | 0.00 | 72 | 1015.4 |
| 20260509023901 | 12 | 269 | 4.8 | 6.4 | 0.00 | 0.00 | 0.00 | 78 | 1013.3 |
| 20260509023849 | 14 | 340 | 1.6 | 3.2 | 0.00 | 0.51 | 0.00 | 88 | 1011.7 |
| 20260509023847 | 13 | 48 | 3.2 | 6.4 | 0.00 | 0.00 | 0.00 | 79 | 1017.4 |
| 20260509023835 | 13 | 280 | 0.0 | 0.0 | 0.00 | 0.00 | 0.00 | 89 | 1017.1 |
| 20260509023832 | 7 | 252 | 1.6 | 3.2 | 0.00 | 0.00 | 0.00 | 93 | 1013.5 |
| 20260509023828 | 14 | 160 | 3.2 | 6.4 | 0.00 | 0.00 | 0.00 | 71 | 1015.5 |
| 20260509023400 | 12 | 280 | 3.2 | 6.4 | 0.00 | 0.00 | 0.00 | 78 | 1013.2 |
| 20260509023349 | 13 | 106 | 0.0 | 0.0 | 0.00 | 0.00 | 0.00 | 90 | 1014.5 |
| 20260509023347 | 14 | 340 | 0.0 | 0.0 | 0.00 | 0.51 | 0.00 | 88 | 1011.8 |
| 20260509023338 | 13 | 56 | 4.8 | 4.8 | 0.00 | 0.00 | 0.00 | 79 | 1017.4 |
| 20260509023332 | 13 | 280 | 0.0 | 0.0 | 0.00 | 0.00 | 0.00 | 88 | 1017.0 |
| 20260509023327 | 10 | 83 | 0.0 | 1.6 | 0.00 | 0.00 | 0.00 | 91 | 1039.9 |
| 20260509023325 | 14 | 161 | 4.8 | 8.0 | 0.00 | 0.00 | 0.00 | 69 | 1015.5 |
| 20260509022909 | 12 | 275 | 4.8 | 6.4 | 0.00 | 0.00 | 0.00 | 77 | 1013.2 |
| 20260509022847 | 14 | 340 | 0.0 | 0.0 | 0.00 | 0.51 | 0.00 | 88 | 1011.8 |
| 20260509022838 | 13 | 57 | 4.8 | 4.8 | 0.00 | 0.00 | 0.00 | 79 | 1017.4 |
| 20260509022835 | 13 | 280 | 0.0 | 0.0 | 0.00 | 0.00 | 0.00 | 88 | 1017.1 |
| 20260509022833 | 10 | 83 | 0.0 | 1.6 | 0.00 | 0.00 | 0.00 | 91 | 1039.9 |
| 20260509022822 | 14 | 148 | 6.4 | 8.0 | 0.00 | 0.00 | 0.00 | 68 | 1015.4 |
| 20260509022400 | 12 | 268 | 1.6 | 6.4 | 0.00 | 0.00 | 0.00 | 77 | 1013.3 |
| 20260509022349 | 14 | 340 | 0.0 | 4.8 | 0.00 | 0.51 | 0.00 | 88 | 1011.7 |
| 20260509022341 | 13 | 56 | 0.0 | 3.2 | 0.00 | 0.00 | 0.00 | 79 | 1017.4 |
| 20260509022332 | 8 | 254 | 0.0 | 4.8 | 0.00 | 0.00 | 0.00 | 92 | 1013.5 |
| 20260509022327 | 11 | 83 | 0.0 | 1.6 | 0.00 | 0.00 | 0.00 | 91 | 1039.9 |
| 20260509022325 | 14 | 155 | 6.4 | 6.4 | 0.00 | 0.00 | 0.00 | 67 | 1015.4 |
| 20260509021900 | 12 | 276 | 3.2 | 6.4 | 0.00 | 0.00 | 0.00 | 77 | 1013.2 |
| 20260509021852 | 13 | 106 | 0.0 | 0.0 | 0.00 | 0.00 | 0.00 | 89 | 1014.6 |
| 20260509021850 | 14 | 340 | 4.8 | 6.4 | 0.00 | 0.51 | 0.00 | 88 | 1011.7 |
| 20260509021841 | 13 | 56 | 3.2 | 3.2 | 0.00 | 0.00 | 0.00 | 79 | 1017.3 |
| 20260509021836 | 8 | 259 | 0.0 | 4.8 | 0.00 | 0.00 | 0.00 | 92 | 1013.5 |
| 20260509021832 | 13 | 280 | 0.0 | 0.0 | 0.00 | 0.00 | 0.00 | 88 | 1016.9 |
| 20260509021830 | 11 | 83 | 0.0 | 1.6 | 0.00 | 0.00 | 0.00 | 91 | 1039.9 |
| 20260509021822 | 14 | 147 | 4.8 | 4.8 | 0.00 | 0.00 | 0.00 | 67 | 1015.4 |
| 20260509021403 | 12 | 270 | 3.2 | 6.4 | 0.00 | 0.00 | 0.00 | 77 | 1013.2 |
| 20260509021346 | 14 | 340 | 1.6 | 4.8 | 0.00 | 0.51 | 0.00 | 89 | 1011.7 |
| 20260509021338 | 13 | 56 | 1.6 | 4.8 | 0.00 | 0.00 | 0.00 | 78 | 1017.3 |
| 20260509021334 | 11 | 83 | 0.0 | 0.0 | 0.00 | 0.00 | 0.00 | 91 | 1039.9 |
| 20260509021328 | 14 | 134 | 0.0 | 8.0 | 0.00 | 0.00 | 0.00 | 70 | 1015.4 |
| 20260509020901 | 12 | 271 | 4.8 | 6.4 | 0.00 | 0.00 | 0.00 | 77 | 1013.3 |
| 20260509020852 | 15 | 340 | 1.6 | 6.4 | 0.00 | 0.51 | 0.00 | 89 | 1011.6 |
| 20260509020838 | 8 | 257 | 1.6 | 3.2 | 0.00 | 0.00 | 0.00 | 93 | 1013.5 |
| 20260509020833 | 13 | 280 | 0.0 | 0.0 | 0.00 | 0.00 | 0.00 | 88 | 1017.0 |
| 20260509020828 | 11 | 83 | 0.0 | 0.0 | 0.00 | 0.00 | 0.00 | 91 | 1039.9 |
| 20260509020822 | 13 | 115 | 8.0 | 9.7 | 0.00 | 0.00 | 0.00 | 72 | 1015.4 |
| 20260509020403 | 12 | 271 | 4.8 | 9.7 | 0.00 | 0.00 | 0.00 | 78 | 1013.4 |
| 20260509020349 | 13 | 106 | 0.0 | 0.0 | 0.00 | 0.00 | 0.00 | 89 | 1014.7 |
| 20260509020347 | 15 | 1 | 3.2 | 6.4 | 0.00 | 0.51 | 0.00 | 89 | 1011.5 |
| 20260509020338 | 13 | 56 | 4.8 | 4.8 | 0.00 | 0.00 | 0.00 | 78 | 1017.3 |
| 20260509020335 | 13 | 280 | 0.0 | 0.0 | 0.00 | 0.00 | 0.00 | 88 | 1017.0 |
| 20260509020330 | 11 | 83 | 0.0 | 0.0 | 0.00 | 0.00 | 0.00 | 91 | 1039.7 |
| 20260509020328 | 8 | 258 | 3.2 | 3.2 | 0.00 | 0.00 | 0.00 | 93 | 1013.5 |
| 20260509015902 | 12 | 275 | 4.8 | 6.4 | 0.00 | 0.00 | 0.00 | 78 | 1013.4 |
| 20260509015846 | 15 | 23 | 3.2 | 8.0 | 0.00 | 0.51 | 0.00 | 89 | 1011.6 |
| 20260509015841 | 13 | 57 | 3.2 | 4.8 | 0.00 | 0.00 | 0.00 | 78 | 1017.3 |
| 20260509015835 | 13 | 280 | 0.0 | 0.0 | 0.00 | 0.00 | 0.00 | 87 | 1017.0 |
| 20260509015830 | 11 | 83 | 0.0 | 0.0 | 0.00 | 0.00 | 0.00 | 90 | 1039.7 |
| 20260509015824 | 13 | 139 | 4.8 | 6.4 | 0.00 | 0.00 | 0.00 | 77 | 1015.4 |
| 20260509015356 | 12 | 272 | 4.8 | 4.8 | 0.00 | 0.00 | 0.00 | 78 | 1013.3 |
| 20260509015352 | 15 | 357 | 3.2 | 9.7 | 0.00 | 0.51 | 0.00 | 89 | 1011.7 |
| 20260509015338 | 13 | 56 | 0.0 | 0.0 | 0.00 | 0.00 | 0.00 | 77 | 1017.2 |
| 20260509015332 | 13 | 280 | 0.0 | 1.6 | 0.00 | 0.00 | 0.00 | 87 | 1017.1 |
| 20260509015330 | 11 | 83 | 0.0 | 1.6 | 0.00 | 0.00 | 0.00 | 90 | 1039.6 |
| 20260509015328 | 8 | 239 | 0.0 | 4.8 | 0.00 | 0.00 | 0.00 | 93 | 1013.7 |
| 20260509015321 | 13 | 155 | 4.8 | 9.7 | 0.00 | 0.00 | 0.00 | 77 | 1015.4 |
| 20260509014856 | 12 | 242 | 4.8 | 4.8 | 0.00 | 0.00 | 0.00 | 78 | 1013.3 |
| 20260509014847 | 13 | 106 | 0.0 | 0.0 | 0.00 | 0.00 | 0.00 | 89 | 1014.5 |
| 20260509014844 | 13 | 57 | 0.0 | 0.0 | 0.00 | 0.00 | 0.00 | 77 | 1017.3 |
| 20260509014835 | 13 | 280 | 0.0 | 0.0 | 0.00 | 0.00 | 0.00 | 87 | 1017.1 |
| 20260509014831 | 8 | 256 | 3.2 | 4.8 | 0.00 | 0.00 | 0.00 | 92 | 1013.7 |
| 20260509014827 | 11 | 83 | 0.0 | 1.6 | 0.00 | 0.00 | 0.00 | 91 | 1039.7 |
| 20260509014821 | 13 | 175 | 6.4 | 11.3 | 0.00 | 0.00 | 0.00 | 76 | 1015.3 |
| 20260509014356 | 12 | 279 | 3.2 | 4.8 | 0.00 | 0.00 | 0.00 | 78 | 1013.4 |
| 20260509014349 | 15 | 1 | 4.8 | 12.9 | 0.00 | 0.51 | 0.00 | 89 | 1011.7 |
| 20260509014338 | 13 | 57 | 0.0 | 6.4 | 0.00 | 0.00 | 0.00 | 78 | 1017.3 |
| 20260509014332 | 13 | 280 | 0.0 | 0.0 | 0.00 | 0.00 | 0.00 | 87 | 1017.0 |
| 20260509014329 | 8 | 262 | 3.2 | 4.8 | 0.00 | 0.00 | 0.00 | 92 | 1013.6 |
| 20260509014327 | 14 | 173 | 4.8 | 14.5 | 0.00 | 0.00 | 0.00 | 73 | 1015.3 |
| 20260509013857 | 12 | 273 | 3.2 | 6.4 | 0.00 | 0.00 | 0.00 | 78 | 1013.3 |
| 20260509013846 | 15 | 7 | 8.0 | 14.5 | 0.00 | 0.51 | 0.00 | 89 | 1011.6 |
| 20260509013844 | 13 | 66 | 3.2 | 4.8 | 0.00 | 0.00 | 0.00 | 78 | 1017.1 |
| 20260509013838 | 13 | 280 | 0.0 | 0.0 | 0.00 | 0.00 | 0.00 | 87 | 1017.0 |
| 20260509013828 | 8 | 269 | 1.6 | 4.8 | 0.00 | 0.00 | 0.00 | 92 | 1013.6 |
| 20260509013821 | 15 | 160 | 9.7 | 11.3 | 0.00 | 0.00 | 0.00 | 66 | 1015.3 |
| 20260509013359 | 12 | 269 | 4.8 | 6.4 | 0.00 | 0.00 | 0.00 | 78 | 1013.2 |
| 20260509013352 | 15 | 1 | 4.8 | 9.7 | 0.00 | 0.51 | 0.00 | 89 | 1011.6 |
| 20260509013346 | 13 | 106 | 0.0 | 0.0 | 0.00 | 0.00 | 0.00 | 88 | 1014.3 |
| 20260509013338 | 13 | 66 | 1.6 | 3.2 | 0.00 | 0.00 | 0.00 | 78 | 1017.2 |
| 20260509013336 | 14 | 83 | 0.0 | 0.0 | 0.00 | 0.00 | 0.00 | 82 | 1039.6 |
| 20260509013334 | 8 | 270 | 3.2 | 3.2 | 0.00 | 0.00 | 0.00 | 92 | 1013.7 |
| 20260509013332 | 13 | 280 | 0.0 | 3.2 | 0.00 | 0.00 | 0.00 | 87 | 1017.0 |
| 20260509013321 | 15 | 175 | 0.0 | 0.0 | 0.00 | 0.00 | 0.00 | 62 | 1015.1 |
| 20260509012900 | 12 | 269 | 4.8 | 9.7 | 0.00 | 0.00 | 0.00 | 79 | 1013.3 |
| 20260509012846 | 15 | 359 | 9.7 | 17.7 | 0.00 | 0.51 | 0.00 | 89 | 1011.8 |
| 20260509012838 | 13 | 66 | 0.0 | 0.0 | 0.00 | 0.00 | 0.00 | 77 | 1017.1 |
| 20260509012835 | 13 | 280 | 0.0 | 3.2 | 0.00 | 0.00 | 0.00 | 87 | 1016.9 |
| 20260509012827 | 14 | 83 | 0.0 | 0.0 | 0.00 | 0.00 | 0.00 | 82 | 1039.7 |
| 20260509012821 | 15 | 89 | 0.0 | 0.0 | 0.00 | 0.00 | 0.00 | 60 | 1015.1 |
| 20260509012356 | 12 | 284 | 3.2 | 4.8 | 0.00 | 0.00 | 0.00 | 78 | 1013.3 |
| 20260509012352 | 15 | 349 | 4.8 | 12.9 | 0.00 | 0.51 | 0.00 | 89 | 1011.8 |
| 20260509012344 | 13 | 66 | 0.0 | 0.0 | 0.00 | 0.00 | 0.00 | 77 | 1017.1 |
| 20260509012332 | 13 | 280 | 0.0 | 1.6 | 0.00 | 0.00 | 0.00 | 86 | 1017.0 |
| 20260509012328 | 8 | 270 | 1.6 | 3.2 | 0.00 | 0.00 | 0.00 | 92 | 1013.7 |
| 20260509012321 | 15 | 89 | 0.0 | 0.0 | 0.00 | 0.00 | 0.00 | 59 | 1015.1 |
| 20260509011856 | 12 | 271 | 3.2 | 4.8 | 0.00 | 0.00 | 0.00 | 78 | 1013.3 |
| 20260509011849 | 15 | 24 | 6.4 | 12.9 | 0.00 | 0.51 | 0.00 | 89 | 1011.8 |
| 20260509011843 | 14 | 106 | 0.0 | 0.0 | 0.00 | 0.00 | 0.00 | 88 | 1014.2 |
| 20260509011841 | 13 | 66 | 0.0 | 0.0 | 0.00 | 0.00 | 0.00 | 76 | 1017.1 |
| 20260509011832 | 13 | 280 | 0.0 | 3.2 | 0.00 | 0.00 | 0.00 | 87 | 1017.0 |
| 20260509011828 | 8 | 270 | 1.6 | 3.2 | 0.00 | 0.00 | 0.00 | 92 | 1013.7 |
| 20260509011821 | 15 | 89 | 0.0 | 0.0 | 0.00 | 0.00 | 0.00 | 61 | 1015.1 |
| 20260509011357 | 12 | 279 | 4.8 | 6.4 | 0.00 | 0.00 | 0.00 | 78 | 1013.4 |
| 20260509011355 | 15 | 1 | 3.2 | 12.9 | 0.00 | 0.51 | 0.00 | 89 | 1011.8 |
| 20260509011338 | 13 | 66 | 0.0 | 0.0 | 0.00 | 0.00 | 0.00 | 76 | 1017.1 |
| 20260509011334 | 8 | 271 | 3.2 | 3.2 | 0.00 | 0.00 | 0.00 | 92 | 1013.8 |
| 20260509011332 | 13 | 280 | 0.0 | 1.6 | 0.00 | 0.00 | 0.00 | 87 | 1016.9 |
| 20260509011330 | 14 | 83 | 0.0 | 0.0 | 0.00 | 0.00 | 0.00 | 82 | 1039.6 |
| 20260509011324 | 15 | 145 | 0.0 | 0.0 | 0.00 | 0.00 | 0.00 | 65 | 1015.0 |
| 20260509010906 | 12 | 276 | 4.8 | 6.4 | 0.00 | 0.00 | 0.00 | 78 | 1013.3 |
| 20260509010846 | 15 | 338 | 8.0 | 16.1 | 0.00 | 0.51 | 0.00 | 89 | 1011.7 |
| 20260509010838 | 13 | 66 | 0.0 | 0.0 | 0.00 | 0.00 | 0.00 | 76 | 1017.0 |
| 20260509010835 | 13 | 280 | 0.0 | 1.6 | 0.00 | 0.00 | 0.00 | 87 | 1016.9 |
| 20260509010832 | 8 | 271 | 3.2 | 4.8 | 0.00 | 0.00 | 0.00 | 92 | 1013.8 |
| 20260509010827 | 14 | 83 | 0.0 | 0.0 | 0.00 | 0.00 | 0.00 | 82 | 1039.6 |
| 20260509010821 | 14 | 146 | 0.0 | 0.0 | 0.00 | 0.00 | 0.00 | 65 | 1015.1 |
| 20260509010357 | 12 | 275 | 4.8 | 6.4 | 0.00 | 0.00 | 0.00 | 78 | 1013.3 |
| 20260509010349 | 14 | 106 | 0.0 | 0.0 | 0.00 | 0.00 | 0.00 | 88 | 1014.4 |
| 20260509010346 | 15 | 20 | 6.4 | 12.9 | 0.00 | 0.51 | 0.00 | 89 | 1011.7 |
| 20260509010341 | 13 | 66 | 0.0 | 0.0 | 0.00 | 0.00 | 0.00 | 76 | 1017.1 |
| 20260509010328 | 8 | 268 | 1.6 | 4.8 | 0.00 | 0.00 | 0.00 | 92 | 1013.8 |
| 20260509010321 | 15 | 146 | 0.0 | 0.0 | 0.00 | 0.00 | 0.00 | 67 | 1015.1 |
| 20260509005900 | 12 | 294 | 4.8 | 6.4 | 0.00 | 0.00 | 0.00 | 78 | 1013.2 |
| 20260509005846 | 15 | 355 | 11.3 | 14.5 | 0.00 | 0.51 | 0.00 | 89 | 1011.8 |
| 20260509005841 | 13 | 281 | 0.0 | 4.8 | 0.00 | 0.00 | 0.00 | 87 | 1016.9 |
| 20260509005838 | 13 | 62 | 0.0 | 14.5 | 0.00 | 0.00 | 0.00 | 76 | 1017.2 |
| 20260509005831 | 8 | 265 | 1.6 | 3.2 | 0.00 | 0.00 | 0.00 | 92 | 1013.7 |
| 20260509005827 | 14 | 83 | 0.0 | 0.0 | 0.00 | 0.00 | 0.00 | 82 | 1039.6 |
| 20260509005821 | 14 | 145 | 0.0 | 0.0 | 0.00 | 0.00 | 0.00 | 67 | 1015.1 |
| 20260509005357 | 12 | 269 | 6.4 | 6.4 | 0.00 | 0.00 | 0.00 | 78 | 1013.3 |
| 20260509005352 | 15 | 351 | 3.2 | 17.7 | 0.00 | 0.51 | 0.00 | 89 | 1011.8 |
| 20260509005341 | 13 | 63 | 0.0 | 0.0 | 0.00 | 0.00 | 0.00 | 76 | 1017.2 |
| 20260509005337 | 8 | 234 | 1.6 | 3.2 | 0.00 | 0.00 | 0.00 | 92 | 1013.8 |
| 20260509005335 | 13 | 281 | 1.6 | 4.8 | 0.00 | 0.00 | 0.00 | 86 | 1016.9 |
| 20260509005330 | 14 | 83 | 0.0 | 0.0 | 0.00 | 0.00 | 0.00 | 82 | 1039.5 |
| 20260509005324 | 14 | 145 | 0.0 | 0.0 | 0.00 | 0.00 | 0.00 | 69 | 1015.2 |
| 20260509004900 | 12 | 269 | 4.8 | 6.4 | 0.00 | 0.00 | 0.00 | 78 | 1013.2 |
| 20260509004846 | 15 | 334 | 6.4 | 11.3 | 0.00 | 0.51 | 0.00 | 89 | 1011.8 |
| 20260509004844 | 14 | 106 | 0.0 | 0.0 | 0.00 | 0.00 | 0.00 | 87 | 1014.5 |
| 20260509004838 | 13 | 48 | 0.0 | 0.0 | 0.00 | 0.00 | 0.00 | 76 | 1017.3 |
| 20260509004832 | 13 | 281 | 1.6 | 4.8 | 0.00 | 0.00 | 0.00 | 86 | 1016.9 |
| 20260509004828 | 8 | 234 | 1.6 | 3.2 | 0.00 | 0.00 | 0.00 | 92 | 1013.8 |
| 20260509004824 | 14 | 145 | 0.0 | 0.0 | 0.00 | 0.00 | 0.00 | 68 | 1015.3 |
| 20260509004403 | 12 | 259 | 6.4 | 6.4 | 0.00 | 0.00 | 0.00 | 78 | 1013.2 |
| 20260509004346 | 15 | 0 | 11.3 | 11.3 | 0.00 | 0.51 | 0.00 | 89 | 1011.8 |
| 20260509004344 | 13 | 101 | 0.0 | 0.0 | 0.00 | 0.00 | 0.00 | 75 | 1017.3 |
| 20260509004332 | 13 | 281 | 1.6 | 4.8 | 0.00 | 0.00 | 0.00 | 86 | 1016.9 |
| 20260509004327 | 14 | 83 | 0.0 | 0.0 | 0.00 | 0.00 | 0.00 | 82 | 1039.6 |
| 20260509004321 | 14 | 193 | 0.0 | 0.0 | 0.00 | 0.00 | 0.00 | 67 | 1015.3 |
| 20260509003857 | 12 | 273 | 3.2 | 6.4 | 0.00 | 0.00 | 0.00 | 77 | 1013.2 |
| 20260509003855 | 15 | 354 | 1.6 | 12.9 | 0.00 | 0.51 | 0.00 | 89 | 1011.7 |
| 20260509003841 | 13 | 101 | 0.0 | 0.0 | 0.00 | 0.00 | 0.00 | 75 | 1017.2 |
| 20260509003835 | 13 | 282 | 3.2 | 4.8 | 0.00 | 0.00 | 0.00 | 86 | 1016.9 |
| 20260509003831 | 8 | 242 | 3.2 | 4.8 | 0.00 | 0.00 | 0.00 | 92 | 1013.8 |
| 20260509003821 | 14 | 212 | 0.0 | 0.0 | 0.00 | 0.00 | 0.00 | 66 | 1015.3 |
| 20260509003400 | 12 | 286 | 3.2 | 6.4 | 0.00 | 0.00 | 0.00 | 77 | 1013.2 |
| 20260509003349 | 15 | 359 | 6.4 | 12.9 | 0.00 | 0.51 | 0.00 | 89 | 1011.8 |
| 20260509003346 | 14 | 106 | 0.0 | 0.0 | 0.00 | 0.00 | 0.00 | 87 | 1014.3 |
| 20260509003341 | 13 | 84 | 0.0 | 0.0 | 0.00 | 0.00 | 0.00 | 75 | 1017.2 |
| 20260509003335 | 14 | 283 | 1.6 | 6.4 | 0.00 | 0.00 | 0.00 | 86 | 1016.9 |
| 20260509003330 | 14 | 83 | 0.0 | 0.0 | 0.00 | 0.00 | 0.00 | 82 | 1039.7 |
| 20260509003321 | 14 | 266 | 0.0 | 0.0 | 0.00 | 0.00 | 0.00 | 67 | 1015.3 |
| 20260509002858 | 12 | 285 | 4.8 | 6.4 | 0.00 | 0.00 | 0.00 | 77 | 1013.2 |
| 20260509002846 | 15 | 354 | 4.8 | 14.5 | 0.00 | 0.51 | 0.00 | 89 | 1011.7 |
| 20260509002841 | 14 | 79 | 0.0 | 0.0 | 0.00 | 0.00 | 0.00 | 75 | 1017.2 |
| 20260509002834 | 8 | 256 | 0.0 | 3.2 | 0.00 | 0.00 | 0.00 | 92 | 1013.7 |
| 20260509002832 | 14 | 270 | 6.4 | 9.7 | 0.00 | 0.00 | 0.00 | 86 | 1016.9 |
| 20260509002827 | 14 | 83 | 0.0 | 0.0 | 0.00 | 0.00 | 0.00 | 82 | 1039.7 |
| 20260509002821 | 15 | 271 | 0.0 | 0.0 | 0.00 | 0.00 | 0.00 | 66 | 1015.4 |
| 20260509002357 | 12 | 274 | 4.8 | 9.7 | 0.00 | 0.00 | 0.00 | 78 | 1013.2 |
| 20260509002355 | 15 | 344 | 3.2 | 12.9 | 0.00 | 0.51 | 0.00 | 89 | 1011.7 |
| 20260509002338 | 14 | 82 | 0.0 | 0.0 | 0.00 | 0.00 | 0.00 | 75 | 1017.2 |
| 20260509002332 | 14 | 276 | 4.8 | 6.4 | 0.00 | 0.00 | 0.00 | 86 | 1016.9 |
| 20260509002330 | 14 | 83 | 0.0 | 0.0 | 0.00 | 0.00 | 0.00 | 82 | 1039.7 |
| 20260509002328 | 8 | 256 | 3.2 | 3.2 | 0.00 | 0.00 | 0.00 | 91 | 1013.7 |
| 20260509002324 | 15 | 143 | 0.0 | 3.2 | 0.00 | 0.00 | 0.00 | 65 | 1015.3 |
| 20260509001857 | 12 | 265 | 4.8 | 6.4 | 0.00 | 0.00 | 0.00 | 78 | 1013.3 |
| 20260509001849 | 15 | 351 | 6.4 | 14.5 | 0.00 | 0.51 | 0.00 | 89 | 1011.7 |
| 20260509001844 | 14 | 106 | 0.0 | 0.0 | 0.00 | 0.00 | 0.00 | 87 | 1014.3 |
| 20260509001838 | 14 | 81 | 0.0 | 0.0 | 0.00 | 0.00 | 0.00 | 74 | 1017.2 |
| 20260509001833 | 14 | 83 | 0.0 | 0.0 | 0.00 | 0.00 | 0.00 | 82 | 1039.7 |
| 20260509001828 | 8 | 256 | 1.6 | 3.2 | 0.00 | 0.00 | 0.00 | 92 | 1013.7 |
| 20260509001821 | 15 | 123 | 0.0 | 0.0 | 0.00 | 0.00 | 0.00 | 64 | 1015.4 |
| 20260509001357 | 12 | 265 | 3.2 | 6.4 | 0.00 | 0.00 | 0.00 | 77 | 1013.2 |
| 20260509001349 | 15 | 359 | 4.8 | 9.7 | 0.00 | 0.51 | 0.00 | 89 | 1011.7 |
| 20260509001338 | 14 | 50 | 0.0 | 0.0 | 0.00 | 0.00 | 0.00 | 74 | 1017.2 |
| 20260509001333 | 14 | 83 | 0.0 | 0.0 | 0.00 | 0.00 | 0.00 | 82 | 1039.7 |
| 20260509001328 | 9 | 256 | 1.6 | 3.2 | 0.00 | 0.00 | 0.00 | 91 | 1013.6 |
| 20260509001324 | 15 | 127 | 0.0 | 3.2 | 0.00 | 0.00 | 0.00 | 65 | 1015.4 |
| 20260509000906 | 12 | 264 | 4.8 | 6.4 | 0.00 | 0.00 | 0.00 | 77 | 1013.3 |
| 20260509000849 | 15 | 1 | 4.8 | 12.9 | 0.00 | 0.51 | 0.00 | 89 | 1011.7 |
| 20260509000838 | 14 | 69 | 0.0 | 0.0 | 0.00 | 0.00 | 0.00 | 74 | 1017.2 |
| 20260509000829 | 9 | 256 | 0.0 | 3.2 | 0.00 | 0.00 | 0.00 | 91 | 1013.6 |
| 20260509000827 | 14 | 83 | 0.0 | 0.0 | 0.00 | 0.00 | 0.00 | 82 | 1039.7 |
| 20260509000824 | 14 | 103 | 0.0 | 0.0 | 0.00 | 0.00 | 0.00 | 67 | 1015.3 |
| 20260509000403 | 12 | 261 | 4.8 | 6.4 | 0.00 | 0.00 | 0.00 | 77 | 1013.3 |
| 20260509000348 | 15 | 339 | 6.4 | 16.1 | 0.00 | 0.51 | 0.00 | 89 | 1011.7 |
| 20260509000344 | 14 | 106 | 0.0 | 0.0 | 0.00 | 0.00 | 0.00 | 87 | 1014.3 |
| 20260509000340 | 14 | 59 | 0.0 | 0.0 | 0.00 | 0.00 | 0.00 | 74 | 1017.2 |
| 20260509000333 | 14 | 83 | 0.0 | 0.0 | 0.00 | 0.00 | 0.00 | 82 | 1039.7 |
| 20260509000328 | 9 | 265 | 1.6 | 3.2 | 0.00 | 0.00 | 0.00 | 91 | 1013.6 |
| 20260509000325 | 14 | 58 | 0.0 | 0.0 | 0.00 | 0.00 | 0.00 | 69 | 1015.3 |
| 20260509000313 | 15 | 257 | 6.4 | 8.0 | 0.00 | 0.00 | 0.00 | 85 | 1015.4 |
| 20260508235906 | 12 | 269 | 3.2 | 6.4 | 0.00 | 0.00 | 0.00 | 77 | 1013.3 |
| 20260508235846 | 15 | 0 | 14.5 | 14.5 | 0.00 | 0.51 | 0.00 | 89 | 1011.6 |
| 20260508235838 | 14 | 69 | 0.0 | 0.0 | 0.00 | 0.00 | 0.00 | 74 | 1017.1 |
| 20260508235832 | 14 | 163 | 3.2 | 3.2 | 0.00 | 0.00 | 0.00 | 87 | 1016.8 |
| 20260508235830 | 14 | 58 | 0.0 | 4.8 | 0.00 | 0.00 | 0.00 | 70 | 1015.3 |
| 20260508235828 | 9 | 265 | 1.6 | 3.2 | 0.00 | 0.00 | 0.00 | 91 | 1013.6 |
| 20260508235812 | 15 | 253 | 4.8 | 9.7 | 0.00 | 0.00 | 0.00 | 85 | 1015.4 |
| 20260508235357 | 12 | 288 | 3.2 | 4.8 | 0.00 | 0.00 | 0.00 | 77 | 1013.3 |
| 20260508235349 | 15 | 358 | 8.0 | 11.3 | 0.00 | 0.51 | 0.00 | 89 | 1011.6 |
| 20260508235338 | 14 | 69 | 0.0 | 0.0 | 0.00 | 0.00 | 0.00 | 74 | 1017.1 |
| 20260508235333 | 14 | 83 | 0.0 | 0.0 | 0.00 | 0.00 | 0.00 | 82 | 1039.7 |
| 20260508235328 | 9 | 265 | 0.0 | 1.6 | 0.00 | 0.00 | 0.00 | 91 | 1013.6 |
| 20260508235324 | 14 | 44 | 0.0 | 6.4 | 0.00 | 0.00 | 0.00 | 70 | 1015.4 |
| 20260508235312 | 15 | 250 | 4.8 | 8.0 | 0.00 | 0.00 | 0.00 | 85 | 1015.5 |
| 20260508234904 | 12 | 283 | 3.2 | 6.4 | 0.00 | 0.00 | 0.00 | 76 | 1013.3 |
| 20260508234850 | 14 | 106 | 0.0 | 0.0 | 0.00 | 0.00 | 0.00 | 87 | 1014.1 |
| 20260508234847 | 15 | 354 | 6.4 | 17.7 | 0.00 | 0.51 | 0.00 | 89 | 1011.6 |
| 20260508234841 | 15 | 163 | 0.0 | 1.6 | 0.00 | 0.00 | 0.00 | 86 | 1016.7 |
| 20260508234838 | 14 | 69 | 0.0 | 0.0 | 0.00 | 0.00 | 0.00 | 73 | 1017.2 |
| 20260508234827 | 14 | 83 | 0.0 | 0.0 | 0.00 | 0.00 | 0.00 | 82 | 1039.7 |
| 20260508234822 | 14 | 58 | 1.6 | 4.8 | 0.00 | 0.00 | 0.00 | 72 | 1015.3 |
| 20260508234812 | 15 | 250 | 3.2 | 6.4 | 0.00 | 0.00 | 0.00 | 85 | 1015.4 |
| 20260508234357 | 12 | 265 | 3.2 | 4.8 | 0.00 | 0.00 | 0.00 | 76 | 1013.3 |
| 20260508234346 | 15 | 359 | 6.4 | 14.5 | 0.00 | 0.51 | 0.00 | 89 | 1011.6 |
| 20260508234341 | 14 | 69 | 0.0 | 0.0 | 0.00 | 0.00 | 0.00 | 73 | 1017.2 |
| 20260508234334 | 9 | 265 | 1.6 | 3.2 | 0.00 | 0.00 | 0.00 | 91 | 1013.7 |
| 20260508234332 | 15 | 163 | 0.0 | 6.4 | 0.00 | 0.00 | 0.00 | 86 | 1016.7 |
| 20260508234321 | 14 | 61 | 0.0 | 0.0 | 0.00 | 0.00 | 0.00 | 73 | 1015.3 |
| 20260508234313 | 15 | 251 | 4.8 | 9.7 | 0.00 | 0.00 | 0.00 | 85 | 1015.4 |
| 20260508233857 | 12 | 272 | 3.2 | 6.4 | 0.00 | 0.00 | 0.00 | 75 | 1013.4 |
| 20260508233849 | 15 | 356 | 4.8 | 16.1 | 0.00 | 0.51 | 0.00 | 89 | 1011.5 |
| 20260508233838 | 15 | 69 | 0.0 | 0.0 | 0.00 | 0.00 | 0.00 | 73 | 1017.1 |
| 20260508233835 | 15 | 163 | 3.2 | 3.2 | 0.00 | 0.00 | 0.00 | 86 | 1016.7 |
| 20260508233832 | 9 | 265 | 0.0 | 3.2 | 0.00 | 0.00 | 0.00 | 91 | 1013.7 |
| 20260508233827 | 14 | 83 | 0.0 | 0.0 | 0.00 | 0.00 | 0.00 | 82 | 1039.8 |
| 20260508233822 | 14 | 93 | 0.0 | 0.0 | 0.00 | 0.00 | 0.00 | 74 | 1015.4 |
| 20260508233812 | 15 | 263 | 4.8 | 6.4 | 0.00 | 0.00 | 0.00 | 84 | 1015.5 |
| 20260508233400 | 12 | 273 | 4.8 | 6.4 | 0.00 | 0.00 | 0.00 | 75 | 1013.4 |
| 20260508233353 | 15 | 347 | 6.4 | 12.9 | 0.00 | 0.51 | 0.00 | 90 | 1011.4 |
| 20260508233347 | 14 | 106 | 0.0 | 0.0 | 0.00 | 0.00 | 0.00 | 86 | 1014.1 |
| 20260508233338 | 15 | 69 | 0.0 | 0.0 | 0.00 | 0.00 | 0.00 | 73 | 1017.0 |
| 20260508233332 | 15 | 162 | 1.6 | 3.2 | 0.00 | 0.00 | 0.00 | 85 | 1016.7 |
| 20260508233328 | 9 | 266 | 1.6 | 3.2 | 0.00 | 0.00 | 0.00 | 91 | 1013.7 |
| 20260508233324 | 14 | 165 | 0.0 | 0.0 | 0.00 | 0.00 | 0.00 | 72 | 1015.5 |
| 20260508233312 | 15 | 263 | 4.8 | 9.7 | 0.00 | 0.00 | 0.00 | 84 | 1015.5 |
| 20260508232903 | 12 | 271 | 3.2 | 4.8 | 0.00 | 0.00 | 0.00 | 75 | 1013.4 |
| 20260508232849 | 16 | 340 | 6.4 | 8.0 | 0.00 | 0.51 | 0.00 | 90 | 1011.6 |
| 20260508232838 | 15 | 65 | 0.0 | 0.0 | 0.00 | 0.00 | 0.00 | 73 | 1017.2 |
| 20260508232835 | 15 | 162 | 1.6 | 3.2 | 0.00 | 0.00 | 0.00 | 85 | 1016.7 |
| 20260508232828 | 9 | 266 | 0.0 | 3.2 | 0.00 | 0.00 | 0.00 | 91 | 1013.8 |
| 20260508232822 | 14 | 165 | 0.0 | 0.0 | 0.00 | 0.00 | 0.00 | 74 | 1015.6 |
| 20260508232815 | 15 | 263 | 3.2 | 9.7 | 0.00 | 0.00 | 0.00 | 83 | 1015.5 |
| 20260508232400 | 12 | 274 | 1.6 | 4.8 | 0.00 | 0.00 | 0.00 | 75 | 1013.4 |
| 20260508232349 | 16 | 1 | 1.6 | 8.0 | 0.00 | 0.51 | 0.00 | 90 | 1011.6 |
| 20260508232338 | 15 | 67 | 0.0 | 0.0 | 0.00 | 0.00 | 0.00 | 72 | 1017.1 |
| 20260508232336 | 14 | 83 | 0.0 | 0.0 | 0.00 | 0.00 | 0.00 | 82 | 1039.9 |
| 20260508232332 | 15 | 162 | 0.0 | 1.6 | 0.00 | 0.00 | 0.00 | 85 | 1016.7 |
| 20260508232328 | 13 | 165 | 0.0 | 0.0 | 0.00 | 0.00 | 0.00 | 76 | 1015.6 |
| 20260508232312 | 15 | 273 | 6.4 | 9.7 | 0.00 | 0.00 | 0.00 | 82 | 1015.5 |
| 20260508231858 | 12 | 231 | 3.2 | 6.4 | 0.00 | 0.00 | 0.00 | 75 | 1013.4 |
| 20260508231849 | 16 | 356 | 4.8 | 8.0 | 0.00 | 0.51 | 0.00 | 90 | 1011.7 |
| 20260508231845 | 14 | 106 | 0.0 | 0.0 | 0.00 | 0.00 | 0.00 | 85 | 1014.1 |
| 20260508231838 | 15 | 62 | 0.0 | 0.0 | 0.00 | 0.00 | 0.00 | 72 | 1017.0 |
| 20260508231835 | 15 | 162 | 0.0 | 0.0 | 0.00 | 0.00 | 0.00 | 85 | 1016.6 |
| 20260508231827 | 14 | 83 | 0.0 | 0.0 | 0.00 | 0.00 | 0.00 | 82 | 1040.0 |
| 20260508231825 | 13 | 165 | 0.0 | 0.0 | 0.00 | 0.00 | 0.00 | 79 | 1015.6 |
| 20260508231816 | 16 | 281 | 6.4 | 6.4 | 0.00 | 0.00 | 0.00 | 81 | 1015.4 |
| 20260508231357 | 12 | 279 | 3.2 | 9.7 | 0.00 | 0.00 | 0.00 | 75 | 1013.4 |
| 20260508231346 | 16 | 323 | 6.4 | 8.0 | 0.00 | 0.51 | 0.00 | 90 | 1011.7 |
| 20260508231341 | 15 | 57 | 0.0 | 6.4 | 0.00 | 0.00 | 0.00 | 72 | 1017.0 |
| 20260508231332 | 15 | 162 | 0.0 | 0.0 | 0.00 | 0.00 | 0.00 | 86 | 1016.6 |
| 20260508231327 | 14 | 83 | 0.0 | 0.0 | 0.00 | 0.00 | 0.00 | 82 | 1040.0 |
| 20260508231322 | 13 | 165 | 0.0 | 0.0 | 0.00 | 0.00 | 0.00 | 81 | 1015.5 |
| 20260508231312 | 16 | 279 | 4.8 | 6.4 | 0.00 | 0.00 | 0.00 | 79 | 1015.5 |
| 20260508230904 | 12 | 265 | 1.6 | 9.7 | 0.00 | 0.00 | 0.00 | 75 | 1013.5 |
| 20260508230846 | 16 | 0 | 1.6 | 9.7 | 0.00 | 0.51 | 0.00 | 90 | 1011.8 |
| 20260508230838 | 15 | 55 | 0.0 | 4.8 | 0.00 | 0.00 | 0.00 | 71 | 1017.0 |
| 20260508230835 | 15 | 162 | 0.0 | 0.0 | 0.00 | 0.00 | 0.00 | 85 | 1016.6 |
| 20260508230828 | 13 | 165 | 0.0 | 0.0 | 0.00 | 0.00 | 0.00 | 83 | 1015.6 |
| 20260508230819 | 16 | 306 | 3.2 | 6.4 | 0.00 | 0.00 | 0.00 | 79 | 1015.4 |
| 20260508230400 | 12 | 268 | 3.2 | 9.7 | 0.00 | 0.00 | 0.00 | 75 | 1013.5 |
| 20260508230349 | 16 | 336 | 0.0 | 4.8 | 0.00 | 0.51 | 0.00 | 90 | 1011.7 |
| 20260508230345 | 15 | 106 | 0.0 | 0.0 | 0.00 | 0.00 | 0.00 | 85 | 1014.1 |
| 20260508230341 | 15 | 55 | 4.8 | 4.8 | 0.00 | 0.00 | 0.00 | 71 | 1016.9 |
| 20260508230335 | 15 | 162 | 0.0 | 0.0 | 0.00 | 0.00 | 0.00 | 85 | 1016.6 |
| 20260508230330 | 14 | 83 | 0.0 | 0.0 | 0.00 | 0.00 | 0.00 | 82 | 1040.1 |
| 20260508230322 | 13 | 165 | 0.0 | 0.0 | 0.00 | 0.00 | 0.00 | 83 | 1015.6 |
| 20260508230315 | 16 | 315 | 3.2 | 4.8 | 0.00 | 0.00 | 0.00 | 79 | 1015.4 |
| 20260508225903 | 12 | 293 | 4.8 | 6.4 | 0.00 | 0.00 | 0.00 | 75 | 1013.6 |
| 20260508225846 | 16 | 335 | 1.6 | 6.4 | 0.00 | 0.51 | 0.00 | 90 | 1011.8 |
| 20260508225844 | 15 | 28 | 0.0 | 0.0 | 0.00 | 0.00 | 0.00 | 71 | 1017.1 |
| 20260508225838 | 15 | 162 | 0.0 | 0.0 | 0.00 | 0.00 | 0.00 | 85 | 1016.6 |
| 20260508225835 | 10 | 260 | 3.2 | 3.2 | 0.00 | 0.00 | 0.00 | 91 | 1013.9 |
| 20260508225830 | 14 | 83 | 0.0 | 0.0 | 0.00 | 0.00 | 0.00 | 82 | 1040.2 |
| 20260508225822 | 13 | 165 | 0.0 | 0.0 | 0.00 | 0.00 | 0.00 | 83 | 1015.5 |
| 20260508225816 | 16 | 314 | 3.2 | 4.8 | 0.00 | 0.00 | 0.00 | 81 | 1015.5 |
| 20260508225357 | 12 | 248 | 1.6 | 6.4 | 0.00 | 0.00 | 0.00 | 74 | 1013.6 |
| 20260508225346 | 15 | 320 | 3.2 | 6.4 | 0.00 | 0.51 | 0.00 | 89 | 1011.8 |
| 20260508225338 | 15 | 63 | 0.0 | 0.0 | 0.00 | 0.00 | 0.00 | 71 | 1017.0 |
| 20260508225331 | 10 | 260 | 1.6 | 4.8 | 0.00 | 0.00 | 0.00 | 90 | 1013.9 |
| 20260508225328 | 13 | 165 | 0.0 | 0.0 | 0.00 | 0.00 | 0.00 | 82 | 1015.5 |
| 20260508225312 | 16 | 315 | 3.2 | 4.8 | 0.00 | 0.00 | 0.00 | 81 | 1015.5 |
| 20260508224858 | 12 | 272 | 3.2 | 6.4 | 0.00 | 0.00 | 0.00 | 74 | 1013.5 |
| 20260508224852 | 15 | 312 | 3.2 | 6.4 | 0.00 | 0.51 | 0.00 | 89 | 1011.7 |
| 20260508224844 | 15 | 63 | 0.0 | 3.2 | 0.00 | 0.00 | 0.00 | 71 | 1016.9 |
| 20260508224832 | 15 | 162 | 0.0 | 0.0 | 0.00 | 0.00 | 0.00 | 84 | 1016.6 |
| 20260508224830 | 14 | 83 | 0.0 | 0.0 | 0.00 | 0.00 | 0.00 | 82 | 1040.4 |
| 20260508224828 | 10 | 259 | 4.8 | 6.4 | 0.00 | 0.00 | 0.00 | 91 | 1013.9 |
| 20260508224825 | 13 | 165 | 0.0 | 0.0 | 0.00 | 0.00 | 0.00 | 82 | 1015.4 |
| 20260508224815 | 16 | 314 | 4.8 | 6.4 | 0.00 | 0.00 | 0.00 | 81 | 1015.5 |
| 20260508224357 | 12 | 291 | 4.8 | 6.4 | 0.00 | 0.00 | 0.00 | 74 | 1013.5 |
| 20260508224346 | 15 | 307 | 4.8 | 6.4 | 0.00 | 0.51 | 0.00 | 89 | 1011.7 |
| 20260508224344 | 15 | 63 | 0.0 | 0.0 | 0.00 | 0.00 | 0.00 | 72 | 1017.0 |
| 20260508224332 | 10 | 242 | 0.0 | 4.8 | 0.00 | 0.00 | 0.00 | 90 | 1013.8 |
| 20260508224327 | 14 | 83 | 0.0 | 0.0 | 0.00 | 0.00 | 0.00 | 82 | 1040.6 |
| 20260508224322 | 13 | 165 | 0.0 | 0.0 | 0.00 | 0.00 | 0.00 | 83 | 1015.5 |
| 20260508224313 | 16 | 315 | 4.8 | 8.0 | 0.00 | 0.00 | 0.00 | 81 | 1015.5 |
| 20260508223857 | 12 | 278 | 6.4 | 6.4 | 0.00 | 0.00 | 0.00 | 73 | 1013.6 |
| 20260508223848 | 15 | 306 | 3.2 | 6.4 | 0.00 | 0.51 | 0.00 | 89 | 1011.7 |
| 20260508223838 | 15 | 63 | 0.0 | 0.0 | 0.00 | 0.00 | 0.00 | 71 | 1017.0 |
| 20260508223832 | 10 | 242 | 3.2 | 3.2 | 0.00 | 0.00 | 0.00 | 90 | 1013.8 |
| 20260508223830 | 14 | 83 | 0.0 | 0.0 | 0.00 | 0.00 | 0.00 | 82 | 1040.7 |
| 20260508223828 | 13 | 165 | 0.0 | 0.0 | 0.00 | 0.00 | 0.00 | 84 | 1015.5 |
| 20260508223813 | 16 | 317 | 8.0 | 8.0 | 0.00 | 0.00 | 0.00 | 81 | 1015.5 |
| 20260508223357 | 12 | 274 | 3.2 | 6.4 | 0.00 | 0.00 | 0.00 | 73 | 1013.5 |
| 20260508223349 | 15 | 305 | 4.8 | 6.4 | 0.00 | 0.51 | 0.00 | 89 | 1011.7 |
| 20260508223345 | 15 | 106 | 0.0 | 0.0 | 0.00 | 0.00 | 0.00 | 84 | 1014.3 |
| 20260508223338 | 15 | 63 | 0.0 | 0.0 | 0.00 | 0.00 | 0.00 | 71 | 1017.0 |
| 20260508223332 | 15 | 162 | 0.0 | 0.0 | 0.00 | 0.00 | 0.00 | 84 | 1016.5 |
| 20260508223329 | 10 | 242 | 0.0 | 1.6 | 0.00 | 0.00 | 0.00 | 90 | 1013.8 |
| 20260508223327 | 14 | 83 | 0.0 | 0.0 | 0.00 | 0.00 | 0.00 | 82 | 1040.9 |
| 20260508223322 | 13 | 165 | 0.0 | 0.0 | 0.00 | 0.00 | 0.00 | 87 | 1015.5 |
| 20260508223319 | 16 | 309 | 6.4 | 8.0 | 0.00 | 0.00 | 0.00 | 81 | 1015.5 |
| 20260508222900 | 12 | 273 | 4.8 | 4.8 | 0.00 | 0.00 | 0.00 | 73 | 1013.7 |
| 20260508222846 | 15 | 305 | 3.2 | 8.0 | 0.00 | 0.51 | 0.00 | 89 | 1011.7 |
| 20260508222838 | 15 | 103 | 0.0 | 0.0 | 0.00 | 0.00 | 0.00 | 70 | 1017.0 |
| 20260508222833 | 14 | 83 | 0.0 | 0.0 | 0.00 | 0.00 | 0.00 | 82 | 1041.2 |
| 20260508222829 | 10 | 242 | 0.0 | 3.2 | 0.00 | 0.00 | 0.00 | 90 | 1013.8 |
| 20260508222822 | 13 | 165 | 0.0 | 0.0 | 0.00 | 0.00 | 0.00 | 88 | 1015.5 |
| 20260508222812 | 15 | 313 | 4.8 | 9.7 | 0.00 | 0.00 | 0.00 | 82 | 1015.5 |
| 20260508222401 | 12 | 256 | 3.2 | 4.8 | 0.00 | 0.00 | 0.00 | 74 | 1013.7 |
| 20260508222350 | 15 | 310 | 4.8 | 8.0 | 0.00 | 0.51 | 0.00 | 89 | 1011.7 |
| 20260508222341 | 15 | 103 | 0.0 | 0.0 | 0.00 | 0.00 | 0.00 | 70 | 1017.0 |
| 20260508222338 | 16 | 162 | 0.0 | 0.0 | 0.00 | 0.00 | 0.00 | 83 | 1016.7 |
| 20260508222329 | 10 | 242 | 1.6 | 3.2 | 0.00 | 0.00 | 0.00 | 90 | 1013.8 |
| 20260508222327 | 14 | 83 | 0.0 | 0.0 | 0.00 | 0.00 | 0.00 | 82 | 1041.6 |
| 20260508222322 | 13 | 165 | 0.0 | 0.0 | 0.00 | 0.00 | 0.00 | 87 | 1015.5 |
| 20260508222313 | 15 | 310 | 8.0 | 9.7 | 0.00 | 0.00 | 0.00 | 83 | 1015.6 |
| 20260508221900 | 12 | 285 | 3.2 | 4.8 | 0.00 | 0.00 | 0.00 | 74 | 1013.6 |
| 20260508221851 | 15 | 307 | 1.6 | 8.0 | 0.00 | 0.51 | 0.00 | 89 | 1011.6 |
| 20260508221845 | 16 | 106 | 0.0 | 0.0 | 0.00 | 0.00 | 0.00 | 83 | 1014.2 |
| 20260508221835 | 16 | 162 | 0.0 | 0.0 | 0.00 | 0.00 | 0.00 | 83 | 1016.7 |
| 20260508221830 | 14 | 83 | 0.0 | 0.0 | 0.00 | 0.00 | 0.00 | 82 | 1042.2 |
| 20260508221822 | 13 | 137 | 0.0 | 0.0 | 0.00 | 0.00 | 0.00 | 89 | 1015.5 |
| 20260508221812 | 15 | 298 | 6.4 | 11.3 | 0.00 | 0.00 | 0.00 | 84 | 1015.6 |
| 20260508221357 | 12 | 235 | 3.2 | 4.8 | 0.00 | 0.00 | 0.00 | 73 | 1013.6 |
| 20260508221347 | 15 | 316 | 3.2 | 8.0 | 0.00 | 0.51 | 0.00 | 89 | 1011.6 |
| 20260508221341 | 16 | 94 | 0.0 | 0.0 | 0.00 | 0.00 | 0.00 | 70 | 1017.0 |
| 20260508221335 | 16 | 162 | 0.0 | 0.0 | 0.00 | 0.00 | 0.00 | 83 | 1016.6 |
| 20260508221332 | 10 | 242 | 1.6 | 3.2 | 0.00 | 0.00 | 0.00 | 90 | 1013.7 |
| 20260508221327 | 14 | 83 | 0.0 | 0.0 | 0.00 | 0.00 | 0.00 | 82 | 1043.0 |
| 20260508221322 | 13 | 137 | 0.0 | 0.0 | 0.00 | 0.00 | 0.00 | 88 | 1015.6 |
| 20260508221312 | 15 | 309 | 4.8 | 14.5 | 0.00 | 0.00 | 0.00 | 84 | 1015.6 |
| 20260508220857 | 12 | 227 | 1.6 | 6.4 | 0.00 | 0.00 | 0.00 | 73 | 1013.7 |
| 20260508220848 | 16 | 288 | 3.2 | 8.0 | 0.00 | 0.51 | 0.00 | 89 | 1011.6 |
| 20260508220841 | 16 | 94 | 0.0 | 0.0 | 0.00 | 0.00 | 0.00 | 69 | 1016.9 |
| 20260508220835 | 16 | 162 | 0.0 | 0.0 | 0.00 | 0.00 | 0.00 | 82 | 1016.6 |
| 20260508220833 | 14 | 83 | 0.0 | 0.0 | 0.00 | 0.00 | 0.00 | 82 | 1044.2 |
| 20260508220829 | 10 | 242 | 0.0 | 4.8 | 0.00 | 0.00 | 0.00 | 90 | 1013.7 |
| 20260508220822 | 13 | 137 | 0.0 | 0.0 | 0.00 | 0.00 | 0.00 | 86 | 1015.6 |
| 20260508220815 | 15 | 319 | 4.8 | 12.9 | 0.00 | 0.00 | 0.00 | 85 | 1015.7 |
| 20260508220357 | 12 | 271 | 4.8 | 6.4 | 0.00 | 0.00 | 0.00 | 73 | 1013.6 |
| 20260508220354 | 15 | 106 | 0.0 | 0.0 | 0.00 | 0.00 | 0.00 | 85 | 1014.2 |
| 20260508220351 | 16 | 297 | 1.6 | 8.0 | 0.00 | 0.51 | 0.00 | 89 | 1011.6 |
| 20260508220341 | 16 | 94 | 0.0 | 0.0 | 0.00 | 0.00 | 0.00 | 69 | 1016.9 |
| 20260508220333 | 14 | 83 | 0.0 | 0.0 | 0.00 | 0.00 | 0.00 | 82 | 1046.7 |
| 20260508220329 | 10 | 242 | 3.2 | 4.8 | 0.00 | 0.00 | 0.00 | 90 | 1013.7 |
| 20260508220325 | 13 | 137 | 0.0 | 0.0 | 0.00 | 0.00 | 0.00 | 90 | 1015.6 |
| 20260508220315 | 15 | 315 | 6.4 | 11.3 | 0.00 | 0.00 | 0.00 | 85 | 1015.7 |
| 20260508215857 | 12 | 265 | 4.8 | 6.4 | 0.00 | 0.00 | 0.00 | 73 | 1013.7 |
| 20260508215848 | 16 | 293 | 3.2 | 6.4 | 0.00 | 0.51 | 0.00 | 89 | 1011.6 |
| 20260508215838 | 16 | 162 | 0.0 | 0.0 | 0.00 | 0.00 | 0.00 | 82 | 1016.6 |
| 20260508215832 | 10 | 242 | 1.6 | 3.2 | 0.00 | 0.00 | 0.00 | 89 | 1013.7 |
| 20260508215827 | 14 | 83 | 0.0 | 0.0 | 0.00 | 0.00 | 0.00 | 82 | 1052.9 |
| 20260508215822 | 13 | 137 | 0.0 | 0.0 | 0.00 | 0.00 | 0.00 | 90 | 1015.6 |
| 20260508215812 | 15 | 284 | 3.2 | 6.4 | 0.00 | 0.00 | 0.00 | 85 | 1015.6 |
| 20260508215401 | 12 | 314 | 4.8 | 8.0 | 0.00 | 0.00 | 0.00 | 72 | 1013.7 |
| 20260508215349 | 16 | 285 | 3.2 | 6.4 | 0.00 | 0.51 | 0.00 | 89 | 1011.7 |
| 20260508215338 | 16 | 113 | 0.0 | 0.0 | 0.00 | 0.00 | 0.00 | 68 | 1017.0 |
| 20260508215333 | 14 | 83 | 0.0 | 0.0 | 0.00 | 0.00 | 0.00 | 82 | 1112.1 |
| 20260508215329 | 11 | 242 | 1.6 | 1.6 | 0.00 | 0.00 | 0.00 | 89 | 1013.8 |
| 20260508215322 | 13 | 146 | 0.0 | 0.0 | 0.00 | 0.00 | 0.00 | 90 | 1015.6 |
| 20260508215313 | 15 | 260 | 4.8 | 6.4 | 0.00 | 0.00 | 0.00 | 84 | 1015.6 |
| 20260508214900 | 12 | 211 | 1.6 | 9.7 | 0.00 | 0.00 | 0.00 | 72 | 1013.7 |
| 20260508214849 | 16 | 285 | 0.0 | 3.2 | 0.00 | 0.51 | 0.00 | 89 | 1011.6 |
| 20260508214844 | 15 | 106 | 0.0 | 0.0 | 0.00 | 0.00 | 0.00 | 85 | 1014.0 |
| 20260508214841 | 16 | 113 | 0.0 | 0.0 | 0.00 | 0.00 | 0.00 | 68 | 1017.0 |
| 20260508214833 | 14 | 83 | 0.0 | 0.0 | 0.00 | 0.00 | 0.00 | 82 | 1016.2 |
| 20260508214830 | 11 | 242 | 1.6 | 1.6 | 0.00 | 0.00 | 0.00 | 89 | 1013.8 |
| 20260508214828 | 13 | 158 | 0.0 | 0.0 | 0.00 | 0.00 | 0.00 | 90 | 1015.5 |
| 20260508214813 | 15 | 260 | 3.2 | 6.4 | 0.00 | 0.00 | 0.00 | 83 | 1015.6 |
| 20260508214400 | 12 | 293 | 0.0 | 6.4 | 0.00 | 0.00 | 0.00 | 71 | 1013.8 |
| 20260508214352 | 16 | 285 | 1.6 | 6.4 | 0.00 | 0.51 | 0.00 | 89 | 1011.6 |
| 20260508214338 | 16 | 65 | 0.0 | 9.7 | 0.00 | 0.00 | 0.00 | 68 | 1016.9 |
| 20260508214332 | 16 | 162 | 0.0 | 0.0 | 0.00 | 0.00 | 0.00 | 81 | 1016.6 |
| 20260508214329 | 11 | 242 | 0.0 | 1.6 | 0.00 | 0.00 | 0.00 | 89 | 1013.7 |
| 20260508214327 | 14 | 83 | 0.0 | 0.0 | 0.00 | 0.00 | 0.00 | 82 | 1016.2 |
| 20260508214325 | 13 | 203 | 0.0 | 0.0 | 0.00 | 0.00 | 0.00 | 90 | 1015.5 |
| 20260508214313 | 16 | 260 | 4.8 | 6.4 | 0.00 | 0.00 | 0.00 | 83 | 1015.6 |
| 20260508213900 | 12 | 292 | 1.6 | 4.8 | 0.00 | 0.00 | 0.00 | 71 | 1013.7 |
| 20260508213845 | 16 | 285 | 3.2 | 6.4 | 0.00 | 0.51 | 0.00 | 89 | 1011.5 |
| 20260508213832 | 16 | 162 | 0.0 | 0.0 | 0.00 | 0.00 | 0.00 | 81 | 1016.6 |
| 20260508213829 | 11 | 242 | 0.0 | 3.2 | 0.00 | 0.00 | 0.00 | 89 | 1013.7 |
| 20260508213827 | 14 | 83 | 0.0 | 1.6 | 0.00 | 0.00 | 0.00 | 82 | 1016.2 |
| 20260508213822 | 13 | 152 | 0.0 | 0.0 | 0.00 | 0.00 | 0.00 | 90 | 1015.5 |
| 20260508213357 | 12 | 292 | 0.0 | 1.6 | 0.00 | 0.00 | 0.00 | 71 | 1013.7 |
| 20260508213350 | 16 | 106 | 0.0 | 0.0 | 0.00 | 0.00 | 0.00 | 85 | 1014.0 |
| 20260508213345 | 16 | 271 | 1.6 | 4.8 | 0.00 | 0.51 | 0.00 | 89 | 1011.5 |
| 20260508213338 | 16 | 35 | 1.6 | 4.8 | 0.00 | 0.00 | 0.00 | 67 | 1016.8 |
| 20260508213333 | 14 | 83 | 0.0 | 0.0 | 0.00 | 0.00 | 0.00 | 82 | 1016.2 |
| 20260508213322 | 13 | 131 | 0.0 | 0.0 | 0.00 | 0.00 | 0.00 | 90 | 1015.4 |
| 20260508213315 | 16 | 260 | 4.8 | 6.4 | 0.00 | 0.00 | 0.00 | 81 | 1015.6 |
| 20260508212857 | 12 | 290 | 1.6 | 4.8 | 0.00 | 0.00 | 0.00 | 71 | 1013.8 |
| 20260508212849 | 16 | 269 | 1.6 | 4.8 | 0.00 | 0.51 | 0.00 | 89 | 1011.6 |
| 20260508212844 | 16 | 62 | 0.0 | 0.0 | 0.00 | 0.00 | 0.00 | 67 | 1016.7 |
| 20260508212832 | 11 | 242 | 0.0 | 3.2 | 0.00 | 0.00 | 0.00 | 89 | 1013.7 |
| 20260508212827 | 14 | 83 | 0.0 | 0.0 | 0.00 | 0.00 | 0.00 | 82 | 1016.1 |
| 20260508212822 | 13 | 183 | 0.0 | 0.0 | 0.00 | 0.00 | 0.00 | 90 | 1015.4 |
| 20260508212815 | 16 | 260 | 4.8 | 6.4 | 0.00 | 0.00 | 0.00 | 79 | 1015.5 |
| 20260508212404 | 12 | 294 | 4.8 | 4.8 | 0.00 | 0.00 | 0.00 | 71 | 1013.8 |
| 20260508212346 | 16 | 269 | 3.2 | 4.8 | 0.00 | 0.51 | 0.00 | 89 | 1011.5 |
| 20260508212341 | 16 | 94 | 0.0 | 0.0 | 0.00 | 0.00 | 0.00 | 67 | 1016.7 |
| 20260508212332 | 17 | 162 | 1.6 | 1.6 | 0.00 | 0.00 | 0.00 | 80 | 1016.5 |
| 20260508212330 | 11 | 242 | 1.6 | 4.8 | 0.00 | 0.00 | 0.00 | 89 | 1013.7 |
| 20260508212327 | 14 | 83 | 0.0 | 0.0 | 0.00 | 0.00 | 0.00 | 82 | 1016.1 |
| 20260508212322 | 13 | 169 | 0.0 | 0.0 | 0.00 | 0.00 | 0.00 | 91 | 1015.5 |
| 20260508212315 | 16 | 175 | 4.8 | 4.8 | 0.00 | 0.00 | 0.00 | 76 | 1015.4 |
| 20260508211858 | 12 | 278 | 1.6 | 4.8 | 0.00 | 0.00 | 0.00 | 71 | 1013.7 |
| 20260508211848 | 16 | 269 | 1.6 | 4.8 | 0.00 | 0.51 | 0.00 | 89 | 1011.6 |
| 20260508211844 | 16 | 106 | 0.0 | 0.0 | 0.00 | 0.00 | 0.00 | 85 | 1014.1 |
| 20260508211841 | 16 | 98 | 0.0 | 0.0 | 0.00 | 0.00 | 0.00 | 66 | 1016.7 |
| 20260508211832 | 11 | 241 | 3.2 | 4.8 | 0.00 | 0.00 | 0.00 | 89 | 1013.7 |
| 20260508211827 | 14 | 83 | 0.0 | 1.6 | 0.00 | 0.00 | 0.00 | 82 | 1016.0 |
| 20260508211822 | 13 | 205 | 0.0 | 0.0 | 0.00 | 0.00 | 0.00 | 90 | 1015.4 |
| 20260508211817 | 16 | 174 | 1.6 | 4.8 | 0.00 | 0.00 | 0.00 | 77 | 1015.4 |
| 20260508211400 | 12 | 277 | 3.2 | 6.4 | 0.00 | 0.00 | 0.00 | 71 | 1013.7 |
| 20260508211348 | 16 | 269 | 0.0 | 6.4 | 0.00 | 0.51 | 0.00 | 89 | 1011.5 |
| 20260508211344 | 16 | 355 | 0.0 | 0.0 | 0.00 | 0.00 | 0.00 | 66 | 1016.6 |
| 20260508211338 | 17 | 162 | 0.0 | 1.6 | 0.00 | 0.00 | 0.00 | 80 | 1016.6 |
| 20260508211336 | 14 | 83 | 1.6 | 1.6 | 0.00 | 0.00 | 0.00 | 81 | 1016.0 |
| 20260508211322 | 13 | 167 | 0.0 | 0.0 | 0.00 | 0.00 | 0.00 | 90 | 1015.5 |
| 20260508211315 | 16 | 174 | 3.2 | 4.8 | 0.00 | 0.00 | 0.00 | 75 | 1015.4 |
| 20260508210907 | 12 | 254 | 1.6 | 4.8 | 0.00 | 0.00 | 0.00 | 71 | 1013.7 |
| 20260508210848 | 16 | 269 | 4.8 | 6.4 | 0.00 | 0.51 | 0.00 | 89 | 1011.5 |
| 20260508210838 | 16 | 355 | 0.0 | 0.0 | 0.00 | 0.00 | 0.00 | 66 | 1016.6 |
| 20260508210835 | 17 | 162 | 0.0 | 1.6 | 0.00 | 0.00 | 0.00 | 80 | 1016.5 |
| 20260508210830 | 15 | 83 | 0.0 | 0.0 | 0.00 | 0.00 | 0.00 | 82 | 1016.0 |
| 20260508210828 | 13 | 163 | 0.0 | 6.4 | 0.00 | 0.00 | 0.00 | 90 | 1015.6 |
| 20260508210821 | 16 | 174 | 3.2 | 6.4 | 0.00 | 0.00 | 0.00 | 74 | 1015.4 |
| 20260508210357 | 12 | 288 | 3.2 | 6.4 | 0.00 | 0.00 | 0.00 | 71 | 1013.7 |
| 20260508210347 | 16 | 106 | 0.0 | 0.0 | 0.00 | 0.00 | 0.00 | 84 | 1014.0 |
| 20260508210341 | 17 | 355 | 0.0 | 0.0 | 0.00 | 0.00 | 0.00 | 64 | 1016.5 |
| 20260508210332 | 17 | 162 | 0.0 | 1.6 | 0.00 | 0.00 | 0.00 | 80 | 1016.5 |
| 20260508210330 | 15 | 83 | 0.0 | 0.0 | 0.00 | 0.00 | 0.00 | 80 | 1015.9 |
| 20260508210325 | 13 | 143 | 4.8 | 4.8 | 0.00 | 0.00 | 0.00 | 90 | 1015.5 |
| 20260508210318 | 16 | 174 | 0.0 | 0.0 | 0.00 | 0.00 | 0.00 | 75 | 1015.4 |
| 20260508205903 | 13 | 288 | 3.2 | 4.8 | 0.00 | 0.00 | 0.00 | 72 | 1013.8 |
| 20260508205845 | 16 | 290 | 3.2 | 6.4 | 0.00 | 0.51 | 0.00 | 89 | 1011.5 |
| 20260508205841 | 17 | 355 | 0.0 | 0.0 | 0.00 | 0.00 | 0.00 | 64 | 1016.5 |
| 20260508205832 | 17 | 162 | 0.0 | 1.6 | 0.00 | 0.00 | 0.00 | 80 | 1016.5 |
| 20260508205829 | 11 | 241 | 1.6 | 4.8 | 0.00 | 0.00 | 0.00 | 88 | 1013.6 |
| 20260508205827 | 15 | 83 | 0.0 | 0.0 | 0.00 | 0.00 | 0.00 | 80 | 1015.9 |
| 20260508205825 | 13 | 210 | 0.0 | 0.0 | 0.00 | 0.00 | 0.00 | 90 | 1015.5 |
| 20260508205821 | 16 | 174 | 0.0 | 0.0 | 0.00 | 0.00 | 0.00 | 75 | 1015.4 |
| 20260508205400 | 13 | 255 | 3.2 | 6.4 | 0.00 | 0.00 | 0.00 | 71 | 1013.7 |
| 20260508205353 | 16 | 290 | 1.6 | 6.4 | 0.00 | 0.51 | 0.00 | 89 | 1011.5 |
| 20260508205338 | 17 | 355 | 0.0 | 0.0 | 0.00 | 0.00 | 0.00 | 64 | 1016.4 |
| 20260508205335 | 17 | 162 | 0.0 | 1.6 | 0.00 | 0.00 | 0.00 | 80 | 1016.5 |
| 20260508205329 | 11 | 246 | 1.6 | 3.2 | 0.00 | 0.00 | 0.00 | 87 | 1013.7 |
| 20260508205327 | 15 | 83 | 0.0 | 0.0 | 0.00 | 0.00 | 0.00 | 80 | 1015.9 |
| 20260508205316 | 16 | 174 | 0.0 | 0.0 | 0.00 | 0.00 | 0.00 | 76 | 1015.4 |
| 20260508204857 | 13 | 270 | 3.2 | 6.4 | 0.00 | 0.00 | 0.00 | 72 | 1013.7 |
| 20260508204853 | 16 | 106 | 0.0 | 0.0 | 0.00 | 0.00 | 0.00 | 83 | 1013.9 |
| 20260508204845 | 16 | 276 | 3.2 | 4.8 | 0.00 | 0.51 | 0.00 | 89 | 1011.5 |
| 20260508204841 | 17 | 355 | 0.0 | 0.0 | 0.00 | 0.00 | 0.00 | 64 | 1016.4 |
| 20260508204833 | 15 | 83 | 0.0 | 1.6 | 0.00 | 0.00 | 0.00 | 80 | 1015.9 |
| 20260508204828 | 13 | 173 | 0.0 | 0.0 | 0.00 | 0.00 | 0.00 | 89 | 1015.5 |
| 20260508204818 | 16 | 174 | 0.0 | 0.0 | 0.00 | 0.00 | 0.00 | 78 | 1015.4 |
| 20260508204358 | 12 | 292 | 3.2 | 6.4 | 0.00 | 0.00 | 0.00 | 72 | 1013.8 |
| 20260508204351 | 16 | 276 | 4.8 | 4.8 | 0.00 | 0.51 | 0.00 | 89 | 1011.5 |
| 20260508204341 | 17 | 355 | 0.0 | 0.0 | 0.00 | 0.00 | 0.00 | 63 | 1016.5 |
| 20260508204336 | 12 | 246 | 1.6 | 3.2 | 0.00 | 0.00 | 0.00 | 87 | 1013.6 |
| 20260508204333 | 15 | 83 | 1.6 | 3.2 | 0.00 | 0.00 | 0.00 | 80 | 1015.9 |
| 20260508204322 | 13 | 183 | 0.0 | 0.0 | 0.00 | 0.00 | 0.00 | 88 | 1015.6 |
| 20260508204315 | 16 | 174 | 0.0 | 1.6 | 0.00 | 0.00 | 0.00 | 80 | 1015.4 |
| 20260508203858 | 12 | 250 | 3.2 | 4.8 | 0.00 | 0.00 | 0.00 | 72 | 1013.7 |
| 20260508203845 | 16 | 276 | 3.2 | 6.4 | 0.00 | 0.51 | 0.00 | 89 | 1011.5 |
| 20260508203838 | 17 | 355 | 0.0 | 0.0 | 0.00 | 0.00 | 0.00 | 62 | 1016.3 |
| 20260508203832 | 17 | 161 | 1.6 | 3.2 | 0.00 | 0.00 | 0.00 | 80 | 1016.6 |
| 20260508203829 | 12 | 246 | 3.2 | 3.2 | 0.00 | 0.00 | 0.00 | 87 | 1013.6 |
| 20260508203827 | 15 | 83 | 0.0 | 1.6 | 0.00 | 0.00 | 0.00 | 79 | 1015.8 |
| 20260508203822 | 13 | 186 | 0.0 | 6.4 | 0.00 | 0.00 | 0.00 | 88 | 1015.5 |
| 20260508203815 | 16 | 174 | 1.6 | 4.8 | 0.00 | 0.00 | 0.00 | 81 | 1015.4 |
| 20260508203400 | 12 | 247 | 1.6 | 4.8 | 0.00 | 0.00 | 0.00 | 72 | 1013.7 |
| 20260508203348 | 16 | 277 | 4.8 | 8.0 | 0.00 | 0.51 | 0.00 | 89 | 1011.4 |
| 20260508203344 | 16 | 106 | 0.0 | 0.0 | 0.00 | 0.00 | 0.00 | 81 | 1013.9 |
| 20260508203332 | 17 | 161 | 0.0 | 3.2 | 0.00 | 0.00 | 0.00 | 80 | 1016.5 |
| 20260508203329 | 12 | 246 | 1.6 | 3.2 | 0.00 | 0.00 | 0.00 | 86 | 1013.6 |
| 20260508203327 | 15 | 83 | 0.0 | 0.0 | 0.00 | 0.00 | 0.00 | 78 | 1015.7 |
| 20260508203321 | 16 | 174 | 3.2 | 8.0 | 0.00 | 0.00 | 0.00 | 82 | 1015.4 |
| 20260508202858 | 12 | 246 | 3.2 | 6.4 | 0.00 | 0.00 | 0.00 | 72 | 1013.7 |
| 20260508202851 | 16 | 257 | 1.6 | 6.4 | 0.00 | 0.51 | 0.00 | 89 | 1011.3 |
| 20260508202841 | 17 | 355 | 0.0 | 0.0 | 0.00 | 0.00 | 0.00 | 62 | 1016.3 |
| 20260508202832 | 17 | 161 | 0.0 | 1.6 | 0.00 | 0.00 | 0.00 | 80 | 1016.5 |
| 20260508202830 | 16 | 83 | 0.0 | 0.0 | 0.00 | 0.00 | 0.00 | 78 | 1015.6 |
| 20260508202818 | 15 | 174 | 4.8 | 9.7 | 0.00 | 0.00 | 0.00 | 84 | 1015.5 |
| 20260508202357 | 12 | 262 | 3.2 | 4.8 | 0.00 | 0.00 | 0.00 | 72 | 1013.6 |
| 20260508202354 | 16 | 250 | 3.2 | 8.0 | 0.00 | 0.51 | 0.00 | 89 | 1011.4 |
| 20260508202344 | 17 | 355 | 0.0 | 0.0 | 0.00 | 0.00 | 0.00 | 61 | 1016.3 |
| 20260508202332 | 17 | 161 | 0.0 | 1.6 | 0.00 | 0.00 | 0.00 | 80 | 1016.5 |
| 20260508202329 | 12 | 246 | 0.0 | 3.2 | 0.00 | 0.00 | 0.00 | 86 | 1013.7 |
| 20260508202327 | 16 | 83 | 0.0 | 0.0 | 0.00 | 0.00 | 0.00 | 77 | 1015.6 |
| 20260508202319 | 16 | 174 | 8.0 | 9.7 | 0.00 | 0.00 | 0.00 | 84 | 1015.5 |
| 20260508201901 | 12 | 281 | 1.6 | 4.8 | 0.00 | 0.00 | 0.00 | 72 | 1013.5 |
| 20260508201847 | 17 | 0 | 0.0 | 6.4 | 0.00 | 0.00 | 0.00 | 60 | 1016.2 |
| 20260508201845 | 16 | 240 | 6.4 | 8.0 | 0.00 | 0.51 | 0.00 | 88 | 1011.3 |
| 20260508201836 | 16 | 83 | 0.0 | 1.6 | 0.00 | 0.00 | 0.00 | 76 | 1015.5 |
| 20260508201829 | 12 | 246 | 1.6 | 3.2 | 0.00 | 0.00 | 0.00 | 86 | 1013.7 |
| 20260508201826 | 13 | 222 | 0.0 | 0.0 | 0.00 | 0.00 | 0.00 | 83 | 1015.6 |
| 20260508201818 | 16 | 163 | 8.0 | 8.0 | 0.00 | 0.00 | 0.00 | 85 | 1015.5 |
| 20260508201357 | 12 | 275 | 3.2 | 4.8 | 0.00 | 0.00 | 0.00 | 72 | 1013.5 |
| 20260508201345 | 16 | 233 | 1.6 | 8.0 | 0.00 | 0.51 | 0.00 | 88 | 1011.3 |
| 20260508201338 | 17 | 20 | 0.0 | 0.0 | 0.00 | 0.00 | 0.00 | 59 | 1016.1 |
| 20260508201333 | 16 | 83 | 0.0 | 0.0 | 0.00 | 0.00 | 0.00 | 75 | 1015.5 |
| 20260508201323 | 14 | 222 | 0.0 | 1.6 | 0.00 | 0.00 | 0.00 | 81 | 1015.5 |
| 20260508201315 | 16 | 151 | 4.8 | 6.4 | 0.00 | 0.00 | 0.00 | 85 | 1015.4 |
| 20260508200857 | 12 | 274 | 3.2 | 6.4 | 0.00 | 0.00 | 0.00 | 72 | 1013.5 |
| 20260508200847 | 16 | 238 | 3.2 | 8.0 | 0.00 | 0.51 | 0.00 | 88 | 1011.3 |
| 20260508200838 | 18 | 62 | 0.0 | 0.0 | 0.00 | 0.00 | 0.00 | 59 | 1016.1 |
| 20260508200833 | 17 | 161 | 0.0 | 1.6 | 0.00 | 0.00 | 0.00 | 79 | 1016.4 |
| 20260508200830 | 12 | 246 | 0.0 | 3.2 | 0.00 | 0.00 | 0.00 | 86 | 1013.5 |
| 20260508200822 | 14 | 265 | 0.0 | 0.0 | 0.00 | 0.00 | 0.00 | 77 | 1015.5 |
| 20260508200813 | 16 | 150 | 1.6 | 4.8 | 0.00 | 0.00 | 0.00 | 85 | 1015.4 |
| 20260508200357 | 13 | 273 | 3.2 | 4.8 | 0.00 | 0.00 | 0.00 | 73 | 1013.6 |
| 20260508200348 | 16 | 238 | 1.6 | 8.0 | 0.00 | 0.51 | 0.00 | 88 | 1011.2 |
| 20260508200344 | 17 | 106 | 0.0 | 0.0 | 0.00 | 0.00 | 0.00 | 78 | 1013.9 |
| 20260508200338 | 18 | 17 | 0.0 | 0.0 | 0.00 | 0.00 | 0.00 | 59 | 1016.1 |
| 20260508200332 | 12 | 246 | 1.6 | 3.2 | 0.00 | 0.00 | 0.00 | 86 | 1013.5 |
| 20260508200330 | 17 | 83 | 1.6 | 1.6 | 0.00 | 0.00 | 0.00 | 73 | 1015.4 |
| 20260508200322 | 15 | 242 | 0.0 | 0.0 | 0.00 | 0.00 | 0.00 | 68 | 1015.4 |
| 20260508195857 | 13 | 277 | 4.8 | 4.8 | 0.00 | 0.00 | 0.00 | 73 | 1013.5 |
| 20260508195845 | 16 | 236 | 3.2 | 8.0 | 0.00 | 0.51 | 0.00 | 88 | 1011.1 |
| 20260508195838 | 18 | 52 | 0.0 | 8.0 | 0.00 | 0.00 | 0.00 | 58 | 1015.9 |
| 20260508195832 | 18 | 161 | 0.0 | 1.6 | 0.00 | 0.00 | 0.00 | 79 | 1016.4 |
| 20260508195830 | 17 | 83 | 0.0 | 0.0 | 0.00 | 0.00 | 0.00 | 73 | 1015.4 |
| 20260508195822 | 15 | 304 | 0.0 | 0.0 | 0.00 | 0.00 | 0.00 | 55 | 1015.3 |
| 20260508195817 | 16 | 150 | 1.6 | 4.8 | 0.00 | 0.00 | 0.00 | 85 | 1015.4 |
| 20260508195400 | 13 | 281 | 3.2 | 6.4 | 0.00 | 0.00 | 0.00 | 73 | 1013.5 |
| 20260508195345 | 16 | 239 | 3.2 | 6.4 | 0.00 | 0.51 | 0.00 | 88 | 1011.1 |
| 20260508195335 | 18 | 161 | 1.6 | 1.6 | 0.00 | 0.00 | 0.00 | 79 | 1016.3 |
| 20260508195332 | 13 | 246 | 1.6 | 3.2 | 0.00 | 0.00 | 0.00 | 85 | 1013.3 |
| 20260508195330 | 17 | 83 | 0.0 | 3.2 | 0.00 | 0.00 | 0.00 | 73 | 1015.3 |
| 20260508195322 | 15 | 267 | 0.0 | 1.6 | 0.00 | 0.00 | 0.00 | 54 | 1015.2 |
| 20260508195313 | 16 | 150 | 3.2 | 9.7 | 0.00 | 0.00 | 0.00 | 85 | 1015.4 |
| 20260508194903 | 13 | 271 | 3.2 | 4.8 | 0.00 | 0.00 | 0.00 | 73 | 1013.4 |
| 20260508194853 | 17 | 106 | 0.0 | 0.0 | 0.00 | 0.00 | 0.00 | 77 | 1013.8 |
| 20260508194851 | 16 | 239 | 3.2 | 8.0 | 0.00 | 0.51 | 0.00 | 88 | 1011.0 |
| 20260508194841 | 18 | 44 | 0.0 | 0.0 | 0.00 | 0.00 | 0.00 | 57 | 1015.8 |
| 20260508194835 | 18 | 161 | 1.6 | 3.2 | 0.00 | 0.00 | 0.00 | 78 | 1016.2 |
| 20260508194830 | 17 | 83 | 1.6 | 8.0 | 0.00 | 0.00 | 0.00 | 72 | 1015.2 |
| 20260508194825 | 15 | 88 | 0.0 | 0.0 | 0.00 | 0.00 | 0.00 | 55 | 1015.2 |
| 20260508194815 | 16 | 167 | 8.0 | 9.7 | 0.00 | 0.00 | 0.00 | 85 | 1015.3 |
| 20260508194401 | 13 | 273 | 3.2 | 4.8 | 0.00 | 0.00 | 0.00 | 73 | 1013.4 |
| 20260508194348 | 16 | 238 | 1.6 | 8.0 | 0.00 | 0.51 | 0.00 | 88 | 1010.8 |
| 20260508194341 | 18 | 160 | 0.0 | 3.2 | 0.00 | 0.00 | 0.00 | 78 | 1016.2 |
| 20260508194338 | 18 | 91 | 0.0 | 0.0 | 0.00 | 0.00 | 0.00 | 57 | 1015.8 |
| 20260508194332 | 13 | 245 | 1.6 | 3.2 | 0.00 | 0.00 | 0.00 | 84 | 1013.2 |
| 20260508194327 | 18 | 93 | 3.2 | 4.8 | 0.00 | 0.00 | 0.00 | 71 | 1015.1 |
| 20260508194315 | 16 | 179 | 6.4 | 9.7 | 0.00 | 0.00 | 0.00 | 85 | 1015.3 |
| 20260508193903 | 13 | 275 | 3.2 | 4.8 | 0.00 | 0.00 | 0.00 | 73 | 1013.3 |
| 20260508193854 | 16 | 229 | 4.8 | 8.0 | 0.00 | 0.51 | 0.00 | 88 | 1010.8 |
| 20260508193841 | 18 | 19 | 0.0 | 0.0 | 0.00 | 0.00 | 0.00 | 56 | 1015.7 |
| 20260508193835 | 18 | 160 | 1.6 | 6.4 | 0.00 | 0.00 | 0.00 | 78 | 1016.2 |
| 20260508193830 | 13 | 245 | 1.6 | 3.2 | 0.00 | 0.00 | 0.00 | 83 | 1013.2 |
| 20260508193827 | 18 | 85 | 3.2 | 4.8 | 0.00 | 0.00 | 0.00 | 71 | 1015.0 |
| 20260508193824 | 15 | 147 | 0.0 | 4.8 | 0.00 | 0.00 | 0.00 | 56 | 1015.0 |
| 20260508193812 | 16 | 161 | 9.7 | 9.7 | 0.00 | 0.00 | 0.00 | 85 | 1015.3 |
| 20260508193401 | 13 | 283 | 3.2 | 6.4 | 0.00 | 0.00 | 0.00 | 73 | 1013.2 |
| 20260508193345 | 16 | 268 | 6.4 | 8.0 | 0.00 | 0.51 | 0.00 | 87 | 1010.6 |
| 20260508193341 | 18 | 10 | 0.0 | 0.0 | 0.00 | 0.00 | 0.00 | 56 | 1015.6 |
| 20260508193335 | 13 | 245 | 1.6 | 3.2 | 0.00 | 0.00 | 0.00 | 83 | 1013.2 |
| 20260508193332 | 18 | 159 | 1.6 | 3.2 | 0.00 | 0.00 | 0.00 | 78 | 1016.1 |
| 20260508193327 | 18 | 85 | 3.2 | 4.8 | 0.00 | 0.00 | 0.00 | 71 | 1014.9 |
| 20260508193325 | 15 | 30 | 0.0 | 9.7 | 0.00 | 0.00 | 0.00 | 58 | 1014.9 |
| 20260508193312 | 16 | 132 | 4.8 | 11.3 | 0.00 | 0.00 | 0.00 | 85 | 1015.2 |
| 20260508192857 | 13 | 265 | 4.8 | 4.8 | 0.00 | 0.00 | 0.00 | 73 | 1013.1 |
| 20260508192851 | 16 | 267 | 3.2 | 6.4 | 0.00 | 0.51 | 0.00 | 87 | 1010.5 |
| 20260508192841 | 18 | 10 | 0.0 | 0.0 | 0.00 | 0.00 | 0.00 | 55 | 1015.5 |
| 20260508192835 | 14 | 245 | 1.6 | 3.2 | 0.00 | 0.00 | 0.00 | 83 | 1013.0 |
| 20260508192832 | 18 | 159 | 0.0 | 3.2 | 0.00 | 0.00 | 0.00 | 78 | 1016.0 |
| 20260508192827 | 18 | 85 | 3.2 | 4.8 | 0.00 | 0.00 | 0.00 | 70 | 1014.9 |
| 20260508192823 | 15 | 11 | 1.6 | 4.8 | 0.00 | 0.00 | 0.00 | 59 | 1014.9 |
| 20260508192815 | 16 | 128 | 8.0 | 9.7 | 0.00 | 0.00 | 0.00 | 85 | 1015.2 |
| 20260508192401 | 13 | 273 | 3.2 | 4.8 | 0.00 | 0.00 | 0.00 | 73 | 1013.0 |
| 20260508192345 | 16 | 276 | 3.2 | 9.7 | 0.00 | 0.51 | 0.00 | 87 | 1010.4 |
| 20260508192341 | 19 | 0 | 0.0 | 4.8 | 0.00 | 0.00 | 0.00 | 55 | 1015.5 |
| 20260508192335 | 18 | 158 | 1.6 | 1.6 | 0.00 | 0.00 | 0.00 | 77 | 1015.9 |
| 20260508192329 | 14 | 245 | 0.0 | 3.2 | 0.00 | 0.00 | 0.00 | 83 | 1013.0 |
| 20260508192327 | 15 | 65 | 0.0 | 9.7 | 0.00 | 0.00 | 0.00 | 61 | 1014.9 |
| 20260508192313 | 16 | 111 | 3.2 | 11.3 | 0.00 | 0.00 | 0.00 | 85 | 1015.1 |
| 20260508191857 | 13 | 278 | 3.2 | 4.8 | 0.00 | 0.00 | 0.00 | 74 | 1013.0 |
| 20260508191847 | 19 | 34 | 0.0 | 6.4 | 0.00 | 0.00 | 0.00 | 55 | 1015.4 |
| 20260508191845 | 16 | 304 | 8.0 | 8.0 | 0.00 | 0.51 | 0.00 | 87 | 1010.3 |
| 20260508191835 | 18 | 158 | 0.0 | 0.0 | 0.00 | 0.00 | 0.00 | 77 | 1015.7 |
| 20260508191833 | 14 | 245 | 1.6 | 6.4 | 0.00 | 0.00 | 0.00 | 82 | 1013.0 |
| 20260508191827 | 18 | 194 | 3.2 | 3.2 | 0.00 | 0.00 | 0.00 | 68 | 1014.6 |
| 20260508191812 | 16 | 142 | 3.2 | 6.4 | 0.00 | 0.00 | 0.00 | 86 | 1015.0 |
| 20260508191401 | 13 | 286 | 3.2 | 4.8 | 0.00 | 0.00 | 0.00 | 74 | 1012.9 |
| 20260508191347 | 16 | 280 | 1.6 | 6.4 | 0.00 | 0.51 | 0.00 | 86 | 1010.2 |
| 20260508191338 | 19 | 5 | 0.0 | 9.7 | 0.00 | 0.00 | 0.00 | 54 | 1015.3 |
| 20260508191335 | 18 | 158 | 0.0 | 0.0 | 0.00 | 0.00 | 0.00 | 77 | 1015.4 |
| 20260508191332 | 14 | 277 | 1.6 | 3.2 | 0.00 | 0.00 | 0.00 | 82 | 1012.8 |
| 20260508191327 | 18 | 194 | 1.6 | 3.2 | 0.00 | 0.00 | 0.00 | 65 | 1014.5 |
| 20260508191323 | 15 | 354 | 3.2 | 12.9 | 0.00 | 0.00 | 0.00 | 63 | 1014.7 |
| 20260508191312 | 16 | 124 | 0.0 | 0.0 | 0.00 | 0.00 | 0.00 | 86 | 1015.0 |
| 20260508190857 | 13 | 294 | 3.2 | 4.8 | 0.00 | 0.00 | 0.00 | 74 | 1012.9 |
| 20260508190845 | 16 | 274 | 4.8 | 6.4 | 0.00 | 0.51 | 0.00 | 86 | 1010.1 |
| 20260508190838 | 19 | 158 | 0.0 | 0.0 | 0.00 | 0.00 | 0.00 | 77 | 1015.5 |
| 20260508190829 | 15 | 277 | 1.6 | 4.8 | 0.00 | 0.00 | 0.00 | 81 | 1012.8 |
| 20260508190827 | 18 | 194 | 1.6 | 3.2 | 0.00 | 0.00 | 0.00 | 64 | 1014.5 |
| 20260508190818 | 16 | 124 | 0.0 | 1.6 | 0.00 | 0.00 | 0.00 | 85 | 1015.0 |
| 20260508190358 | 13 | 292 | 3.2 | 6.4 | 0.00 | 0.00 | 0.00 | 74 | 1012.9 |
| 20260508190351 | 16 | 273 | 0.0 | 6.4 | 0.00 | 0.51 | 0.00 | 86 | 1009.9 |
| 20260508190341 | 19 | 48 | 4.8 | 8.0 | 0.00 | 0.00 | 0.00 | 54 | 1015.0 |
| 20260508190335 | 19 | 158 | 0.0 | 1.6 | 0.00 | 0.00 | 0.00 | 76 | 1015.2 |
| 20260508190331 | 18 | 194 | 0.0 | 0.0 | 0.00 | 0.00 | 0.00 | 64 | 1014.4 |
| 20260508190329 | 15 | 261 | 1.6 | 4.8 | 0.00 | 0.00 | 0.00 | 81 | 1012.8 |
| 20260508190315 | 16 | 124 | 0.0 | 3.2 | 0.00 | 0.00 | 0.00 | 85 | 1014.9 |
| 20260508185906 | 13 | 292 | 3.2 | 4.8 | 0.00 | 0.00 | 0.00 | 74 | 1012.8 |
| 20260508185847 | 17 | 273 | 4.8 | 9.7 | 0.00 | 0.51 | 0.00 | 86 | 1009.9 |
| 20260508185838 | 19 | 85 | 4.8 | 11.3 | 0.00 | 0.00 | 0.00 | 54 | 1015.0 |
| 20260508185835 | 15 | 262 | 0.0 | 4.8 | 0.00 | 0.00 | 0.00 | 81 | 1012.7 |
| 20260508185832 | 19 | 159 | 1.6 | 3.2 | 0.00 | 0.00 | 0.00 | 76 | 1015.3 |
| 20260508185830 | 18 | 194 | 0.0 | 6.4 | 0.00 | 0.00 | 0.00 | 63 | 1014.3 |
| 20260508185812 | 16 | 124 | 0.0 | 4.8 | 0.00 | 0.00 | 0.00 | 85 | 1014.8 |
| 20260508185403 | 13 | 292 | 3.2 | 3.2 | 0.00 | 0.00 | 0.00 | 74 | 1012.8 |
| 20260508185345 | 17 | 262 | 1.6 | 6.4 | 0.00 | 0.51 | 0.00 | 85 | 1009.7 |
| 20260508185338 | 20 | 5 | 8.0 | 11.3 | 0.00 | 0.00 | 0.00 | 54 | 1014.8 |
| 20260508185335 | 15 | 263 | 3.2 | 4.8 | 0.00 | 0.00 | 0.00 | 81 | 1012.7 |
| 20260508185332 | 19 | 159 | 1.6 | 3.2 | 0.00 | 0.00 | 0.00 | 76 | 1015.2 |
| 20260508185327 | 18 | 194 | 6.4 | 6.4 | 0.00 | 0.00 | 0.00 | 63 | 1014.2 |
| 20260508185312 | 16 | 124 | 1.6 | 4.8 | 0.00 | 0.00 | 0.00 | 85 | 1014.7 |
| 20260508184901 | 13 | 281 | 1.6 | 6.4 | 0.00 | 0.00 | 0.00 | 74 | 1012.7 |
| 20260508184846 | 17 | 258 | 0.0 | 8.0 | 0.00 | 0.51 | 0.00 | 85 | 1009.6 |
| 20260508184844 | 20 | 17 | 0.0 | 0.0 | 0.00 | 0.00 | 0.00 | 54 | 1014.8 |
| 20260508184838 | 19 | 159 | 0.0 | 3.2 | 0.00 | 0.00 | 0.00 | 75 | 1015.3 |
| 20260508184830 | 19 | 199 | 1.6 | 9.7 | 0.00 | 0.00 | 0.00 | 62 | 1014.1 |
| 20260508184812 | 16 | 126 | 4.8 | 4.8 | 0.00 | 0.00 | 0.00 | 85 | 1014.6 |
| 20260508184401 | 13 | 268 | 3.2 | 4.8 | 0.00 | 0.00 | 0.00 | 74 | 1012.7 |
| 20260508184345 | 17 | 248 | 3.2 | 9.7 | 0.00 | 0.51 | 0.00 | 85 | 1009.5 |
| 20260508184332 | 20 | 159 | 0.0 | 3.2 | 0.00 | 0.00 | 0.00 | 75 | 1015.2 |
| 20260508184330 | 19 | 197 | 1.6 | 11.3 | 0.00 | 0.00 | 0.00 | 62 | 1014.0 |
| 20260508184312 | 16 | 131 | 4.8 | 8.0 | 0.00 | 0.00 | 0.00 | 85 | 1014.5 |
| 20260508183858 | 13 | 268 | 3.2 | 11.3 | 0.00 | 0.00 | 0.00 | 74 | 1012.6 |
| 20260508183845 | 17 | 219 | 1.6 | 11.3 | 0.00 | 0.51 | 0.00 | 85 | 1009.4 |
| 20260508183838 | 15 | 291 | 1.6 | 8.0 | 0.00 | 0.00 | 0.00 | 80 | 1012.2 |
| 20260508183836 | 19 | 204 | 1.6 | 8.0 | 0.00 | 0.00 | 0.00 | 62 | 1014.0 |
| 20260508183832 | 20 | 159 | 1.6 | 6.4 | 0.00 | 0.00 | 0.00 | 74 | 1015.1 |
| 20260508183815 | 16 | 103 | 0.0 | 6.4 | 0.00 | 0.00 | 0.00 | 84 | 1014.5 |
| 20260508183358 | 13 | 297 | 3.2 | 4.8 | 0.00 | 0.00 | 0.00 | 75 | 1012.6 |
| 20260508183347 | 17 | 213 | 1.6 | 11.3 | 0.00 | 0.51 | 0.00 | 85 | 1009.3 |
| 20260508183341 | 20 | 35 | 0.0 | 8.0 | 0.00 | 0.00 | 0.00 | 53 | 1014.5 |
| 20260508183335 | 20 | 159 | 0.0 | 6.4 | 0.00 | 0.00 | 0.00 | 74 | 1015.1 |
| 20260508183333 | 16 | 248 | 3.2 | 6.4 | 0.00 | 0.00 | 0.00 | 79 | 1012.2 |
| 20260508183330 | 19 | 205 | 1.6 | 9.7 | 0.00 | 0.00 | 0.00 | 62 | 1013.9 |
| 20260508183313 | 16 | 67 | 0.0 | 4.8 | 0.00 | 0.00 | 0.00 | 84 | 1014.4 |
| 20260508182901 | 13 | 301 | 3.2 | 4.8 | 0.00 | 0.00 | 0.00 | 75 | 1012.5 |
| 20260508182848 | 17 | 203 | 9.7 | 11.3 | 0.00 | 0.51 | 0.00 | 84 | 1009.3 |
| 20260508182844 | 20 | 0 | 6.4 | 12.9 | 0.00 | 0.00 | 0.00 | 54 | 1014.5 |
| 20260508182835 | 16 | 250 | 1.6 | 4.8 | 0.00 | 0.00 | 0.00 | 78 | 1012.1 |
| 20260508182832 | 20 | 152 | 1.6 | 4.8 | 0.00 | 0.00 | 0.00 | 73 | 1014.9 |
| 20260508182827 | 20 | 201 | 0.0 | 6.4 | 0.00 | 0.00 | 0.00 | 62 | 1013.9 |
| 20260508182818 | 16 | 67 | 3.2 | 4.8 | 0.00 | 0.00 | 0.00 | 83 | 1014.4 |
| 20260508182401 | 13 | 301 | 1.6 | 4.8 | 0.00 | 0.00 | 0.00 | 75 | 1012.5 |
| 20260508182348 | 17 | 260 | 6.4 | 12.9 | 0.00 | 0.51 | 0.00 | 84 | 1009.2 |
| 20260508182338 | 20 | 0 | 9.7 | 11.3 | 0.00 | 0.00 | 0.00 | 53 | 1014.5 |
| 20260508182335 | 16 | 250 | 3.2 | 3.2 | 0.00 | 0.00 | 0.00 | 77 | 1012.1 |
| 20260508182332 | 20 | 152 | 3.2 | 4.8 | 0.00 | 0.00 | 0.00 | 73 | 1014.9 |
| 20260508182327 | 20 | 202 | 3.2 | 12.9 | 0.00 | 0.00 | 0.00 | 61 | 1013.9 |
| 20260508182316 | 16 | 67 | 1.6 | 4.8 | 0.00 | 0.00 | 0.00 | 83 | 1014.3 |
| 20260508181858 | 13 | 302 | 0.0 | 6.4 | 0.00 | 0.00 | 0.00 | 76 | 1012.4 |
| 20260508181848 | 17 | 203 | 8.0 | 12.9 | 0.00 | 0.51 | 0.00 | 84 | 1009.0 |
| 20260508181844 | 19 | 106 | 0.0 | 0.0 | 0.00 | 0.00 | 0.00 | 68 | 1012.4 |
| 20260508181838 | 20 | 23 | 0.0 | 16.1 | 0.00 | 0.00 | 0.00 | 52 | 1014.3 |
| 20260508181835 | 20 | 152 | 3.2 | 4.8 | 0.00 | 0.00 | 0.00 | 72 | 1014.8 |
| 20260508181829 | 16 | 250 | 1.6 | 6.4 | 0.00 | 0.00 | 0.00 | 77 | 1012.1 |
| 20260508181827 | 20 | 211 | 3.2 | 12.9 | 0.00 | 0.00 | 0.00 | 60 | 1013.7 |
| 20260508181812 | 16 | 67 | 1.6 | 3.2 | 0.00 | 0.00 | 0.00 | 83 | 1014.3 |
| 20260508181407 | 13 | 321 | 1.6 | 3.2 | 0.00 | 0.00 | 0.00 | 75 | 1012.4 |
| 20260508181350 | 17 | 204 | 6.4 | 11.3 | 0.00 | 0.51 | 0.00 | 83 | 1008.9 |
| 20260508181341 | 20 | 65 | 8.0 | 11.3 | 0.00 | 0.00 | 0.00 | 52 | 1014.3 |
| 20260508181333 | 21 | 150 | 0.0 | 3.2 | 0.00 | 0.00 | 0.00 | 72 | 1014.8 |
| 20260508181327 | 20 | 214 | 8.0 | 11.3 | 0.00 | 0.00 | 0.00 | 61 | 1013.7 |
| 20260508181313 | 16 | 67 | 0.0 | 4.8 | 0.00 | 0.00 | 0.00 | 82 | 1014.3 |
| 20260508180858 | 13 | 321 | 0.0 | 1.6 | 0.00 | 0.00 | 0.00 | 75 | 1012.3 |
| 20260508180845 | 17 | 203 | 6.4 | 11.3 | 0.00 | 0.51 | 0.00 | 83 | 1008.9 |
| 20260508180838 | 20 | 55 | 0.0 | 6.4 | 0.00 | 0.00 | 0.00 | 52 | 1014.2 |
| 20260508180832 | 21 | 150 | 0.0 | 6.4 | 0.00 | 0.00 | 0.00 | 71 | 1014.7 |
| 20260508180830 | 20 | 211 | 8.0 | 9.7 | 0.00 | 0.00 | 0.00 | 60 | 1013.7 |
| 20260508180818 | 16 | 67 | 3.2 | 4.8 | 0.00 | 0.00 | 0.00 | 82 | 1014.3 |
| 20260508180358 | 13 | 321 | 0.0 | 3.2 | 0.00 | 0.00 | 0.00 | 75 | 1012.3 |
| 20260508180348 | 17 | 165 | 8.0 | 14.5 | 0.00 | 0.51 | 0.00 | 83 | 1008.9 |
| 20260508180344 | 20 | 106 | 0.0 | 0.0 | 0.00 | 0.00 | 0.00 | 63 | 1012.3 |
| 20260508180338 | 20 | 30 | 0.0 | 6.4 | 0.00 | 0.00 | 0.00 | 51 | 1014.1 |
| 20260508180335 | 21 | 160 | 1.6 | 6.4 | 0.00 | 0.00 | 0.00 | 70 | 1014.6 |
| 20260508180329 | 17 | 245 | 1.6 | 4.8 | 0.00 | 0.00 | 0.00 | 75 | 1012.2 |
| 20260508180327 | 20 | 208 | 6.4 | 14.5 | 0.00 | 0.00 | 0.00 | 60 | 1013.5 |
| 20260508180321 | 16 | 67 | 1.6 | 4.8 | 0.00 | 0.00 | 0.00 | 82 | 1014.2 |
| 20260508175858 | 14 | 321 | 1.6 | 3.2 | 0.00 | 0.00 | 0.00 | 74 | 1012.2 |
| 20260508175845 | 18 | 202 | 9.7 | 11.3 | 0.00 | 0.51 | 0.00 | 82 | 1008.9 |
| 20260508175841 | 20 | 0 | 0.0 | 8.0 | 0.00 | 0.00 | 0.00 | 52 | 1013.9 |
| 20260508175835 | 21 | 168 | 0.0 | 4.8 | 0.00 | 0.00 | 0.00 | 70 | 1014.6 |
| 20260508175830 | 17 | 259 | 3.2 | 6.4 | 0.00 | 0.00 | 0.00 | 75 | 1012.1 |
| 20260508175827 | 20 | 210 | 4.8 | 11.3 | 0.00 | 0.00 | 0.00 | 61 | 1013.4 |
| 20260508175812 | 16 | 67 | 3.2 | 4.8 | 0.00 | 0.00 | 0.00 | 82 | 1014.2 |
| 20260508175359 | 14 | 256 | 1.6 | 4.8 | 0.00 | 0.00 | 0.00 | 74 | 1012.1 |
| 20260508175345 | 18 | 195 | 4.8 | 9.7 | 0.00 | 0.51 | 0.00 | 82 | 1008.8 |
| 20260508175332 | 21 | 171 | 1.6 | 6.4 | 0.00 | 0.00 | 0.00 | 69 | 1014.6 |
| 20260508175330 | 20 | 242 | 4.8 | 8.0 | 0.00 | 0.00 | 0.00 | 61 | 1013.4 |
| 20260508175315 | 16 | 67 | 3.2 | 8.0 | 0.00 | 0.00 | 0.00 | 82 | 1014.2 |
| 20260508174901 | 14 | 171 | 0.0 | 6.4 | 0.00 | 0.00 | 0.00 | 73 | 1012.2 |
| 20260508174845 | 18 | 217 | 3.2 | 8.0 | 0.00 | 0.51 | 0.00 | 82 | 1008.7 |
| 20260508174832 | 21 | 177 | 0.0 | 3.2 | 0.00 | 0.00 | 0.00 | 69 | 1014.6 |
| 20260508174829 | 18 | 253 | 3.2 | 4.8 | 0.00 | 0.00 | 0.00 | 74 | 1012.0 |
| 20260508174827 | 20 | 236 | 4.8 | 12.9 | 0.00 | 0.00 | 0.00 | 60 | 1013.4 |
| 20260508174812 | 16 | 67 | 4.8 | 6.4 | 0.00 | 0.00 | 0.00 | 82 | 1014.1 |
| 20260508174401 | 14 | 174 | 4.8 | 6.4 | 0.00 | 0.00 | 0.00 | 73 | 1012.2 |
| 20260508174345 | 18 | 229 | 3.2 | 9.7 | 0.00 | 0.51 | 0.00 | 82 | 1008.6 |
| 20260508174335 | 18 | 259 | 3.2 | 4.8 | 0.00 | 0.00 | 0.00 | 73 | 1011.6 |
| 20260508174330 | 20 | 235 | 6.4 | 14.5 | 0.00 | 0.00 | 0.00 | 59 | 1013.3 |
| 20260508174312 | 16 | 67 | 3.2 | 6.4 | 0.00 | 0.00 | 0.00 | 82 | 1014.1 |
| 20260508173858 | 14 | 257 | 0.0 | 4.8 | 0.00 | 0.00 | 0.00 | 72 | 1012.1 |
| 20260508173848 | 18 | 218 | 4.8 | 9.7 | 0.00 | 0.51 | 0.00 | 82 | 1008.6 |
| 20260508173838 | 21 | 32 | 3.2 | 4.8 | 0.00 | 0.00 | 0.00 | 51 | 1013.9 |
| 20260508173832 | 18 | 267 | 3.2 | 4.8 | 0.00 | 0.00 | 0.00 | 71 | 1011.6 |
| 20260508173830 | 20 | 250 | 11.3 | 17.7 | 0.00 | 0.00 | 0.00 | 59 | 1013.3 |
| 20260508173812 | 16 | 67 | 3.2 | 6.4 | 0.00 | 0.00 | 0.00 | 82 | 1014.2 |
| 20260508173358 | 14 | 256 | 1.6 | 4.8 | 0.00 | 0.00 | 0.00 | 72 | 1012.0 |
| 20260508173345 | 18 | 203 | 3.2 | 9.7 | 0.00 | 0.51 | 0.00 | 82 | 1008.5 |
| 20260508173338 | 21 | 56 | 0.0 | 0.0 | 0.00 | 0.00 | 0.00 | 51 | 1013.9 |
| 20260508173333 | 18 | 29 | 0.0 | 1.6 | 0.00 | 0.00 | 0.00 | 70 | 1011.6 |
| 20260508173327 | 20 | 221 | 9.7 | 14.5 | 0.00 | 0.00 | 0.00 | 59 | 1013.3 |
| 20260508173315 | 16 | 67 | 4.8 | 6.4 | 0.00 | 0.00 | 0.00 | 82 | 1014.2 |
| 20260508172858 | 14 | 193 | 0.0 | 1.6 | 0.00 | 0.00 | 0.00 | 72 | 1012.0 |
| 20260508172846 | 18 | 214 | 6.4 | 11.3 | 0.00 | 0.51 | 0.00 | 82 | 1008.5 |
| 20260508172840 | 21 | 45 | 0.0 | 9.7 | 0.00 | 0.00 | 0.00 | 50 | 1013.8 |
| 20260508172835 | 22 | 173 | 8.0 | 9.7 | 0.00 | 0.00 | 0.00 | 65 | 1014.5 |
| 20260508172830 | 21 | 221 | 9.7 | 14.5 | 0.00 | 0.00 | 0.00 | 58 | 1013.2 |
| 20260508172816 | 16 | 63 | 4.8 | 6.4 | 0.00 | 0.00 | 0.00 | 83 | 1014.2 |
| 20260508172358 | 15 | 193 | 0.0 | 6.4 | 0.00 | 0.00 | 0.00 | 72 | 1012.0 |
| 20260508172345 | 18 | 229 | 3.2 | 9.7 | 0.00 | 0.51 | 0.00 | 82 | 1008.5 |
| 20260508172341 | 21 | 30 | 0.0 | 0.0 | 0.00 | 0.00 | 0.00 | 50 | 1013.8 |
| 20260508172332 | 22 | 163 | 0.0 | 6.4 | 0.00 | 0.00 | 0.00 | 65 | 1014.5 |
| 20260508172329 | 19 | 320 | 0.0 | 3.2 | 0.00 | 0.00 | 0.00 | 66 | 1011.7 |
| 20260508172321 | 16 | 63 | 1.6 | 4.8 | 0.00 | 0.00 | 0.00 | 83 | 1014.2 |
| 20260508171901 | 15 | 189 | 1.6 | 3.2 | 0.00 | 0.00 | 0.00 | 71 | 1011.9 |
| 20260508171851 | 18 | 192 | 1.6 | 9.7 | 0.00 | 0.51 | 0.00 | 82 | 1008.5 |
| 20260508171846 | 21 | 105 | 0.0 | 0.0 | 0.00 | 0.00 | 0.00 | 64 | 1011.8 |
| 20260508171838 | 21 | 314 | 0.0 | 8.0 | 0.00 | 0.00 | 0.00 | 50 | 1014.0 |
| 20260508171835 | 22 | 167 | 4.8 | 6.4 | 0.00 | 0.00 | 0.00 | 65 | 1014.4 |
| 20260508171833 | 21 | 203 | 11.3 | 14.5 | 0.00 | 0.00 | 0.00 | 58 | 1013.2 |
| 20260508171829 | 19 | 312 | 1.6 | 3.2 | 0.00 | 0.00 | 0.00 | 67 | 1011.7 |
| 20260508171821 | 16 | 63 | 3.2 | 4.8 | 0.00 | 0.00 | 0.00 | 83 | 1014.2 |
| 20260508171401 | 15 | 226 | 0.0 | 4.8 | 0.00 | 0.00 | 0.00 | 70 | 1011.9 |
| 20260508171351 | 18 | 214 | 4.8 | 8.0 | 0.00 | 0.51 | 0.00 | 81 | 1008.4 |
| 20260508171341 | 21 | 339 | 0.0 | 0.0 | 0.00 | 0.00 | 0.00 | 51 | 1013.8 |
| 20260508171333 | 21 | 199 | 3.2 | 19.3 | 0.00 | 0.00 | 0.00 | 58 | 1013.1 |
| 20260508171329 | 19 | 323 | 1.6 | 4.8 | 0.00 | 0.00 | 0.00 | 65 | 1011.8 |
| 20260508171321 | 16 | 49 | 4.8 | 6.4 | 0.00 | 0.00 | 0.00 | 83 | 1014.2 |
| 20260508170901 | 15 | 186 | 1.6 | 4.8 | 0.00 | 0.00 | 0.00 | 71 | 1011.9 |
| 20260508170845 | 18 | 223 | 3.2 | 9.7 | 0.00 | 0.51 | 0.00 | 82 | 1008.3 |
| 20260508170838 | 21 | 319 | 0.0 | 0.0 | 0.00 | 0.00 | 0.00 | 50 | 1013.9 |
| 20260508170835 | 22 | 142 | 1.6 | 4.8 | 0.00 | 0.00 | 0.00 | 65 | 1014.4 |
| 20260508170833 | 21 | 208 | 14.5 | 14.5 | 0.00 | 0.00 | 0.00 | 58 | 1013.2 |
| 20260508170829 | 19 | 78 | 0.0 | 3.2 | 0.00 | 0.00 | 0.00 | 64 | 1011.8 |
| 20260508170817 | 16 | 89 | 3.2 | 4.8 | 0.00 | 0.00 | 0.00 | 83 | 1014.2 |
| 20260508170401 | 15 | 213 | 3.2 | 3.2 | 0.00 | 0.00 | 0.00 | 71 | 1011.9 |
| 20260508170345 | 18 | 205 | 6.4 | 9.7 | 0.00 | 0.51 | 0.00 | 82 | 1008.2 |
| 20260508170338 | 21 | 47 | 0.0 | 0.0 | 0.00 | 0.00 | 0.00 | 52 | 1013.8 |
| 20260508170333 | 21 | 186 | 3.2 | 16.1 | 0.00 | 0.00 | 0.00 | 58 | 1013.2 |
| 20260508170330 | 19 | 81 | 3.2 | 6.4 | 0.00 | 0.00 | 0.00 | 64 | 1011.8 |
| 20260508170319 | 16 | 89 | 1.6 | 6.4 | 0.00 | 0.00 | 0.00 | 82 | 1014.2 |
| 20260508165858 | 15 | 213 | 0.0 | 4.8 | 0.00 | 0.00 | 0.00 | 71 | 1011.9 |
| 20260508165848 | 18 | 215 | 9.7 | 14.5 | 0.00 | 0.51 | 0.00 | 81 | 1008.1 |
| 20260508165844 | 21 | 16 | 0.0 | 0.0 | 0.00 | 0.00 | 0.00 | 50 | 1013.8 |
| 20260508165832 | 22 | 136 | 3.2 | 6.4 | 0.00 | 0.00 | 0.00 | 65 | 1014.4 |
| 20260508165829 | 19 | 53 | 3.2 | 8.0 | 0.00 | 0.00 | 0.00 | 63 | 1011.7 |
| 20260508165827 | 21 | 241 | 4.8 | 12.9 | 0.00 | 0.00 | 0.00 | 57 | 1013.1 |
| 20260508165815 | 16 | 60 | 3.2 | 8.0 | 0.00 | 0.00 | 0.00 | 82 | 1014.1 |
| 20260508165402 | 15 | 229 | 1.6 | 4.8 | 0.00 | 0.00 | 0.00 | 71 | 1011.9 |
| 20260508165352 | 18 | 205 | 6.4 | 14.5 | 0.00 | 0.51 | 0.00 | 81 | 1008.0 |
| 20260508165338 | 22 | 176 | 3.2 | 6.4 | 0.00 | 0.00 | 0.00 | 65 | 1014.4 |
| 20260508165329 | 19 | 55 | 0.0 | 8.0 | 0.00 | 0.00 | 0.00 | 64 | 1011.7 |
| 20260508165327 | 21 | 222 | 8.0 | 14.5 | 0.00 | 0.00 | 0.00 | 56 | 1013.1 |
| 20260508165312 | 16 | 63 | 6.4 | 9.7 | 0.00 | 0.00 | 0.00 | 82 | 1014.1 |
| 20260508164907 | 15 | 215 | 0.0 | 3.2 | 0.00 | 0.00 | 0.00 | 71 | 1011.8 |
| 20260508164852 | 21 | 106 | 0.0 | 0.0 | 0.00 | 0.00 | 0.00 | 64 | 1011.5 |
| 20260508164845 | 18 | 204 | 8.0 | 16.1 | 0.00 | 0.51 | 0.00 | 81 | 1008.0 |
| 20260508164843 | 21 | 5 | 0.0 | 14.5 | 0.00 | 0.00 | 0.00 | 50 | 1013.8 |
| 20260508164841 | 22 | 163 | 0.0 | 8.0 | 0.00 | 0.00 | 0.00 | 65 | 1014.4 |
| 20260508164833 | 21 | 240 | 6.4 | 12.9 | 0.00 | 0.00 | 0.00 | 56 | 1013.1 |
| 20260508164829 | 19 | 69 | 0.0 | 8.0 | 0.00 | 0.00 | 0.00 | 64 | 1011.7 |
| 20260508164812 | 16 | 69 | 4.8 | 11.3 | 0.00 | 0.00 | 0.00 | 82 | 1014.1 |
| 20260508164358 | 15 | 217 | 0.0 | 4.8 | 0.00 | 0.00 | 0.00 | 71 | 1011.9 |
| 20260508164345 | 18 | 204 | 8.0 | 14.5 | 0.00 | 0.51 | 0.00 | 82 | 1007.9 |
| 20260508164338 | 21 | 30 | 0.0 | 6.4 | 0.00 | 0.00 | 0.00 | 50 | 1013.6 |
| 20260508164332 | 22 | 130 | 1.6 | 8.0 | 0.00 | 0.00 | 0.00 | 64 | 1014.4 |
| 20260508164330 | 21 | 214 | 6.4 | 16.1 | 0.00 | 0.00 | 0.00 | 56 | 1013.1 |
| 20260508164312 | 16 | 47 | 6.4 | 8.0 | 0.00 | 0.00 | 0.00 | 81 | 1014.1 |
| 20260508163901 | 15 | 203 | 0.0 | 4.8 | 0.00 | 0.00 | 0.00 | 70 | 1011.8 |
| 20260508163845 | 18 | 198 | 1.6 | 14.5 | 0.00 | 0.51 | 0.00 | 82 | 1008.0 |
| 20260508163838 | 21 | 310 | 0.0 | 1.6 | 0.00 | 0.00 | 0.00 | 49 | 1013.7 |
| 20260508163835 | 19 | 34 | 3.2 | 6.4 | 0.00 | 0.00 | 0.00 | 64 | 1011.7 |
| 20260508163833 | 22 | 215 | 4.8 | 11.3 | 0.00 | 0.00 | 0.00 | 56 | 1013.0 |
| 20260508163812 | 16 | 98 | 0.0 | 6.4 | 0.00 | 0.00 | 0.00 | 81 | 1014.0 |
| 20260508163358 | 15 | 175 | 3.2 | 6.4 | 0.00 | 0.00 | 0.00 | 70 | 1011.8 |
| 20260508163351 | 18 | 162 | 4.8 | 14.5 | 0.00 | 0.51 | 0.00 | 82 | 1007.9 |
| 20260508163345 | 21 | 97 | 0.0 | 0.0 | 0.00 | 0.00 | 0.00 | 60 | 1011.5 |
| 20260508163340 | 21 | 9 | 0.0 | 16.1 | 0.00 | 0.00 | 0.00 | 49 | 1013.5 |
| 20260508163338 | 23 | 156 | 3.2 | 11.3 | 0.00 | 0.00 | 0.00 | 64 | 1014.4 |
| 20260508163333 | 19 | 63 | 3.2 | 8.0 | 0.00 | 0.00 | 0.00 | 65 | 1011.7 |
| 20260508163331 | 22 | 238 | 4.8 | 14.5 | 0.00 | 0.00 | 0.00 | 56 | 1012.9 |
| 20260508163312 | 16 | 117 | 0.0 | 1.6 | 0.00 | 0.00 | 0.00 | 81 | 1013.9 |
| 20260508162908 | 15 | 162 | 0.0 | 6.4 | 0.00 | 0.00 | 0.00 | 70 | 1011.8 |
| 20260508162848 | 18 | 198 | 11.3 | 14.5 | 0.00 | 0.51 | 0.00 | 82 | 1007.8 |
| 20260508162841 | 22 | 350 | 0.0 | 11.3 | 0.00 | 0.00 | 0.00 | 49 | 1013.5 |
| 20260508162832 | 19 | 36 | 3.2 | 8.0 | 0.00 | 0.00 | 0.00 | 65 | 1011.7 |
| 20260508162830 | 22 | 213 | 14.5 | 16.1 | 0.00 | 0.00 | 0.00 | 56 | 1012.9 |
| 20260508162820 | 16 | 117 | 0.0 | 6.4 | 0.00 | 0.00 | 0.00 | 81 | 1013.9 |
| 20260508162358 | 15 | 160 | 1.6 | 8.0 | 0.00 | 0.00 | 0.00 | 69 | 1011.8 |
| 20260508162349 | 18 | 200 | 8.0 | 19.3 | 0.00 | 0.51 | 0.00 | 81 | 1007.8 |
| 20260508162338 | 21 | 342 | 3.2 | 14.5 | 0.00 | 0.00 | 0.00 | 49 | 1013.5 |
| 20260508162330 | 21 | 210 | 0.0 | 12.9 | 0.00 | 0.00 | 0.00 | 58 | 1012.9 |
| 20260508162312 | 16 | 117 | 1.6 | 4.8 | 0.00 | 0.00 | 0.00 | 81 | 1013.9 |
| 20260508161858 | 15 | 198 | 1.6 | 4.8 | 0.00 | 0.00 | 0.00 | 70 | 1011.8 |
| 20260508161852 | 21 | 106 | 0.0 | 0.0 | 0.00 | 0.00 | 0.00 | 58 | 1011.5 |
| 20260508161846 | 18 | 194 | 8.0 | 17.7 | 0.00 | 0.51 | 0.00 | 81 | 1007.8 |
| 20260508161838 | 21 | 0 | 9.7 | 14.5 | 0.00 | 0.00 | 0.00 | 49 | 1013.5 |
| 20260508161835 | 19 | 40 | 6.4 | 8.0 | 0.00 | 0.00 | 0.00 | 66 | 1011.6 |
| 20260508161832 | 23 | 123 | 6.4 | 11.3 | 0.00 | 0.00 | 0.00 | 62 | 1014.4 |
| 20260508161827 | 21 | 233 | 8.0 | 14.5 | 0.00 | 0.00 | 0.00 | 57 | 1012.9 |
| 20260508161812 | 16 | 117 | 0.0 | 6.4 | 0.00 | 0.00 | 0.00 | 81 | 1013.9 |
| 20260508161401 | 15 | 180 | 0.0 | 8.0 | 0.00 | 0.00 | 0.00 | 69 | 1011.8 |
| 20260508161346 | 21 | 350 | 3.2 | 11.3 | 0.00 | 0.00 | 0.00 | 49 | 1013.4 |
| 20260508161332 | 23 | 248 | 1.6 | 6.4 | 0.00 | 0.00 | 0.00 | 62 | 1014.4 |
| 20260508161329 | 19 | 34 | 4.8 | 11.3 | 0.00 | 0.00 | 0.00 | 66 | 1011.7 |
| 20260508161327 | 22 | 218 | 9.7 | 14.5 | 0.00 | 0.00 | 0.00 | 57 | 1012.9 |
| 20260508161312 | 16 | 148 | 3.2 | 4.8 | 0.00 | 0.00 | 0.00 | 81 | 1013.8 |
| 20260508160858 | 15 | 160 | 1.6 | 8.0 | 0.00 | 0.00 | 0.00 | 69 | 1011.7 |
| 20260508160848 | 18 | 200 | 3.2 | 17.7 | 0.00 | 0.51 | 0.00 | 80 | 1007.9 |
| 20260508160838 | 21 | 346 | 1.6 | 8.0 | 0.00 | 0.00 | 0.00 | 49 | 1013.3 |
| 20260508160829 | 19 | 42 | 6.4 | 11.3 | 0.00 | 0.00 | 0.00 | 65 | 1011.7 |
| 20260508160827 | 22 | 187 | 9.7 | 16.1 | 0.00 | 0.00 | 0.00 | 56 | 1012.9 |
| 20260508160817 | 16 | 149 | 0.0 | 3.2 | 0.00 | 0.00 | 0.00 | 81 | 1013.8 |
| 20260508160358 | 15 | 173 | 3.2 | 9.7 | 0.00 | 0.00 | 0.00 | 69 | 1011.7 |
| 20260508160346 | 18 | 162 | 8.0 | 16.1 | 0.00 | 0.51 | 0.00 | 80 | 1007.8 |
| 20260508160338 | 21 | 320 | 9.7 | 17.7 | 0.00 | 0.00 | 0.00 | 48 | 1013.2 |
| 20260508160332 | 22 | 124 | 1.6 | 3.2 | 0.00 | 0.00 | 0.00 | 65 | 1014.3 |
| 20260508160330 | 19 | 74 | 3.2 | 9.7 | 0.00 | 0.00 | 0.00 | 65 | 1011.7 |
| 20260508160327 | 22 | 220 | 8.0 | 17.7 | 0.00 | 0.00 | 0.00 | 55 | 1012.8 |
| 20260508160316 | 16 | 148 | 0.0 | 8.0 | 0.00 | 0.00 | 0.00 | 81 | 1013.8 |
| 20260508155858 | 15 | 171 | 6.4 | 8.0 | 0.00 | 0.00 | 0.00 | 68 | 1011.6 |
| 20260508155851 | 18 | 229 | 9.7 | 17.7 | 0.00 | 0.51 | 0.00 | 80 | 1007.8 |
| 20260508155843 | 22 | 29 | 12.9 | 14.5 | 0.00 | 0.00 | 0.00 | 48 | 1013.2 |
| 20260508155836 | 19 | 76 | 6.4 | 8.0 | 0.00 | 0.00 | 0.00 | 65 | 1011.6 |
| 20260508155833 | 22 | 223 | 6.4 | 17.7 | 0.00 | 0.00 | 0.00 | 54 | 1012.7 |
| 20260508155815 | 16 | 115 | 4.8 | 4.8 | 0.00 | 0.00 | 0.00 | 82 | 1013.8 |
| 20260508155402 | 15 | 198 | 4.8 | 6.4 | 0.00 | 0.00 | 0.00 | 69 | 1011.6 |
| 20260508155345 | 19 | 200 | 16.1 | 17.7 | 0.00 | 0.51 | 0.00 | 80 | 1007.6 |
| 20260508155338 | 22 | 25 | 0.0 | 9.7 | 0.00 | 0.00 | 0.00 | 49 | 1013.2 |
| 20260508155335 | 22 | 116 | 0.0 | 4.8 | 0.00 | 0.00 | 0.00 | 64 | 1014.2 |
| 20260508155329 | 19 | 16 | 0.0 | 11.3 | 0.00 | 0.00 | 0.00 | 65 | 1011.6 |
| 20260508155327 | 22 | 222 | 12.9 | 17.7 | 0.00 | 0.00 | 0.00 | 54 | 1012.7 |
| 20260508155312 | 16 | 108 | 3.2 | 6.4 | 0.00 | 0.00 | 0.00 | 82 | 1013.9 |
| 20260508154907 | 15 | 180 | 0.0 | 9.7 | 0.00 | 0.00 | 0.00 | 69 | 1011.6 |
| 20260508154846 | 19 | 215 | 11.3 | 14.5 | 0.00 | 0.51 | 0.00 | 80 | 1007.5 |
| 20260508154838 | 22 | 119 | 1.6 | 9.7 | 0.00 | 0.00 | 0.00 | 64 | 1014.1 |
| 20260508154833 | 22 | 203 | 11.3 | 16.1 | 0.00 | 0.00 | 0.00 | 54 | 1012.7 |
| 20260508154829 | 19 | 30 | 11.3 | 12.9 | 0.00 | 0.00 | 0.00 | 65 | 1011.6 |
| 20260508154813 | 16 | 96 | 6.4 | 9.7 | 0.00 | 0.00 | 0.00 | 81 | 1013.9 |
| 20260508154401 | 15 | 161 | 6.4 | 8.0 | 0.00 | 0.00 | 0.00 | 69 | 1011.6 |
| 20260508154345 | 19 | 211 | 4.8 | 14.5 | 0.00 | 0.51 | 0.00 | 80 | 1007.6 |
| 20260508154338 | 22 | 5 | 0.0 | 14.5 | 0.00 | 0.00 | 0.00 | 47 | 1013.2 |
| 20260508154335 | 22 | 177 | 3.2 | 12.9 | 0.00 | 0.00 | 0.00 | 64 | 1014.1 |
| 20260508154332 | 20 | 36 | 12.9 | 16.1 | 0.00 | 0.00 | 0.00 | 65 | 1011.6 |
| 20260508154327 | 22 | 222 | 9.7 | 16.1 | 0.00 | 0.00 | 0.00 | 53 | 1012.7 |
| 20260508154313 | 16 | 99 | 1.6 | 9.7 | 0.00 | 0.00 | 0.00 | 81 | 1013.9 |
| 20260508153904 | 15 | 171 | 0.0 | 8.0 | 0.00 | 0.00 | 0.00 | 70 | 1011.5 |
| 20260508153852 | 19 | 233 | 14.5 | 16.1 | 0.00 | 0.51 | 0.00 | 80 | 1007.6 |
| 20260508153832 | 23 | 130 | 6.4 | 9.7 | 0.00 | 0.00 | 0.00 | 64 | 1014.1 |
| 20260508153830 | 22 | 202 | 6.4 | 14.5 | 0.00 | 0.00 | 0.00 | 52 | 1012.6 |
| 20260508153821 | 16 | 136 | 11.3 | 11.3 | 0.00 | 0.00 | 0.00 | 82 | 1014.0 |
| 20260508153404 | 15 | 117 | 3.2 | 4.8 | 0.00 | 0.00 | 0.00 | 69 | 1011.5 |
| 20260508153348 | 21 | 103 | 0.0 | 0.0 | 0.00 | 0.00 | 0.00 | 61 | 1011.5 |
| 20260508153339 | 20 | 32 | 3.2 | 11.3 | 0.00 | 0.00 | 0.00 | 66 | 1011.5 |
| 20260508153333 | 22 | 235 | 8.0 | 12.9 | 0.00 | 0.00 | 0.00 | 52 | 1012.6 |
| 20260508153315 | 16 | 86 | 3.2 | 14.5 | 0.00 | 0.00 | 0.00 | 82 | 1013.9 |
| 20260508152901 | 15 | 135 | 1.6 | 11.3 | 0.00 | 0.00 | 0.00 | 70 | 1011.6 |
| 20260508152849 | 19 | 216 | 11.3 | 14.5 | 0.00 | 0.51 | 0.00 | 81 | 1007.5 |
| 20260508152835 | 23 | 134 | 1.6 | 14.5 | 0.00 | 0.00 | 0.00 | 63 | 1014.1 |
| 20260508152830 | 22 | 256 | 4.8 | 14.5 | 0.00 | 0.00 | 0.00 | 54 | 1012.6 |
| 20260508152813 | 16 | 98 | 9.7 | 14.5 | 0.00 | 0.00 | 0.00 | 83 | 1014.0 |
| 20260508152358 | 15 | 161 | 1.6 | 9.7 | 0.00 | 0.00 | 0.00 | 69 | 1011.5 |
| 20260508152346 | 19 | 163 | 4.8 | 11.3 | 0.00 | 0.51 | 0.00 | 81 | 1007.5 |
| 20260508152335 | 23 | 110 | 4.8 | 11.3 | 0.00 | 0.00 | 0.00 | 65 | 1014.1 |
| 20260508152333 | 20 | 310 | 4.8 | 12.9 | 0.00 | 0.00 | 0.00 | 66 | 1011.5 |
| 20260508152327 | 22 | 244 | 8.0 | 12.9 | 0.00 | 0.00 | 0.00 | 53 | 1012.6 |
| 20260508152318 | 16 | 92 | 4.8 | 14.5 | 0.00 | 0.00 | 0.00 | 84 | 1014.0 |
| 20260508151858 | 15 | 117 | 6.4 | 8.0 | 0.00 | 0.00 | 0.00 | 71 | 1011.5 |
| 20260508151848 | 20 | 219 | 11.3 | 17.7 | 0.00 | 0.51 | 0.00 | 80 | 1007.4 |
| 20260508151845 | 21 | 104 | 0.0 | 0.0 | 0.00 | 0.00 | 0.00 | 62 | 1011.4 |
| 20260508151835 | 23 | 104 | 4.8 | 14.5 | 0.00 | 0.00 | 0.00 | 62 | 1014.2 |
| 20260508151829 | 20 | 299 | 3.2 | 17.7 | 0.00 | 0.00 | 0.00 | 66 | 1011.5 |
| 20260508151827 | 22 | 227 | 6.4 | 12.9 | 0.00 | 0.00 | 0.00 | 54 | 1012.5 |
| 20260508151822 | 16 | 104 | 6.4 | 20.9 | 0.00 | 0.00 | 0.00 | 84 | 1014.0 |
| 20260508151402 | 15 | 194 | 3.2 | 4.8 | 0.00 | 0.00 | 0.00 | 70 | 1011.6 |
| 20260508151345 | 20 | 217 | 9.7 | 12.9 | 0.00 | 0.51 | 0.00 | 81 | 1007.5 |
| 20260508151336 | 22 | 210 | 6.4 | 12.9 | 0.00 | 0.00 | 0.00 | 52 | 1012.6 |
| 20260508151330 | 20 | 339 | 8.0 | 14.5 | 0.00 | 0.00 | 0.00 | 65 | 1011.5 |
| 20260508151312 | 16 | 66 | 12.9 | 16.1 | 0.00 | 0.00 | 0.00 | 83 | 1013.9 |
| 20260508150858 | 16 | 138 | 4.8 | 6.4 | 0.00 | 0.00 | 0.00 | 70 | 1011.5 |
| 20260508150851 | 19 | 214 | 6.4 | 12.9 | 0.00 | 0.51 | 0.00 | 82 | 1007.4 |
| 20260508150835 | 23 | 121 | 8.0 | 12.9 | 0.00 | 0.00 | 0.00 | 63 | 1014.2 |
| 20260508150830 | 20 | 346 | 4.8 | 12.9 | 0.00 | 0.00 | 0.00 | 66 | 1011.5 |
| 20260508150827 | 22 | 229 | 6.4 | 14.5 | 0.00 | 0.00 | 0.00 | 52 | 1012.6 |
| 20260508150815 | 16 | 56 | 11.3 | 20.9 | 0.00 | 0.00 | 0.00 | 84 | 1013.9 |
| 20260508150404 | 16 | 125 | 0.0 | 4.8 | 0.00 | 0.00 | 0.00 | 70 | 1011.6 |
| 20260508150354 | 19 | 210 | 8.0 | 17.7 | 0.00 | 0.51 | 0.00 | 81 | 1007.4 |
| 20260508150348 | 22 | 105 | 0.0 | 0.0 | 0.00 | 0.00 | 0.00 | 58 | 1011.3 |
| 20260508150341 | 23 | 126 | 1.6 | 9.7 | 0.00 | 0.00 | 0.00 | 62 | 1014.3 |
| 20260508150330 | 20 | 45 | 9.7 | 11.3 | 0.00 | 0.00 | 0.00 | 65 | 1011.5 |
| 20260508150312 | 16 | 53 | 14.5 | 20.9 | 0.00 | 0.00 | 0.00 | 83 | 1013.8 |
| 20260508145858 | 16 | 169 | 3.2 | 6.4 | 0.00 | 0.00 | 0.00 | 68 | 1011.6 |
| 20260508145846 | 19 | 170 | 4.8 | 12.9 | 0.00 | 0.51 | 0.00 | 82 | 1007.5 |
| 20260508145835 | 23 | 155 | 0.0 | 4.8 | 0.00 | 0.00 | 0.00 | 62 | 1014.3 |
| 20260508145830 | 20 | 310 | 6.4 | 16.1 | 0.00 | 0.00 | 0.00 | 65 | 1011.6 |
| 20260508145818 | 16 | 69 | 14.5 | 17.7 | 0.00 | 0.00 | 0.00 | 83 | 1013.8 |
| 20260508145358 | 16 | 144 | 3.2 | 8.0 | 0.00 | 0.00 | 0.00 | 69 | 1011.5 |
| 20260508145345 | 19 | 224 | 11.3 | 17.7 | 0.00 | 0.51 | 0.00 | 81 | 1007.5 |
| 20260508145332 | 22 | 153 | 3.2 | 4.8 | 0.00 | 0.00 | 0.00 | 63 | 1014.3 |
| 20260508145330 | 20 | 317 | 12.9 | 14.5 | 0.00 | 0.00 | 0.00 | 65 | 1011.6 |
| 20260508145313 | 16 | 38 | 11.3 | 16.1 | 0.00 | 0.00 | 0.00 | 83 | 1013.8 |
| 20260508144902 | 16 | 138 | 3.2 | 4.8 | 0.00 | 0.00 | 0.00 | 70 | 1011.6 |
| 20260508144848 | 19 | 188 | 3.2 | 14.5 | 0.00 | 0.51 | 0.00 | 82 | 1007.5 |
| 20260508144845 | 22 | 100 | 0.0 | 0.0 | 0.00 | 0.00 | 0.00 | 62 | 1011.4 |
| 20260508144835 | 22 | 109 | 3.2 | 6.4 | 0.00 | 0.00 | 0.00 | 63 | 1014.4 |
| 20260508144831 | 19 | 324 | 1.6 | 17.7 | 0.00 | 0.00 | 0.00 | 65 | 1011.5 |
| 20260508144827 | 22 | 234 | 8.0 | 17.7 | 0.00 | 0.00 | 0.00 | 52 | 1012.6 |
| 20260508144812 | 16 | 77 | 14.5 | 20.9 | 0.00 | 0.00 | 0.00 | 83 | 1013.8 |
| 20260508144358 | 16 | 187 | 3.2 | 8.0 | 0.00 | 0.00 | 0.00 | 70 | 1011.6 |
| 20260508144354 | 19 | 237 | 3.2 | 19.3 | 0.00 | 0.51 | 0.00 | 81 | 1007.5 |
| 20260508144332 | 22 | 119 | 4.8 | 4.8 | 0.00 | 0.00 | 0.00 | 61 | 1014.4 |
| 20260508144330 | 19 | 300 | 9.7 | 12.9 | 0.00 | 0.00 | 0.00 | 65 | 1011.6 |
| 20260508144327 | 22 | 191 | 8.0 | 12.9 | 0.00 | 0.00 | 0.00 | 53 | 1012.6 |
| 20260508144315 | 16 | 52 | 16.1 | 20.9 | 0.00 | 0.00 | 0.00 | 82 | 1013.8 |
| 20260508143904 | 15 | 198 | 3.2 | 9.7 | 0.00 | 0.00 | 0.00 | 70 | 1011.6 |
| 20260508143849 | 19 | 218 | 6.4 | 14.5 | 0.00 | 0.51 | 0.00 | 81 | 1007.3 |
| 20260508143835 | 22 | 118 | 0.0 | 3.2 | 0.00 | 0.00 | 0.00 | 61 | 1014.5 |
| 20260508143830 | 19 | 329 | 9.7 | 17.7 | 0.00 | 0.00 | 0.00 | 64 | 1011.6 |
| 20260508143827 | 22 | 205 | 9.7 | 14.5 | 0.00 | 0.00 | 0.00 | 53 | 1012.7 |
| 20260508143818 | 16 | 74 | 12.9 | 20.9 | 0.00 | 0.00 | 0.00 | 82 | 1013.8 |
| 20260508143401 | 16 | 169 | 1.6 | 6.4 | 0.00 | 0.00 | 0.00 | 69 | 1011.7 |
| 20260508143345 | 21 | 101 | 0.0 | 0.0 | 0.00 | 0.00 | 0.00 | 64 | 1011.5 |
| 20260508143339 | 19 | 26 | 4.8 | 16.1 | 0.00 | 0.00 | 0.00 | 65 | 1011.6 |
| 20260508143335 | 22 | 119 | 0.0 | 6.4 | 0.00 | 0.00 | 0.00 | 61 | 1014.5 |
| 20260508143327 | 23 | 218 | 6.4 | 14.5 | 0.00 | 0.00 | 0.00 | 50 | 1012.6 |
| 20260508143318 | 16 | 72 | 17.7 | 20.9 | 0.00 | 0.00 | 0.00 | 82 | 1013.8 |
| 20260508142907 | 16 | 140 | 6.4 | 11.3 | 0.00 | 0.00 | 0.00 | 68 | 1011.7 |
| 20260508142848 | 19 | 221 | 4.8 | 16.1 | 0.00 | 0.51 | 0.00 | 81 | 1007.2 |
| 20260508142832 | 23 | 113 | 6.4 | 11.3 | 0.00 | 0.00 | 0.00 | 61 | 1014.6 |
| 20260508142830 | 19 | 257 | 8.0 | 16.1 | 0.00 | 0.00 | 0.00 | 64 | 1011.8 |
| 20260508142827 | 23 | 249 | 6.4 | 12.9 | 0.00 | 0.00 | 0.00 | 53 | 1012.6 |
| 20260508142817 | 16 | 55 | 16.1 | 22.5 | 0.00 | 0.00 | 0.00 | 81 | 1013.8 |
| 20260508142401 | 16 | 244 | 3.2 | 9.7 | 0.00 | 0.00 | 0.00 | 69 | 1011.7 |
| 20260508142348 | 19 | 181 | 3.2 | 12.9 | 0.00 | 0.51 | 0.00 | 81 | 1007.2 |
| 20260508142336 | 19 | 284 | 6.4 | 14.5 | 0.00 | 0.00 | 0.00 | 64 | 1011.8 |
| 20260508142332 | 23 | 238 | 3.2 | 11.3 | 0.00 | 0.00 | 0.00 | 62 | 1014.5 |
| 20260508142327 | 23 | 179 | 14.5 | 19.3 | 0.00 | 0.00 | 0.00 | 51 | 1012.6 |
| 20260508142312 | 16 | 49 | 14.5 | 20.9 | 0.00 | 0.00 | 0.00 | 81 | 1013.7 |
| 20260508142308 | 21 | 107 | 9.7 | 14.5 | 0.00 | 0.00 | 0.00 | 49 | 1051.9 |
| 20260508141859 | 16 | 183 | 3.2 | 11.3 | 0.00 | 0.00 | 0.00 | 69 | 1011.7 |
| 20260508141851 | 21 | 97 | 0.0 | 0.0 | 0.00 | 0.00 | 0.00 | 63 | 1011.5 |
| 20260508141848 | 19 | 226 | 3.2 | 16.1 | 0.00 | 0.51 | 0.00 | 81 | 1007.2 |
| 20260508141838 | 23 | 144 | 4.8 | 8.0 | 0.00 | 0.00 | 0.00 | 62 | 1014.6 |
| 20260508141833 | 19 | 300 | 6.4 | 17.7 | 0.00 | 0.00 | 0.00 | 64 | 1011.8 |
| 20260508141827 | 23 | 214 | 4.8 | 14.5 | 0.00 | 0.00 | 0.00 | 51 | 1012.7 |
| 20260508141808 | 21 | 107 | 14.5 | 14.5 | 0.00 | 0.00 | 0.00 | 45 | 1051.9 |
| 20260508141358 | 16 | 227 | 4.8 | 12.9 | 0.00 | 0.00 | 0.00 | 69 | 1011.7 |
| 20260508141345 | 19 | 219 | 8.0 | 14.5 | 0.00 | 0.51 | 0.00 | 82 | 1007.2 |
| 20260508141332 | 23 | 157 | 1.6 | 6.4 | 0.00 | 0.00 | 0.00 | 61 | 1014.6 |
| 20260508141330 | 19 | 86 | 6.4 | 11.3 | 0.00 | 0.00 | 0.00 | 64 | 1011.7 |
| 20260508141327 | 23 | 217 | 9.7 | 19.3 | 0.00 | 0.00 | 0.00 | 51 | 1012.7 |
| 20260508141308 | 21 | 89 | 6.4 | 14.5 | 0.00 | 0.00 | 0.00 | 47 | 1052.0 |
| 20260508140904 | 16 | 143 | 6.4 | 11.3 | 0.00 | 0.00 | 0.00 | 70 | 1011.7 |
| 20260508140846 | 19 | 193 | 9.7 | 16.1 | 0.00 | 0.51 | 0.00 | 82 | 1007.2 |
| 20260508140833 | 19 | 78 | 4.8 | 14.5 | 0.00 | 0.00 | 0.00 | 66 | 1011.6 |
| 20260508140827 | 23 | 206 | 14.5 | 20.9 | 0.00 | 0.00 | 0.00 | 51 | 1012.7 |
| 20260508140808 | 21 | 119 | 8.0 | 16.1 | 0.00 | 0.00 | 0.00 | 47 | 1051.9 |
| 20260508140401 | 16 | 181 | 6.4 | 9.7 | 0.00 | 0.00 | 0.00 | 69 | 1011.7 |
| 20260508140349 | 22 | 108 | 0.0 | 0.0 | 0.00 | 0.00 | 0.00 | 61 | 1011.5 |
| 20260508140338 | 22 | 149 | 0.0 | 6.4 | 0.00 | 0.00 | 0.00 | 62 | 1014.6 |
| 20260508140330 | 16 | 47 | 22.5 | 22.5 | 0.00 | 0.00 | 0.00 | 81 | 1013.7 |
| 20260508140308 | 21 | 153 | 8.0 | 16.1 | 0.00 | 0.00 | 0.00 | 47 | 1052.1 |
| 20260508135904 | 16 | 184 | 4.8 | 8.0 | 0.00 | 0.00 | 0.00 | 70 | 1011.8 |
| 20260508135849 | 19 | 206 | 6.4 | 14.5 | 0.00 | 0.51 | 0.00 | 82 | 1007.3 |
| 20260508135841 | 22 | 141 | 0.0 | 9.7 | 0.00 | 0.00 | 0.00 | 63 | 1014.7 |
| 20260508135836 | 19 | 23 | 3.2 | 14.5 | 0.00 | 0.00 | 0.00 | 65 | 1011.5 |
| 20260508135830 | 16 | 54 | 17.7 | 22.5 | 0.00 | 0.00 | 0.00 | 78 | 1013.7 |
| 20260508135827 | 23 | 258 | 4.8 | 19.3 | 0.00 | 0.00 | 0.00 | 50 | 1012.7 |
| 20260508135814 | 21 | 175 | 6.4 | 14.5 | 0.00 | 0.00 | 0.00 | 47 | 1052.1 |
| 20260508135401 | 16 | 117 | 4.8 | 16.1 | 0.00 | 0.00 | 0.00 | 68 | 1011.8 |
| 20260508135351 | 19 | 158 | 6.4 | 14.5 | 0.00 | 0.51 | 0.00 | 82 | 1007.3 |
| 20260508135334 | 19 | 324 | 11.3 | 19.3 | 0.00 | 0.00 | 0.00 | 65 | 1011.5 |
| 20260508135332 | 22 | 109 | 4.8 | 9.7 | 0.00 | 0.00 | 0.00 | 63 | 1014.7 |
| 20260508135330 | 23 | 195 | 9.7 | 20.9 | 0.00 | 0.00 | 0.00 | 50 | 1012.8 |
| 20260508135308 | 21 | 65 | 9.7 | 14.5 | 0.00 | 0.00 | 0.00 | 49 | 1052.2 |
| 20260508134858 | 16 | 138 | 4.8 | 14.5 | 0.00 | 0.00 | 0.00 | 70 | 1011.8 |
| 20260508134849 | 22 | 101 | 0.0 | 0.0 | 0.00 | 0.00 | 0.00 | 57 | 1011.6 |
| 20260508134845 | 19 | 173 | 6.4 | 12.9 | 0.00 | 0.51 | 0.00 | 83 | 1007.2 |
| 20260508134838 | 17 | 63 | 9.7 | 22.5 | 0.00 | 0.00 | 0.00 | 76 | 1013.6 |
| 20260508134830 | 20 | 302 | 8.0 | 16.1 | 0.00 | 0.00 | 0.00 | 65 | 1011.5 |
| 20260508134827 | 23 | 216 | 8.0 | 19.3 | 0.00 | 0.00 | 0.00 | 51 | 1012.7 |
| 20260508134811 | 22 | 105 | 11.3 | 14.5 | 0.00 | 0.00 | 0.00 | 53 | 1052.3 |
| 20260508134401 | 16 | 132 | 0.0 | 11.3 | 0.00 | 0.00 | 0.00 | 68 | 1011.9 |
| 20260508134346 | 18 | 166 | 4.8 | 11.3 | 0.00 | 0.51 | 0.00 | 84 | 1007.2 |
| 20260508134336 | 17 | 58 | 14.5 | 19.3 | 0.00 | 0.00 | 0.00 | 75 | 1013.5 |
| 20260508134332 | 22 | 94 | 4.8 | 6.4 | 0.00 | 0.00 | 0.00 | 61 | 1014.9 |
| 20260508134330 | 20 | 280 | 1.6 | 19.3 | 0.00 | 0.00 | 0.00 | 64 | 1011.5 |
| 20260508134327 | 23 | 217 | 14.5 | 25.7 | 0.00 | 0.00 | 0.00 | 51 | 1012.9 |
| 20260508134308 | 22 | 161 | 3.2 | 14.5 | 0.00 | 0.03 | 0.00 | 53 | 1052.3 |
| 20260508133902 | 16 | 217 | 1.6 | 11.3 | 0.00 | 0.00 | 0.00 | 69 | 1011.9 |
| 20260508133845 | 18 | 190 | 8.0 | 11.3 | 0.00 | 0.51 | 0.00 | 84 | 1007.2 |
| 20260508133837 | 22 | 80 | 4.8 | 12.9 | 0.00 | 0.00 | 0.00 | 61 | 1015.0 |
| 20260508133833 | 20 | 5 | 6.4 | 16.1 | 0.00 | 0.00 | 0.00 | 64 | 1011.5 |
| 20260508133830 | 17 | 52 | 17.7 | 24.1 | 0.00 | 0.00 | 0.00 | 71 | 1013.7 |
| 20260508133827 | 23 | 215 | 8.0 | 19.3 | 0.00 | 0.00 | 0.00 | 50 | 1012.9 |
| 20260508133811 | 21 | 84 | 6.4 | 12.9 | 0.00 | 0.03 | 0.00 | 53 | 1055.7 |
| 20260508133401 | 16 | 127 | 3.2 | 14.5 | 0.00 | 0.00 | 0.00 | 68 | 1012.0 |
| 20260508133348 | 22 | 94 | 0.0 | 0.0 | 0.00 | 0.00 | 0.00 | 59 | 1011.7 |
| 20260508133335 | 22 | 62 | 6.4 | 11.3 | 0.00 | 0.00 | 0.00 | 61 | 1015.0 |
| 20260508133333 | 23 | 246 | 11.3 | 20.9 | 0.00 | 0.00 | 0.00 | 51 | 1012.9 |
| 20260508133330 | 19 | 38 | 3.2 | 11.3 | 0.00 | 0.00 | 0.00 | 64 | 1011.5 |
| 20260508133308 | 21 | 92 | 12.9 | 12.9 | 0.00 | 0.03 | 0.00 | 53 | 1064.5 |
| 20260508132904 | 16 | 134 | 1.6 | 9.7 | 0.00 | 0.00 | 0.00 | 68 | 1012.0 |
| 20260508132846 | 18 | 120 | 4.8 | 11.3 | 0.00 | 0.51 | 0.00 | 85 | 1007.3 |
| 20260508132832 | 22 | 96 | 9.7 | 11.3 | 0.00 | 0.00 | 0.00 | 62 | 1015.1 |
| 20260508132830 | 19 | 22 | 9.7 | 12.9 | 0.00 | 0.00 | 0.00 | 64 | 1011.5 |
| 20260508132827 | 23 | 227 | 8.0 | 16.1 | 0.00 | 0.00 | 0.00 | 51 | 1013.0 |
| 20260508132808 | 21 | 53 | 3.2 | 12.9 | 0.00 | 0.03 | 0.00 | 53 | 1143.2 |
| 20260508132407 | 15 | 175 | 1.6 | 9.7 | 0.00 | 0.00 | 0.00 | 70 | 1012.0 |
| 20260508132346 | 18 | 142 | 6.4 | 11.3 | 0.00 | 0.51 | 0.00 | 86 | 1007.3 |
| 20260508132336 | 19 | 50 | 8.0 | 14.5 | 0.00 | 0.00 | 0.00 | 64 | 1011.5 |
| 20260508132333 | 23 | 235 | 8.0 | 19.3 | 0.00 | 0.00 | 0.00 | 51 | 1013.0 |
| 20260508132330 | 17 | 43 | 16.1 | 20.9 | 0.00 | 0.00 | 0.00 | 71 | 1013.6 |
| 20260508132317 | 21 | 144 | 8.0 | 19.3 | 0.00 | 0.03 | 0.00 | 53 | 1013.2 |
| 20260508131858 | 15 | 121 | 11.3 | 12.9 | 0.00 | 0.00 | 0.00 | 70 | 1012.0 |
| 20260508131850 | 22 | 92 | 0.0 | 0.0 | 0.00 | 0.00 | 0.00 | 63 | 1011.7 |
| 20260508131845 | 18 | 138 | 4.8 | 11.3 | 0.00 | 0.51 | 0.00 | 85 | 1007.4 |
| 20260508131833 | 19 | 325 | 6.4 | 8.0 | 0.00 | 0.00 | 0.00 | 65 | 1011.5 |
| 20260508131830 | 16 | 53 | 17.7 | 20.9 | 0.00 | 0.00 | 0.00 | 78 | 1013.6 |
| 20260508131808 | 21 | 150 | 8.0 | 16.1 | 0.00 | 0.03 | 0.00 | 53 | 1013.3 |
| 20260508131358 | 15 | 101 | 0.0 | 4.8 | 0.00 | 0.00 | 0.00 | 71 | 1012.0 |
| 20260508131345 | 17 | 136 | 4.8 | 12.9 | 0.00 | 0.51 | 0.00 | 86 | 1007.5 |
| 20260508131332 | 22 | 56 | 8.0 | 9.7 | 0.00 | 0.00 | 0.00 | 61 | 1015.2 |
| 20260508131330 | 17 | 46 | 11.3 | 19.3 | 0.00 | 0.00 | 0.00 | 76 | 1013.6 |
| 20260508131327 | 23 | 209 | 17.7 | 19.3 | 0.00 | 0.00 | 0.00 | 51 | 1013.0 |
| 20260508131308 | 21 | 164 | 8.0 | 14.5 | 0.00 | 0.03 | 0.00 | 53 | 1013.2 |
| 20260508130858 | 15 | 89 | 3.2 | 6.4 | 0.00 | 0.00 | 0.00 | 69 | 1012.0 |
| 20260508130845 | 17 | 159 | 8.0 | 12.9 | 0.00 | 0.51 | 0.00 | 86 | 1007.6 |
| 20260508130832 | 22 | 90 | 3.2 | 11.3 | 0.00 | 0.00 | 0.00 | 62 | 1015.3 |
| 20260508130830 | 17 | 40 | 11.3 | 19.3 | 0.00 | 0.00 | 0.00 | 79 | 1013.6 |
| 20260508130827 | 22 | 201 | 14.5 | 19.3 | 0.00 | 0.00 | 0.00 | 52 | 1013.0 |
| 20260508130808 | 21 | 203 | 8.0 | 22.5 | 0.00 | 0.03 | 0.00 | 51 | 1013.2 |
| 20260508130359 | 15 | 126 | 3.2 | 6.4 | 0.00 | 0.00 | 0.00 | 69 | 1012.0 |
| 20260508130351 | 21 | 89 | 0.0 | 0.0 | 0.00 | 0.00 | 0.00 | 62 | 1011.7 |
| 20260508130346 | 17 | 180 | 8.0 | 14.5 | 0.00 | 0.51 | 0.00 | 86 | 1007.5 |
| 20260508130338 | 22 | 93 | 4.8 | 8.0 | 0.00 | 0.00 | 0.00 | 62 | 1015.3 |
| 20260508130333 | 19 | 315 | 6.4 | 16.1 | 0.00 | 0.00 | 0.00 | 65 | 1011.6 |
| 20260508130330 | 17 | 30 | 16.1 | 20.9 | 0.00 | 0.00 | 0.00 | 78 | 1013.6 |
| 20260508130327 | 22 | 233 | 8.0 | 20.9 | 0.00 | 0.00 | 0.00 | 51 | 1013.0 |
| 20260508130308 | 22 | 175 | 6.4 | 16.1 | 0.00 | 0.03 | 0.00 | 52 | 1013.1 |
| 20260508125858 | 15 | 126 | 3.2 | 6.4 | 0.00 | 0.00 | 0.00 | 70 | 1011.9 |
| 20260508125848 | 17 | 112 | 6.4 | 16.1 | 0.00 | 0.51 | 0.00 | 87 | 1007.5 |
| 20260508125836 | 22 | 231 | 9.7 | 19.3 | 0.00 | 0.00 | 0.00 | 52 | 1013.0 |
| 20260508125833 | 19 | 267 | 4.8 | 17.7 | 0.00 | 0.00 | 0.00 | 65 | 1011.6 |
| 20260508125811 | 22 | 156 | 4.8 | 19.3 | 0.00 | 0.03 | 0.00 | 52 | 1013.3 |
| 20260508125358 | 15 | 137 | 0.0 | 4.8 | 0.00 | 0.00 | 0.00 | 70 | 1012.0 |
| 20260508125351 | 17 | 142 | 3.2 | 17.7 | 0.00 | 0.51 | 0.00 | 87 | 1007.6 |
| 20260508125335 | 22 | 100 | 3.2 | 6.4 | 0.00 | 0.00 | 0.00 | 63 | 1015.3 |
| 20260508125333 | 17 | 42 | 14.5 | 20.9 | 0.00 | 0.00 | 0.00 | 74 | 1013.7 |
| 20260508125330 | 18 | 349 | 8.0 | 16.1 | 0.00 | 0.00 | 0.00 | 65 | 1011.6 |
| 20260508125311 | 22 | 136 | 8.0 | 17.7 | 0.00 | 0.03 | 0.00 | 51 | 1013.4 |
| 20260508124858 | 15 | 129 | 4.8 | 8.0 | 0.00 | 0.00 | 0.00 | 71 | 1012.0 |
| 20260508124845 | 22 | 71 | 0.0 | 0.0 | 0.00 | 0.00 | 0.00 | 63 | 1011.7 |
| 20260508124834 | 22 | 123 | 1.6 | 11.3 | 0.00 | 0.00 | 0.00 | 63 | 1015.3 |
| 20260508124830 | 17 | 40 | 17.7 | 20.9 | 0.00 | 0.00 | 0.00 | 75 | 1013.6 |
| 20260508124817 | 21 | 151 | 8.0 | 16.1 | 0.00 | 0.03 | 0.00 | 52 | 1013.5 |
| 20260508124401 | 15 | 115 | 4.8 | 8.0 | 0.00 | 0.00 | 0.00 | 70 | 1011.9 |
| 20260508124345 | 17 | 151 | 8.0 | 17.7 | 0.00 | 0.51 | 0.00 | 87 | 1007.6 |
| 20260508124333 | 19 | 340 | 4.8 | 11.3 | 0.00 | 0.00 | 0.00 | 65 | 1011.8 |
| 20260508124331 | 17 | 57 | 14.5 | 24.1 | 0.00 | 0.00 | 0.00 | 74 | 1013.5 |
| 20260508124327 | 23 | 234 | 12.9 | 17.7 | 0.00 | 0.00 | 0.00 | 51 | 1012.9 |
| 20260508124322 | 23 | 234 | 0.0 | 8.0 | 0.00 | 0.00 | 0.00 | 39 | 1013.6 |
| 20260508124317 | 21 | 132 | 6.4 | 14.5 | 0.00 | 0.03 | 0.00 | 54 | 1013.6 |
| 20260508123904 | 15 | 230 | 1.6 | 4.8 | 0.00 | 0.00 | 0.00 | 71 | 1012.0 |
| 20260508123845 | 16 | 114 | 4.8 | 19.3 | 0.00 | 0.51 | 0.00 | 86 | 1007.6 |
| 20260508123838 | 22 | 71 | 6.4 | 8.0 | 0.00 | 0.00 | 0.00 | 66 | 1015.4 |
| 20260508123831 | 18 | 330 | 6.4 | 11.3 | 0.00 | 0.00 | 0.00 | 64 | 1011.8 |
| 20260508123815 | 21 | 161 | 14.5 | 19.3 | 0.00 | 0.03 | 0.00 | 54 | 1013.5 |
| 20260508123813 | 23 | 163 | 8.0 | 9.7 | 0.00 | 0.00 | 0.00 | 41 | 1013.7 |
| 20260508123402 | 15 | 138 | 3.2 | 8.0 | 0.00 | 0.00 | 0.00 | 72 | 1012.0 |
| 20260508123354 | 22 | 107 | 0.0 | 0.0 | 0.00 | 0.00 | 0.00 | 63 | 1011.8 |
| 20260508123346 | 16 | 143 | 8.0 | 19.3 | 0.00 | 0.51 | 0.00 | 87 | 1007.6 |
| 20260508123341 | 22 | 102 | 9.7 | 11.3 | 0.00 | 0.00 | 0.00 | 65 | 1015.4 |
| 20260508123333 | 17 | 77 | 11.3 | 20.9 | 0.00 | 0.00 | 0.00 | 79 | 1013.4 |
| 20260508123330 | 23 | 235 | 6.4 | 17.7 | 0.00 | 0.00 | 0.00 | 53 | 1013.0 |
| 20260508123316 | 23 | 0 | 4.8 | 9.7 | 0.00 | 0.00 | 0.00 | 39 | 1013.7 |
| 20260508123312 | 21 | 137 | 6.4 | 14.5 | 0.00 | 0.03 | 0.00 | 53 | 1013.5 |
| 20260508122859 | 15 | 111 | 3.2 | 8.0 | 0.00 | 0.00 | 0.00 | 71 | 1012.0 |
| 20260508122851 | 16 | 148 | 1.6 | 14.5 | 0.00 | 0.51 | 0.00 | 87 | 1007.7 |
| 20260508122838 | 22 | 63 | 8.0 | 14.5 | 0.00 | 0.00 | 0.00 | 64 | 1015.4 |
| 20260508122830 | 19 | 263 | 4.8 | 14.5 | 0.00 | 0.00 | 0.00 | 65 | 1011.8 |
| 20260508122827 | 22 | 246 | 14.5 | 19.3 | 0.00 | 0.00 | 0.00 | 52 | 1013.1 |
| 20260508122819 | 23 | 240 | 0.0 | 12.9 | 0.00 | 0.00 | 0.00 | 40 | 1013.8 |
| 20260508122808 | 21 | 153 | 16.1 | 20.9 | 0.00 | 0.03 | 0.00 | 54 | 1013.5 |
| 20260508122358 | 15 | 132 | 6.4 | 11.3 | 0.00 | 0.00 | 0.00 | 70 | 1012.1 |
| 20260508122346 | 16 | 149 | 9.7 | 16.1 | 0.00 | 0.51 | 0.00 | 87 | 1007.6 |
| 20260508122332 | 22 | 121 | 6.4 | 11.3 | 0.00 | 0.00 | 0.00 | 64 | 1015.4 |
| 20260508122330 | 19 | 331 | 4.8 | 19.3 | 0.00 | 0.00 | 0.00 | 64 | 1011.8 |
| 20260508122316 | 23 | 217 | 6.4 | 20.9 | 0.00 | 0.00 | 0.00 | 40 | 1013.9 |
| 20260508122309 | 21 | 146 | 6.4 | 17.7 | 0.00 | 0.10 | 0.00 | 55 | 1013.5 |
| 20260508121905 | 15 | 147 | 3.2 | 6.4 | 0.00 | 0.00 | 0.00 | 72 | 1012.0 |
| 20260508121845 | 21 | 95 | 0.0 | 0.0 | 0.00 | 0.00 | 0.00 | 65 | 1011.8 |
| 20260508121833 | 17 | 67 | 16.1 | 22.5 | 0.00 | 0.00 | 0.00 | 78 | 1013.5 |
| 20260508121830 | 19 | 301 | 11.3 | 11.3 | 0.00 | 0.00 | 0.00 | 64 | 1011.8 |
| 20260508121814 | 21 | 159 | 9.7 | 16.1 | 0.00 | 0.25 | 0.00 | 54 | 1013.5 |
| 20260508121402 | 15 | 119 | 4.8 | 8.0 | 0.00 | 0.00 | 0.00 | 70 | 1012.0 |
| 20260508121348 | 16 | 151 | 4.8 | 12.9 | 0.00 | 0.51 | 0.00 | 87 | 1007.7 |
| 20260508121334 | 19 | 298 | 6.4 | 12.9 | 0.00 | 0.00 | 0.00 | 64 | 1011.7 |
| 20260508121332 | 22 | 79 | 3.2 | 8.0 | 0.00 | 0.00 | 0.00 | 64 | 1015.4 |
| 20260508121316 | 23 | 216 | 4.8 | 16.1 | 0.00 | 0.00 | 0.00 | 41 | 1013.9 |
| 20260508121311 | 21 | 92 | 4.8 | 20.9 | 0.00 | 0.30 | 0.00 | 51 | 1013.5 |
| 20260508120859 | 15 | 126 | 3.2 | 12.9 | 0.00 | 0.00 | 0.00 | 70 | 1012.0 |
| 20260508120846 | 16 | 130 | 9.7 | 14.5 | 0.00 | 0.51 | 0.00 | 88 | 1007.7 |
| 20260508120839 | 19 | 341 | 8.0 | 14.5 | 0.00 | 0.00 | 0.00 | 63 | 1011.7 |
| 20260508120836 | 18 | 42 | 16.1 | 19.3 | 0.00 | 0.00 | 0.00 | 76 | 1013.4 |
| 20260508120832 | 22 | 63 | 6.4 | 11.3 | 0.00 | 0.00 | 0.00 | 66 | 1015.4 |
| 20260508120827 | 22 | 237 | 11.3 | 16.1 | 0.00 | 0.00 | 0.00 | 52 | 1013.1 |
| 20260508120822 | 23 | 150 | 8.0 | 19.3 | 0.00 | 0.00 | 0.00 | 42 | 1013.9 |
| 20260508120808 | 21 | 180 | 8.0 | 19.3 | 0.00 | 0.36 | 0.00 | 52 | 1013.5 |
| 20260508120359 | 15 | 130 | 1.6 | 11.3 | 0.00 | 0.00 | 0.00 | 70 | 1012.0 |
| 20260508120348 | 21 | 312 | 0.0 | 0.0 | 0.00 | 0.00 | 0.00 | 72 | 1011.8 |
| 20260508120345 | 16 | 142 | 6.4 | 14.5 | 0.00 | 0.51 | 0.00 | 88 | 1007.7 |
| 20260508120338 | 22 | 99 | 1.6 | 17.7 | 0.00 | 0.00 | 0.00 | 64 | 1015.4 |
| 20260508120336 | 22 | 221 | 11.3 | 24.1 | 0.00 | 0.00 | 0.00 | 52 | 1013.2 |
| 20260508120330 | 19 | 11 | 4.8 | 14.5 | 0.00 | 0.00 | 0.00 | 63 | 1011.7 |
| 20260508120313 | 23 | 190 | 9.7 | 17.7 | 0.00 | 0.00 | 0.00 | 43 | 1013.9 |
| 20260508120311 | 20 | 137 | 6.4 | 17.7 | 0.00 | 0.43 | 0.00 | 53 | 1013.5 |
| 20260508115858 | 15 | 119 | 6.4 | 12.9 | 0.00 | 0.00 | 0.00 | 70 | 1012.0 |
| 20260508115848 | 16 | 122 | 8.0 | 17.7 | 0.00 | 0.51 | 0.00 | 88 | 1007.7 |
| 20260508115836 | 19 | 329 | 4.8 | 16.1 | 0.00 | 0.00 | 0.00 | 63 | 1011.7 |
| 20260508115832 | 22 | 128 | 4.8 | 12.9 | 0.00 | 0.00 | 0.00 | 64 | 1015.4 |
| 20260508115830 | 17 | 43 | 14.5 | 19.3 | 0.00 | 0.00 | 0.00 | 71 | 1013.4 |
| 20260508115827 | 22 | 175 | 4.8 | 16.1 | 0.00 | 0.00 | 0.00 | 50 | 1013.2 |
| 20260508115816 | 23 | 226 | 6.4 | 9.7 | 0.00 | 0.00 | 0.00 | 41 | 1013.9 |
| 20260508115814 | 21 | 109 | 11.3 | 14.5 | 0.00 | 0.48 | 0.00 | 52 | 1013.5 |
| 20260508115359 | 15 | 128 | 1.6 | 12.9 | 0.00 | 0.00 | 0.00 | 70 | 1012.0 |
| 20260508115352 | 16 | 145 | 16.1 | 16.1 | 0.00 | 0.51 | 0.00 | 88 | 1007.7 |
| 20260508115339 | 17 | 55 | 16.1 | 24.1 | 0.00 | 0.00 | 0.00 | 77 | 1013.3 |
| 20260508115332 | 22 | 151 | 3.2 | 11.3 | 0.00 | 0.00 | 0.00 | 65 | 1015.5 |
| 20260508115327 | 22 | 231 | 8.0 | 16.1 | 0.00 | 0.00 | 0.00 | 53 | 1013.2 |
| 20260508115314 | 21 | 142 | 9.7 | 12.9 | 0.00 | 0.53 | 0.00 | 55 | 1013.6 |
| 20260508114859 | 15 | 109 | 9.7 | 11.3 | 0.00 | 0.00 | 0.00 | 70 | 1012.0 |
| 20260508114849 | 16 | 146 | 6.4 | 22.5 | 0.00 | 0.51 | 0.00 | 88 | 1007.7 |
| 20260508114845 | 20 | 102 | 0.0 | 0.0 | 0.00 | 0.00 | 0.00 | 73 | 1011.8 |
| 20260508114833 | 19 | 32 | 9.7 | 16.1 | 0.00 | 0.00 | 0.00 | 62 | 1011.7 |
| 20260508114830 | 22 | 229 | 4.8 | 19.3 | 0.00 | 0.00 | 0.00 | 55 | 1013.2 |
| 20260508114813 | 23 | 216 | 4.8 | 14.5 | 0.00 | 0.00 | 0.00 | 39 | 1013.9 |
| 20260508114808 | 21 | 130 | 3.2 | 12.9 | 0.00 | 0.53 | 0.00 | 53 | 1013.5 |
| 20260508114359 | 15 | 117 | 4.8 | 11.3 | 0.00 | 0.00 | 0.00 | 69 | 1012.0 |
| 20260508114348 | 16 | 147 | 8.0 | 16.1 | 0.00 | 0.51 | 0.00 | 88 | 1007.7 |
| 20260508114338 | 21 | 125 | 4.8 | 9.7 | 0.00 | 0.00 | 0.00 | 66 | 1015.5 |
| 20260508114336 | 19 | 35 | 9.7 | 14.5 | 0.00 | 0.00 | 0.00 | 61 | 1011.7 |
| 20260508114330 | 22 | 229 | 4.8 | 19.3 | 0.00 | 0.08 | 0.00 | 54 | 1013.2 |
| 20260508114319 | 23 | 193 | 9.7 | 17.7 | 0.00 | 0.00 | 0.00 | 39 | 1013.9 |
| 20260508114311 | 21 | 150 | 8.0 | 16.1 | 0.00 | 0.53 | 0.00 | 53 | 1013.6 |
| 20260508113902 | 15 | 110 | 1.6 | 4.8 | 0.00 | 0.00 | 0.00 | 70 | 1012.1 |
| 20260508113845 | 16 | 122 | 4.8 | 22.5 | 0.03 | 0.51 | 0.00 | 87 | 1007.7 |
| 20260508113833 | 22 | 210 | 9.7 | 20.9 | 0.00 | 0.10 | 0.00 | 52 | 1013.3 |
| 20260508113830 | 17 | 11 | 12.9 | 19.3 | 0.00 | 0.00 | 0.00 | 80 | 1013.3 |
| 20260508113813 | 23 | 186 | 12.9 | 17.7 | 0.00 | 0.00 | 0.00 | 40 | 1014.1 |
| 20260508113359 | 15 | 157 | 1.6 | 11.3 | 0.00 | 0.00 | 0.00 | 70 | 1012.1 |
| 20260508113349 | 16 | 113 | 3.2 | 14.5 | 0.03 | 0.51 | 0.00 | 88 | 1007.7 |
| 20260508113334 | 19 | 338 | 6.4 | 17.7 | 0.00 | 0.00 | 0.00 | 61 | 1011.7 |
| 20260508113332 | 21 | 96 | 1.6 | 6.4 | 0.00 | 0.00 | 0.00 | 67 | 1015.6 |
| 20260508113330 | 17 | 48 | 11.3 | 22.5 | 0.00 | 0.00 | 0.00 | 79 | 1013.3 |
| 20260508113327 | 22 | 202 | 12.9 | 16.1 | 0.00 | 0.10 | 0.00 | 54 | 1013.3 |
| 20260508113316 | 23 | 152 | 6.4 | 19.3 | 0.00 | 0.00 | 0.00 | 42 | 1014.1 |
| 20260508113314 | 21 | 126 | 8.0 | 16.1 | 0.00 | 0.56 | 0.00 | 53 | 1013.6 |